<?xml version="1.0" encoding="UTF-8" standalone="no" ?>
<gpx xmlns="http://www.topografix.com/GPX/1/1" xmlns:xsi="http://www.w3.org/2001/XMLSchema-instance" xsi:schemaLocation="http://www.topografix.com/GPX/1/1 http://www.topografix.com/GPX/1/1/gpx.xsd" version="1.1" creator="VisuGPX - https://www.visugpx.com">
  <metadata>
    <name>43km_2024</name>
  </metadata>
  <trk>
    <name><![CDATA[Fleurbaix Cyclisme sur route]]></name>
    <extensions>
      <line xmlns="http://www.topografix.com/GPX/gpx_style/0/2">
        <color>0000FF</color>
        <width>4</width>
      </line>
    </extensions>
    <trkseg>
      <trkpt lat="50.65032" lon="2.83114">
        <ele>16.799999237061</ele>
        <time>2024-03-10T07:35:18.000Z</time>
      </trkpt>
      <trkpt lat="50.65033" lon="2.83122">
        <ele>16.799999237061</ele>
        <time>2024-03-10T07:35:19.000Z</time>
      </trkpt>
      <trkpt lat="50.65047" lon="2.83107">
        <ele>17.60000038147</ele>
        <time>2024-03-10T07:49:53.000Z</time>
      </trkpt>
      <trkpt lat="50.65044" lon="2.83102">
        <ele>17.60000038147</ele>
        <time>2024-03-10T07:49:55.000Z</time>
      </trkpt>
      <trkpt lat="50.65041" lon="2.83092">
        <ele>17.60000038147</ele>
        <time>2024-03-10T07:49:58.000Z</time>
      </trkpt>
      <trkpt lat="50.65042" lon="2.83089">
        <ele>17.60000038147</ele>
        <time>2024-03-10T07:49:59.000Z</time>
      </trkpt>
      <trkpt lat="50.65051" lon="2.8307">
        <ele>17.39999961853</ele>
        <time>2024-03-10T07:50:05.000Z</time>
      </trkpt>
      <trkpt lat="50.65045" lon="2.83051">
        <ele>17.39999961853</ele>
        <time>2024-03-10T07:50:09.000Z</time>
      </trkpt>
      <trkpt lat="50.65029" lon="2.83013">
        <ele>17.200000762939</ele>
        <time>2024-03-10T07:50:16.000Z</time>
      </trkpt>
      <trkpt lat="50.65006" lon="2.82967">
        <ele>17.39999961853</ele>
        <time>2024-03-10T07:50:25.000Z</time>
      </trkpt>
      <trkpt lat="50.65001" lon="2.82958">
        <ele>17.39999961853</ele>
        <time>2024-03-10T07:50:27.000Z</time>
      </trkpt>
      <trkpt lat="50.64984" lon="2.82929">
        <ele>17.39999961853</ele>
        <time>2024-03-10T07:50:33.000Z</time>
      </trkpt>
      <trkpt lat="50.64967" lon="2.82898">
        <ele>17.39999961853</ele>
        <time>2024-03-10T07:50:38.000Z</time>
      </trkpt>
      <trkpt lat="50.64942" lon="2.82854">
        <ele>17.200000762939</ele>
        <time>2024-03-10T07:50:45.000Z</time>
      </trkpt>
      <trkpt lat="50.64907" lon="2.82792">
        <ele>17.200000762939</ele>
        <time>2024-03-10T07:50:55.000Z</time>
      </trkpt>
      <trkpt lat="50.64873" lon="2.82738">
        <ele>17.200000762939</ele>
        <time>2024-03-10T07:51:04.000Z</time>
      </trkpt>
      <trkpt lat="50.64856" lon="2.82716">
        <ele>17.200000762939</ele>
        <time>2024-03-10T07:51:08.000Z</time>
      </trkpt>
      <trkpt lat="50.64833" lon="2.82693">
        <ele>17.200000762939</ele>
        <time>2024-03-10T07:51:13.000Z</time>
      </trkpt>
      <trkpt lat="50.64786" lon="2.82645">
        <ele>17.200000762939</ele>
        <time>2024-03-10T07:51:23.000Z</time>
      </trkpt>
      <trkpt lat="50.64746" lon="2.82595">
        <ele>16.799999237061</ele>
        <time>2024-03-10T07:51:32.000Z</time>
      </trkpt>
      <trkpt lat="50.64714" lon="2.82542">
        <ele>16.60000038147</ele>
        <time>2024-03-10T07:51:40.000Z</time>
      </trkpt>
      <trkpt lat="50.64703" lon="2.82522">
        <ele>16.60000038147</ele>
        <time>2024-03-10T07:51:43.000Z</time>
      </trkpt>
      <trkpt lat="50.64665" lon="2.82454">
        <ele>16.60000038147</ele>
        <time>2024-03-10T07:51:53.000Z</time>
      </trkpt>
      <trkpt lat="50.64653" lon="2.82434">
        <ele>16.60000038147</ele>
        <time>2024-03-10T07:51:56.000Z</time>
      </trkpt>
      <trkpt lat="50.64637" lon="2.82407">
        <ele>16.60000038147</ele>
        <time>2024-03-10T07:52:00.000Z</time>
      </trkpt>
      <trkpt lat="50.64609" lon="2.82359">
        <ele>16.60000038147</ele>
        <time>2024-03-10T07:52:07.000Z</time>
      </trkpt>
      <trkpt lat="50.64569" lon="2.82292">
        <ele>16.799999237061</ele>
        <time>2024-03-10T07:52:17.000Z</time>
      </trkpt>
      <trkpt lat="50.64564" lon="2.82286">
        <ele>16.799999237061</ele>
        <time>2024-03-10T07:52:18.000Z</time>
      </trkpt>
      <trkpt lat="50.6454" lon="2.82251">
        <ele>16.799999237061</ele>
        <time>2024-03-10T07:52:24.000Z</time>
      </trkpt>
      <trkpt lat="50.64497" lon="2.82191">
        <ele>16.799999237061</ele>
        <time>2024-03-10T07:52:34.000Z</time>
      </trkpt>
      <trkpt lat="50.6448" lon="2.82168">
        <ele>16.799999237061</ele>
        <time>2024-03-10T07:52:38.000Z</time>
      </trkpt>
      <trkpt lat="50.64444" lon="2.82128">
        <ele>16.60000038147</ele>
        <time>2024-03-10T07:52:46.000Z</time>
      </trkpt>
      <trkpt lat="50.64405" lon="2.82094">
        <ele>16.60000038147</ele>
        <time>2024-03-10T07:52:54.000Z</time>
      </trkpt>
      <trkpt lat="50.64354" lon="2.8205">
        <ele>16.60000038147</ele>
        <time>2024-03-10T07:53:05.000Z</time>
      </trkpt>
      <trkpt lat="50.64345" lon="2.82042">
        <ele>16.60000038147</ele>
        <time>2024-03-10T07:53:07.000Z</time>
      </trkpt>
      <trkpt lat="50.64326" lon="2.82025">
        <ele>16.60000038147</ele>
        <time>2024-03-10T07:53:11.000Z</time>
      </trkpt>
      <trkpt lat="50.64302" lon="2.82003">
        <ele>16.60000038147</ele>
        <time>2024-03-10T07:53:16.000Z</time>
      </trkpt>
      <trkpt lat="50.64275" lon="2.81974">
        <ele>16.60000038147</ele>
        <time>2024-03-10T07:53:22.000Z</time>
      </trkpt>
      <trkpt lat="50.64267" lon="2.81961">
        <ele>16.60000038147</ele>
        <time>2024-03-10T07:53:24.000Z</time>
      </trkpt>
      <trkpt lat="50.64229" lon="2.81895">
        <ele>16.60000038147</ele>
        <time>2024-03-10T07:53:34.000Z</time>
      </trkpt>
      <trkpt lat="50.64192" lon="2.8183">
        <ele>16.60000038147</ele>
        <time>2024-03-10T07:53:44.000Z</time>
      </trkpt>
      <trkpt lat="50.64163" lon="2.8178">
        <ele>16.60000038147</ele>
        <time>2024-03-10T07:53:52.000Z</time>
      </trkpt>
      <trkpt lat="50.64126" lon="2.81716">
        <ele>16.799999237061</ele>
        <time>2024-03-10T07:54:02.000Z</time>
      </trkpt>
      <trkpt lat="50.64122" lon="2.8171">
        <ele>16.799999237061</ele>
        <time>2024-03-10T07:54:03.000Z</time>
      </trkpt>
      <trkpt lat="50.64091" lon="2.81659">
        <ele>17</ele>
        <time>2024-03-10T07:54:11.000Z</time>
      </trkpt>
      <trkpt lat="50.64051" lon="2.81599">
        <ele>16.799999237061</ele>
        <time>2024-03-10T07:54:21.000Z</time>
      </trkpt>
      <trkpt lat="50.64039" lon="2.81581">
        <ele>16.799999237061</ele>
        <time>2024-03-10T07:54:24.000Z</time>
      </trkpt>
      <trkpt lat="50.64006" lon="2.81532">
        <ele>17</ele>
        <time>2024-03-10T07:54:32.000Z</time>
      </trkpt>
      <trkpt lat="50.63981" lon="2.81482">
        <ele>16.799999237061</ele>
        <time>2024-03-10T07:54:39.000Z</time>
      </trkpt>
      <trkpt lat="50.63959" lon="2.8141">
        <ele>16.799999237061</ele>
        <time>2024-03-10T07:54:48.000Z</time>
      </trkpt>
      <trkpt lat="50.63938" lon="2.81346">
        <ele>16.799999237061</ele>
        <time>2024-03-10T07:54:56.000Z</time>
      </trkpt>
      <trkpt lat="50.63936" lon="2.81338">
        <ele>16.799999237061</ele>
        <time>2024-03-10T07:54:57.000Z</time>
      </trkpt>
      <trkpt lat="50.6392" lon="2.81279">
        <ele>16.60000038147</ele>
        <time>2024-03-10T07:55:04.000Z</time>
      </trkpt>
      <trkpt lat="50.63904" lon="2.81192">
        <ele>16.60000038147</ele>
        <time>2024-03-10T07:55:14.000Z</time>
      </trkpt>
      <trkpt lat="50.63887" lon="2.81125">
        <ele>16.799999237061</ele>
        <time>2024-03-10T07:55:22.000Z</time>
      </trkpt>
      <trkpt lat="50.63854" lon="2.81052">
        <ele>16.799999237061</ele>
        <time>2024-03-10T07:55:32.000Z</time>
      </trkpt>
      <trkpt lat="50.63822" lon="2.80981">
        <ele>17</ele>
        <time>2024-03-10T07:55:42.000Z</time>
      </trkpt>
      <trkpt lat="50.63793" lon="2.80927">
        <ele>17</ele>
        <time>2024-03-10T07:55:50.000Z</time>
      </trkpt>
      <trkpt lat="50.63752" lon="2.80867">
        <ele>17</ele>
        <time>2024-03-10T07:56:00.000Z</time>
      </trkpt>
      <trkpt lat="50.63743" lon="2.80855">
        <ele>17</ele>
        <time>2024-03-10T07:56:02.000Z</time>
      </trkpt>
      <trkpt lat="50.63706" lon="2.80799">
        <ele>17</ele>
        <time>2024-03-10T07:56:11.000Z</time>
      </trkpt>
      <trkpt lat="50.63675" lon="2.80759">
        <ele>17</ele>
        <time>2024-03-10T07:56:18.000Z</time>
      </trkpt>
      <trkpt lat="50.63671" lon="2.80753">
        <ele>17</ele>
        <time>2024-03-10T07:56:19.000Z</time>
      </trkpt>
      <trkpt lat="50.6364" lon="2.80714">
        <ele>17</ele>
        <time>2024-03-10T07:56:26.000Z</time>
      </trkpt>
      <trkpt lat="50.63599" lon="2.80677">
        <ele>17.200000762939</ele>
        <time>2024-03-10T07:56:34.000Z</time>
      </trkpt>
      <trkpt lat="50.63551" lon="2.80636">
        <ele>17</ele>
        <time>2024-03-10T07:56:43.000Z</time>
      </trkpt>
      <trkpt lat="50.63546" lon="2.80631">
        <ele>17</ele>
        <time>2024-03-10T07:56:44.000Z</time>
      </trkpt>
      <trkpt lat="50.63498" lon="2.80591">
        <ele>17</ele>
        <time>2024-03-10T07:56:53.000Z</time>
      </trkpt>
      <trkpt lat="50.63493" lon="2.80586">
        <ele>17</ele>
        <time>2024-03-10T07:56:54.000Z</time>
      </trkpt>
      <trkpt lat="50.6344" lon="2.80542">
        <ele>17</ele>
        <time>2024-03-10T07:57:04.000Z</time>
      </trkpt>
      <trkpt lat="50.63394" lon="2.80497">
        <ele>16.799999237061</ele>
        <time>2024-03-10T07:57:13.000Z</time>
      </trkpt>
      <trkpt lat="50.63385" lon="2.80486">
        <ele>16.799999237061</ele>
        <time>2024-03-10T07:57:15.000Z</time>
      </trkpt>
      <trkpt lat="50.63363" lon="2.80455">
        <ele>17</ele>
        <time>2024-03-10T07:57:21.000Z</time>
      </trkpt>
      <trkpt lat="50.63353" lon="2.80437">
        <ele>17</ele>
        <time>2024-03-10T07:57:26.000Z</time>
      </trkpt>
      <trkpt lat="50.63355" lon="2.8042">
        <ele>17</ele>
        <time>2024-03-10T07:57:29.000Z</time>
      </trkpt>
      <trkpt lat="50.6337" lon="2.80384">
        <ele>17</ele>
        <time>2024-03-10T07:57:34.000Z</time>
      </trkpt>
      <trkpt lat="50.63395" lon="2.80327">
        <ele>16.200000762939</ele>
        <time>2024-03-10T07:57:41.000Z</time>
      </trkpt>
      <trkpt lat="50.63424" lon="2.80266">
        <ele>15.800000190735</ele>
        <time>2024-03-10T07:57:49.000Z</time>
      </trkpt>
      <trkpt lat="50.63459" lon="2.80194">
        <ele>15.800000190735</ele>
        <time>2024-03-10T07:57:59.000Z</time>
      </trkpt>
      <trkpt lat="50.63465" lon="2.8018">
        <ele>15.800000190735</ele>
        <time>2024-03-10T07:58:01.000Z</time>
      </trkpt>
      <trkpt lat="50.63478" lon="2.80155">
        <ele>15.800000190735</ele>
        <time>2024-03-10T07:58:05.000Z</time>
      </trkpt>
      <trkpt lat="50.63516" lon="2.80094">
        <ele>16</ele>
        <time>2024-03-10T07:58:15.000Z</time>
      </trkpt>
      <trkpt lat="50.63553" lon="2.80028">
        <ele>16</ele>
        <time>2024-03-10T07:58:25.000Z</time>
      </trkpt>
      <trkpt lat="50.63579" lon="2.79974">
        <ele>15.800000190735</ele>
        <time>2024-03-10T07:58:33.000Z</time>
      </trkpt>
      <trkpt lat="50.63586" lon="2.7996">
        <ele>15.60000038147</ele>
        <time>2024-03-10T07:58:35.000Z</time>
      </trkpt>
      <trkpt lat="50.63614" lon="2.79916">
        <ele>15.39999961853</ele>
        <time>2024-03-10T07:58:42.000Z</time>
      </trkpt>
      <trkpt lat="50.63655" lon="2.79859">
        <ele>15.60000038147</ele>
        <time>2024-03-10T07:58:52.000Z</time>
      </trkpt>
      <trkpt lat="50.6366" lon="2.79843">
        <ele>15.60000038147</ele>
        <time>2024-03-10T07:58:54.000Z</time>
      </trkpt>
      <trkpt lat="50.6366" lon="2.79835">
        <ele>15.60000038147</ele>
        <time>2024-03-10T07:58:55.000Z</time>
      </trkpt>
      <trkpt lat="50.63659" lon="2.79826">
        <ele>15.800000190735</ele>
        <time>2024-03-10T07:58:56.000Z</time>
      </trkpt>
      <trkpt lat="50.63651" lon="2.79799">
        <ele>15.800000190735</ele>
        <time>2024-03-10T07:58:59.000Z</time>
      </trkpt>
      <trkpt lat="50.63631" lon="2.79735">
        <ele>15.800000190735</ele>
        <time>2024-03-10T07:59:06.000Z</time>
      </trkpt>
      <trkpt lat="50.63624" lon="2.79686">
        <ele>15.800000190735</ele>
        <time>2024-03-10T07:59:11.000Z</time>
      </trkpt>
      <trkpt lat="50.63621" lon="2.79666">
        <ele>15.800000190735</ele>
        <time>2024-03-10T07:59:13.000Z</time>
      </trkpt>
      <trkpt lat="50.63613" lon="2.79639">
        <ele>15.800000190735</ele>
        <time>2024-03-10T07:59:16.000Z</time>
      </trkpt>
      <trkpt lat="50.6359" lon="2.79581">
        <ele>15.800000190735</ele>
        <time>2024-03-10T07:59:23.000Z</time>
      </trkpt>
      <trkpt lat="50.63561" lon="2.79509">
        <ele>15.39999961853</ele>
        <time>2024-03-10T07:59:32.000Z</time>
      </trkpt>
      <trkpt lat="50.6354" lon="2.79462">
        <ele>15</ele>
        <time>2024-03-10T07:59:38.000Z</time>
      </trkpt>
      <trkpt lat="50.63535" lon="2.79455">
        <ele>15</ele>
        <time>2024-03-10T07:59:39.000Z</time>
      </trkpt>
      <trkpt lat="50.6352" lon="2.79437">
        <ele>14.800000190735</ele>
        <time>2024-03-10T07:59:42.000Z</time>
      </trkpt>
      <trkpt lat="50.63472" lon="2.79396">
        <ele>15.39999961853</ele>
        <time>2024-03-10T07:59:51.000Z</time>
      </trkpt>
      <trkpt lat="50.63466" lon="2.79391">
        <ele>15.60000038147</ele>
        <time>2024-03-10T07:59:52.000Z</time>
      </trkpt>
      <trkpt lat="50.63438" lon="2.79353">
        <ele>15.60000038147</ele>
        <time>2024-03-10T07:59:58.000Z</time>
      </trkpt>
      <trkpt lat="50.634" lon="2.79287">
        <ele>15.199999809265</ele>
        <time>2024-03-10T08:00:07.000Z</time>
      </trkpt>
      <trkpt lat="50.63388" lon="2.79264">
        <ele>15.199999809265</ele>
        <time>2024-03-10T08:00:10.000Z</time>
      </trkpt>
      <trkpt lat="50.63377" lon="2.79219">
        <ele>15.199999809265</ele>
        <time>2024-03-10T08:00:15.000Z</time>
      </trkpt>
      <trkpt lat="50.63373" lon="2.79202">
        <ele>15.199999809265</ele>
        <time>2024-03-10T08:00:17.000Z</time>
      </trkpt>
      <trkpt lat="50.63367" lon="2.79186">
        <ele>15.199999809265</ele>
        <time>2024-03-10T08:00:19.000Z</time>
      </trkpt>
      <trkpt lat="50.63344" lon="2.79154">
        <ele>15.199999809265</ele>
        <time>2024-03-10T08:00:24.000Z</time>
      </trkpt>
      <trkpt lat="50.63299" lon="2.79103">
        <ele>15.39999961853</ele>
        <time>2024-03-10T08:00:33.000Z</time>
      </trkpt>
      <trkpt lat="50.63289" lon="2.79093">
        <ele>15.39999961853</ele>
        <time>2024-03-10T08:00:35.000Z</time>
      </trkpt>
      <trkpt lat="50.63244" lon="2.79045">
        <ele>15.199999809265</ele>
        <time>2024-03-10T08:00:44.000Z</time>
      </trkpt>
      <trkpt lat="50.63204" lon="2.7899">
        <ele>15</ele>
        <time>2024-03-10T08:00:53.000Z</time>
      </trkpt>
      <trkpt lat="50.63163" lon="2.78933">
        <ele>14.800000190735</ele>
        <time>2024-03-10T08:01:02.000Z</time>
      </trkpt>
      <trkpt lat="50.63158" lon="2.78927">
        <ele>14.800000190735</ele>
        <time>2024-03-10T08:01:03.000Z</time>
      </trkpt>
      <trkpt lat="50.63119" lon="2.78879">
        <ele>14.60000038147</ele>
        <time>2024-03-10T08:01:11.000Z</time>
      </trkpt>
      <trkpt lat="50.6311" lon="2.78866">
        <ele>14.39999961853</ele>
        <time>2024-03-10T08:01:13.000Z</time>
      </trkpt>
      <trkpt lat="50.63068" lon="2.78816">
        <ele>14.39999961853</ele>
        <time>2024-03-10T08:01:22.000Z</time>
      </trkpt>
      <trkpt lat="50.63021" lon="2.7876">
        <ele>14.39999961853</ele>
        <time>2024-03-10T08:01:32.000Z</time>
      </trkpt>
      <trkpt lat="50.63005" lon="2.78737">
        <ele>14.60000038147</ele>
        <time>2024-03-10T08:01:36.000Z</time>
      </trkpt>
      <trkpt lat="50.63" lon="2.78722">
        <ele>14.60000038147</ele>
        <time>2024-03-10T08:01:38.000Z</time>
      </trkpt>
      <trkpt lat="50.63" lon="2.78705">
        <ele>14.60000038147</ele>
        <time>2024-03-10T08:01:40.000Z</time>
      </trkpt>
      <trkpt lat="50.63002" lon="2.78688">
        <ele>14.60000038147</ele>
        <time>2024-03-10T08:01:42.000Z</time>
      </trkpt>
      <trkpt lat="50.63009" lon="2.78643">
        <ele>14.60000038147</ele>
        <time>2024-03-10T08:01:47.000Z</time>
      </trkpt>
      <trkpt lat="50.63012" lon="2.78634">
        <ele>14.39999961853</ele>
        <time>2024-03-10T08:01:48.000Z</time>
      </trkpt>
      <trkpt lat="50.63033" lon="2.78584">
        <ele>14.39999961853</ele>
        <time>2024-03-10T08:01:54.000Z</time>
      </trkpt>
      <trkpt lat="50.63066" lon="2.78509">
        <ele>13.60000038147</ele>
        <time>2024-03-10T08:02:03.000Z</time>
      </trkpt>
      <trkpt lat="50.63069" lon="2.785">
        <ele>13.39999961853</ele>
        <time>2024-03-10T08:02:04.000Z</time>
      </trkpt>
      <trkpt lat="50.63103" lon="2.78423">
        <ele>13.39999961853</ele>
        <time>2024-03-10T08:02:13.000Z</time>
      </trkpt>
      <trkpt lat="50.63114" lon="2.78396">
        <ele>13.199999809265</ele>
        <time>2024-03-10T08:02:16.000Z</time>
      </trkpt>
      <trkpt lat="50.63145" lon="2.78324">
        <ele>13</ele>
        <time>2024-03-10T08:02:24.000Z</time>
      </trkpt>
      <trkpt lat="50.63149" lon="2.78315">
        <ele>13</ele>
        <time>2024-03-10T08:02:25.000Z</time>
      </trkpt>
      <trkpt lat="50.63181" lon="2.78242">
        <ele>12.800000190735</ele>
        <time>2024-03-10T08:02:33.000Z</time>
      </trkpt>
      <trkpt lat="50.63194" lon="2.78215">
        <ele>12.800000190735</ele>
        <time>2024-03-10T08:02:36.000Z</time>
      </trkpt>
      <trkpt lat="50.63229" lon="2.78147">
        <ele>12.800000190735</ele>
        <time>2024-03-10T08:02:44.000Z</time>
      </trkpt>
      <trkpt lat="50.63238" lon="2.7813">
        <ele>12.800000190735</ele>
        <time>2024-03-10T08:02:46.000Z</time>
      </trkpt>
      <trkpt lat="50.63274" lon="2.78065">
        <ele>12.800000190735</ele>
        <time>2024-03-10T08:02:54.000Z</time>
      </trkpt>
      <trkpt lat="50.63283" lon="2.78049">
        <ele>12.800000190735</ele>
        <time>2024-03-10T08:02:56.000Z</time>
      </trkpt>
      <trkpt lat="50.63322" lon="2.77978">
        <ele>12.800000190735</ele>
        <time>2024-03-10T08:03:05.000Z</time>
      </trkpt>
      <trkpt lat="50.63336" lon="2.77953">
        <ele>13</ele>
        <time>2024-03-10T08:03:08.000Z</time>
      </trkpt>
      <trkpt lat="50.63372" lon="2.77886">
        <ele>13.199999809265</ele>
        <time>2024-03-10T08:03:16.000Z</time>
      </trkpt>
      <trkpt lat="50.63377" lon="2.77878">
        <ele>13.199999809265</ele>
        <time>2024-03-10T08:03:17.000Z</time>
      </trkpt>
      <trkpt lat="50.63416" lon="2.77808">
        <ele>13.199999809265</ele>
        <time>2024-03-10T08:03:26.000Z</time>
      </trkpt>
      <trkpt lat="50.63424" lon="2.77792">
        <ele>13.199999809265</ele>
        <time>2024-03-10T08:03:28.000Z</time>
      </trkpt>
      <trkpt lat="50.63459" lon="2.77727">
        <ele>13.39999961853</ele>
        <time>2024-03-10T08:03:36.000Z</time>
      </trkpt>
      <trkpt lat="50.63477" lon="2.77696">
        <ele>13.60000038147</ele>
        <time>2024-03-10T08:03:40.000Z</time>
      </trkpt>
      <trkpt lat="50.63515" lon="2.77626">
        <ele>13.800000190735</ele>
        <time>2024-03-10T08:03:49.000Z</time>
      </trkpt>
      <trkpt lat="50.63519" lon="2.77618">
        <ele>13.800000190735</ele>
        <time>2024-03-10T08:03:50.000Z</time>
      </trkpt>
      <trkpt lat="50.63557" lon="2.77549">
        <ele>13.60000038147</ele>
        <time>2024-03-10T08:03:59.000Z</time>
      </trkpt>
      <trkpt lat="50.63569" lon="2.77525">
        <ele>13.60000038147</ele>
        <time>2024-03-10T08:04:02.000Z</time>
      </trkpt>
      <trkpt lat="50.63606" lon="2.77454">
        <ele>13.60000038147</ele>
        <time>2024-03-10T08:04:11.000Z</time>
      </trkpt>
      <trkpt lat="50.63618" lon="2.77429">
        <ele>13.60000038147</ele>
        <time>2024-03-10T08:04:14.000Z</time>
      </trkpt>
      <trkpt lat="50.63652" lon="2.77362">
        <ele>13.60000038147</ele>
        <time>2024-03-10T08:04:23.000Z</time>
      </trkpt>
      <trkpt lat="50.63669" lon="2.77328">
        <ele>14</ele>
        <time>2024-03-10T08:04:29.000Z</time>
      </trkpt>
      <trkpt lat="50.63677" lon="2.77313">
        <ele>14.199999809265</ele>
        <time>2024-03-10T08:04:34.000Z</time>
      </trkpt>
      <trkpt lat="50.63679" lon="2.77309">
        <ele>14.39999961853</ele>
        <time>2024-03-10T08:04:37.000Z</time>
      </trkpt>
      <trkpt lat="50.63682" lon="2.77302">
        <ele>14.60000038147</ele>
        <time>2024-03-10T08:04:48.000Z</time>
      </trkpt>
      <trkpt lat="50.63682" lon="2.773">
        <ele>14.60000038147</ele>
        <time>2024-03-10T08:04:49.000Z</time>
      </trkpt>
      <trkpt lat="50.63677" lon="2.7729">
        <ele>14.60000038147</ele>
        <time>2024-03-10T08:04:52.000Z</time>
      </trkpt>
      <trkpt lat="50.63664" lon="2.77277">
        <ele>14.60000038147</ele>
        <time>2024-03-10T08:04:56.000Z</time>
      </trkpt>
      <trkpt lat="50.63659" lon="2.77272">
        <ele>14.60000038147</ele>
        <time>2024-03-10T08:04:57.000Z</time>
      </trkpt>
      <trkpt lat="50.63637" lon="2.77254">
        <ele>14.60000038147</ele>
        <time>2024-03-10T08:05:01.000Z</time>
      </trkpt>
      <trkpt lat="50.63632" lon="2.77249">
        <ele>14.60000038147</ele>
        <time>2024-03-10T08:05:02.000Z</time>
      </trkpt>
      <trkpt lat="50.63586" lon="2.7721">
        <ele>13.800000190735</ele>
        <time>2024-03-10T08:05:10.000Z</time>
      </trkpt>
      <trkpt lat="50.63543" lon="2.77185">
        <ele>13.60000038147</ele>
        <time>2024-03-10T08:05:17.000Z</time>
      </trkpt>
      <trkpt lat="50.63501" lon="2.77158">
        <ele>15.199999809265</ele>
        <time>2024-03-10T08:05:24.000Z</time>
      </trkpt>
      <trkpt lat="50.63452" lon="2.77114">
        <ele>13.800000190735</ele>
        <time>2024-03-10T08:05:33.000Z</time>
      </trkpt>
      <trkpt lat="50.63447" lon="2.77109">
        <ele>13.800000190735</ele>
        <time>2024-03-10T08:05:34.000Z</time>
      </trkpt>
      <trkpt lat="50.63398" lon="2.77065">
        <ele>14</ele>
        <time>2024-03-10T08:05:43.000Z</time>
      </trkpt>
      <trkpt lat="50.63382" lon="2.77053">
        <ele>14</ele>
        <time>2024-03-10T08:05:46.000Z</time>
      </trkpt>
      <trkpt lat="50.63338" lon="2.77026">
        <ele>14.199999809265</ele>
        <time>2024-03-10T08:05:54.000Z</time>
      </trkpt>
      <trkpt lat="50.63328" lon="2.77021">
        <ele>14.199999809265</ele>
        <time>2024-03-10T08:05:56.000Z</time>
      </trkpt>
      <trkpt lat="50.63321" lon="2.77011">
        <ele>14.199999809265</ele>
        <time>2024-03-10T08:05:58.000Z</time>
      </trkpt>
      <trkpt lat="50.6332" lon="2.76995">
        <ele>14.199999809265</ele>
        <time>2024-03-10T08:06:00.000Z</time>
      </trkpt>
      <trkpt lat="50.63322" lon="2.76987">
        <ele>14.199999809265</ele>
        <time>2024-03-10T08:06:01.000Z</time>
      </trkpt>
      <trkpt lat="50.63337" lon="2.76931">
        <ele>14.199999809265</ele>
        <time>2024-03-10T08:06:07.000Z</time>
      </trkpt>
      <trkpt lat="50.63356" lon="2.76855">
        <ele>14.199999809265</ele>
        <time>2024-03-10T08:06:15.000Z</time>
      </trkpt>
      <trkpt lat="50.63365" lon="2.76823">
        <ele>14.199999809265</ele>
        <time>2024-03-10T08:06:19.000Z</time>
      </trkpt>
      <trkpt lat="50.63367" lon="2.76815">
        <ele>14.199999809265</ele>
        <time>2024-03-10T08:06:20.000Z</time>
      </trkpt>
      <trkpt lat="50.63382" lon="2.76748">
        <ele>14.199999809265</ele>
        <time>2024-03-10T08:06:27.000Z</time>
      </trkpt>
      <trkpt lat="50.634" lon="2.76674">
        <ele>13.60000038147</ele>
        <time>2024-03-10T08:06:35.000Z</time>
      </trkpt>
      <trkpt lat="50.63414" lon="2.76616">
        <ele>13.39999961853</ele>
        <time>2024-03-10T08:06:41.000Z</time>
      </trkpt>
      <trkpt lat="50.63416" lon="2.76607">
        <ele>13.39999961853</ele>
        <time>2024-03-10T08:06:42.000Z</time>
      </trkpt>
      <trkpt lat="50.63429" lon="2.76562">
        <ele>13.39999961853</ele>
        <time>2024-03-10T08:06:47.000Z</time>
      </trkpt>
      <trkpt lat="50.6344" lon="2.76503">
        <ele>13.39999961853</ele>
        <time>2024-03-10T08:06:53.000Z</time>
      </trkpt>
      <trkpt lat="50.6345" lon="2.76429">
        <ele>13.800000190735</ele>
        <time>2024-03-10T08:07:00.000Z</time>
      </trkpt>
      <trkpt lat="50.6346" lon="2.76345">
        <ele>13.800000190735</ele>
        <time>2024-03-10T08:07:08.000Z</time>
      </trkpt>
      <trkpt lat="50.63466" lon="2.76302">
        <ele>13.60000038147</ele>
        <time>2024-03-10T08:07:12.000Z</time>
      </trkpt>
      <trkpt lat="50.63483" lon="2.76212">
        <ele>13.39999961853</ele>
        <time>2024-03-10T08:07:21.000Z</time>
      </trkpt>
      <trkpt lat="50.63505" lon="2.76134">
        <ele>13.199999809265</ele>
        <time>2024-03-10T08:07:29.000Z</time>
      </trkpt>
      <trkpt lat="50.63508" lon="2.76124">
        <ele>13.199999809265</ele>
        <time>2024-03-10T08:07:30.000Z</time>
      </trkpt>
      <trkpt lat="50.63524" lon="2.76038">
        <ele>13.199999809265</ele>
        <time>2024-03-10T08:07:38.000Z</time>
      </trkpt>
      <trkpt lat="50.63526" lon="2.76027">
        <ele>13.199999809265</ele>
        <time>2024-03-10T08:07:39.000Z</time>
      </trkpt>
      <trkpt lat="50.63542" lon="2.75942">
        <ele>13</ele>
        <time>2024-03-10T08:07:47.000Z</time>
      </trkpt>
      <trkpt lat="50.63568" lon="2.75875">
        <ele>12.800000190735</ele>
        <time>2024-03-10T08:07:54.000Z</time>
      </trkpt>
      <trkpt lat="50.63577" lon="2.75845">
        <ele>12.60000038147</ele>
        <time>2024-03-10T08:07:57.000Z</time>
      </trkpt>
      <trkpt lat="50.63578" lon="2.75834">
        <ele>12.60000038147</ele>
        <time>2024-03-10T08:07:58.000Z</time>
      </trkpt>
      <trkpt lat="50.63578" lon="2.75779">
        <ele>12.60000038147</ele>
        <time>2024-03-10T08:08:03.000Z</time>
      </trkpt>
      <trkpt lat="50.63575" lon="2.75705">
        <ele>12.60000038147</ele>
        <time>2024-03-10T08:08:10.000Z</time>
      </trkpt>
      <trkpt lat="50.63573" lon="2.75694">
        <ele>13</ele>
        <time>2024-03-10T08:08:11.000Z</time>
      </trkpt>
      <trkpt lat="50.63553" lon="2.75622">
        <ele>13.39999961853</ele>
        <time>2024-03-10T08:08:18.000Z</time>
      </trkpt>
      <trkpt lat="50.63527" lon="2.75539">
        <ele>13.800000190735</ele>
        <time>2024-03-10T08:08:26.000Z</time>
      </trkpt>
      <trkpt lat="50.63495" lon="2.75464">
        <ele>13.39999961853</ele>
        <time>2024-03-10T08:08:34.000Z</time>
      </trkpt>
      <trkpt lat="50.63487" lon="2.75435">
        <ele>13.39999961853</ele>
        <time>2024-03-10T08:08:37.000Z</time>
      </trkpt>
      <trkpt lat="50.63485" lon="2.75424">
        <ele>13.39999961853</ele>
        <time>2024-03-10T08:08:38.000Z</time>
      </trkpt>
      <trkpt lat="50.63485" lon="2.75358">
        <ele>13.199999809265</ele>
        <time>2024-03-10T08:08:44.000Z</time>
      </trkpt>
      <trkpt lat="50.6349" lon="2.7527">
        <ele>13.199999809265</ele>
        <time>2024-03-10T08:08:52.000Z</time>
      </trkpt>
      <trkpt lat="50.63502" lon="2.75206">
        <ele>13</ele>
        <time>2024-03-10T08:08:58.000Z</time>
      </trkpt>
      <trkpt lat="50.63521" lon="2.7512">
        <ele>13</ele>
        <time>2024-03-10T08:09:06.000Z</time>
      </trkpt>
      <trkpt lat="50.63539" lon="2.75035">
        <ele>13</ele>
        <time>2024-03-10T08:09:14.000Z</time>
      </trkpt>
      <trkpt lat="50.63544" lon="2.75014">
        <ele>13</ele>
        <time>2024-03-10T08:09:16.000Z</time>
      </trkpt>
      <trkpt lat="50.63562" lon="2.74925">
        <ele>13</ele>
        <time>2024-03-10T08:09:25.000Z</time>
      </trkpt>
      <trkpt lat="50.63577" lon="2.74848">
        <ele>13.199999809265</ele>
        <time>2024-03-10T08:09:33.000Z</time>
      </trkpt>
      <trkpt lat="50.6359" lon="2.74771">
        <ele>13.39999961853</ele>
        <time>2024-03-10T08:09:41.000Z</time>
      </trkpt>
      <trkpt lat="50.63605" lon="2.74687">
        <ele>13.39999961853</ele>
        <time>2024-03-10T08:09:50.000Z</time>
      </trkpt>
      <trkpt lat="50.63609" lon="2.74659">
        <ele>13.39999961853</ele>
        <time>2024-03-10T08:09:53.000Z</time>
      </trkpt>
      <trkpt lat="50.63611" lon="2.74641">
        <ele>13.39999961853</ele>
        <time>2024-03-10T08:09:55.000Z</time>
      </trkpt>
      <trkpt lat="50.63609" lon="2.74612">
        <ele>13.39999961853</ele>
        <time>2024-03-10T08:09:58.000Z</time>
      </trkpt>
      <trkpt lat="50.63597" lon="2.74528">
        <ele>13.39999961853</ele>
        <time>2024-03-10T08:10:07.000Z</time>
      </trkpt>
      <trkpt lat="50.63597" lon="2.74519">
        <ele>13.39999961853</ele>
        <time>2024-03-10T08:10:08.000Z</time>
      </trkpt>
      <trkpt lat="50.636" lon="2.74502">
        <ele>13.39999961853</ele>
        <time>2024-03-10T08:10:10.000Z</time>
      </trkpt>
      <trkpt lat="50.63607" lon="2.7449">
        <ele>13.39999961853</ele>
        <time>2024-03-10T08:10:12.000Z</time>
      </trkpt>
      <trkpt lat="50.63613" lon="2.74485">
        <ele>13.39999961853</ele>
        <time>2024-03-10T08:10:13.000Z</time>
      </trkpt>
      <trkpt lat="50.63653" lon="2.74455">
        <ele>13.199999809265</ele>
        <time>2024-03-10T08:10:20.000Z</time>
      </trkpt>
      <trkpt lat="50.63693" lon="2.74417">
        <ele>13</ele>
        <time>2024-03-10T08:10:27.000Z</time>
      </trkpt>
      <trkpt lat="50.63733" lon="2.74381">
        <ele>12.800000190735</ele>
        <time>2024-03-10T08:10:34.000Z</time>
      </trkpt>
      <trkpt lat="50.63763" lon="2.74363">
        <ele>12</ele>
        <time>2024-03-10T08:10:39.000Z</time>
      </trkpt>
      <trkpt lat="50.63786" lon="2.74348">
        <ele>11.800000190735</ele>
        <time>2024-03-10T08:10:43.000Z</time>
      </trkpt>
      <trkpt lat="50.63837" lon="2.74316">
        <ele>11.60000038147</ele>
        <time>2024-03-10T08:10:52.000Z</time>
      </trkpt>
      <trkpt lat="50.63882" lon="2.74272">
        <ele>12</ele>
        <time>2024-03-10T08:11:01.000Z</time>
      </trkpt>
      <trkpt lat="50.63889" lon="2.74258">
        <ele>12</ele>
        <time>2024-03-10T08:11:03.000Z</time>
      </trkpt>
      <trkpt lat="50.63891" lon="2.74249">
        <ele>12</ele>
        <time>2024-03-10T08:11:04.000Z</time>
      </trkpt>
      <trkpt lat="50.63891" lon="2.74239">
        <ele>12</ele>
        <time>2024-03-10T08:11:05.000Z</time>
      </trkpt>
      <trkpt lat="50.63889" lon="2.74219">
        <ele>12.199999809265</ele>
        <time>2024-03-10T08:11:07.000Z</time>
      </trkpt>
      <trkpt lat="50.63879" lon="2.74157">
        <ele>12.39999961853</ele>
        <time>2024-03-10T08:11:13.000Z</time>
      </trkpt>
      <trkpt lat="50.63867" lon="2.74073">
        <ele>12</ele>
        <time>2024-03-10T08:11:21.000Z</time>
      </trkpt>
      <trkpt lat="50.63858" lon="2.73985">
        <ele>11.800000190735</ele>
        <time>2024-03-10T08:11:30.000Z</time>
      </trkpt>
      <trkpt lat="50.63855" lon="2.73928">
        <ele>12</ele>
        <time>2024-03-10T08:11:36.000Z</time>
      </trkpt>
      <trkpt lat="50.63848" lon="2.73841">
        <ele>12.60000038147</ele>
        <time>2024-03-10T08:11:45.000Z</time>
      </trkpt>
      <trkpt lat="50.63836" lon="2.73761">
        <ele>12.800000190735</ele>
        <time>2024-03-10T08:11:54.000Z</time>
      </trkpt>
      <trkpt lat="50.63828" lon="2.73715">
        <ele>12.800000190735</ele>
        <time>2024-03-10T08:12:00.000Z</time>
      </trkpt>
      <trkpt lat="50.63826" lon="2.73709">
        <ele>12.800000190735</ele>
        <time>2024-03-10T08:12:01.000Z</time>
      </trkpt>
      <trkpt lat="50.6382" lon="2.73681">
        <ele>13</ele>
        <time>2024-03-10T08:12:07.000Z</time>
      </trkpt>
      <trkpt lat="50.63819" lon="2.73674">
        <ele>13.39999961853</ele>
        <time>2024-03-10T08:12:11.000Z</time>
      </trkpt>
      <trkpt lat="50.63817" lon="2.73667">
        <ele>13.800000190735</ele>
        <time>2024-03-10T08:12:26.000Z</time>
      </trkpt>
      <trkpt lat="50.63813" lon="2.73664">
        <ele>13.800000190735</ele>
        <time>2024-03-10T08:12:28.000Z</time>
      </trkpt>
      <trkpt lat="50.63792" lon="2.73663">
        <ele>13.60000038147</ele>
        <time>2024-03-10T08:12:33.000Z</time>
      </trkpt>
      <trkpt lat="50.63758" lon="2.73667">
        <ele>13.60000038147</ele>
        <time>2024-03-10T08:12:39.000Z</time>
      </trkpt>
      <trkpt lat="50.63713" lon="2.73681">
        <ele>13.39999961853</ele>
        <time>2024-03-10T08:12:46.000Z</time>
      </trkpt>
      <trkpt lat="50.63661" lon="2.73704">
        <ele>13.199999809265</ele>
        <time>2024-03-10T08:12:54.000Z</time>
      </trkpt>
      <trkpt lat="50.63654" lon="2.73707">
        <ele>13.199999809265</ele>
        <time>2024-03-10T08:12:55.000Z</time>
      </trkpt>
      <trkpt lat="50.63598" lon="2.73733">
        <ele>13.39999961853</ele>
        <time>2024-03-10T08:13:04.000Z</time>
      </trkpt>
      <trkpt lat="50.63585" lon="2.73738">
        <ele>13.39999961853</ele>
        <time>2024-03-10T08:13:06.000Z</time>
      </trkpt>
      <trkpt lat="50.63531" lon="2.73762">
        <ele>14</ele>
        <time>2024-03-10T08:13:15.000Z</time>
      </trkpt>
      <trkpt lat="50.63519" lon="2.73765">
        <ele>14</ele>
        <time>2024-03-10T08:13:17.000Z</time>
      </trkpt>
      <trkpt lat="50.635" lon="2.73765">
        <ele>14</ele>
        <time>2024-03-10T08:13:20.000Z</time>
      </trkpt>
      <trkpt lat="50.63488" lon="2.73761">
        <ele>14</ele>
        <time>2024-03-10T08:13:22.000Z</time>
      </trkpt>
      <trkpt lat="50.63477" lon="2.73749">
        <ele>14</ele>
        <time>2024-03-10T08:13:24.000Z</time>
      </trkpt>
      <trkpt lat="50.63473" lon="2.73742">
        <ele>14</ele>
        <time>2024-03-10T08:13:25.000Z</time>
      </trkpt>
      <trkpt lat="50.63465" lon="2.73726">
        <ele>14</ele>
        <time>2024-03-10T08:13:27.000Z</time>
      </trkpt>
      <trkpt lat="50.63454" lon="2.73717">
        <ele>14</ele>
        <time>2024-03-10T08:13:29.000Z</time>
      </trkpt>
      <trkpt lat="50.63442" lon="2.73718">
        <ele>14</ele>
        <time>2024-03-10T08:13:31.000Z</time>
      </trkpt>
      <trkpt lat="50.63437" lon="2.7372">
        <ele>14</ele>
        <time>2024-03-10T08:13:32.000Z</time>
      </trkpt>
      <trkpt lat="50.63426" lon="2.73725">
        <ele>14.199999809265</ele>
        <time>2024-03-10T08:13:34.000Z</time>
      </trkpt>
      <trkpt lat="50.6342" lon="2.73724">
        <ele>14.199999809265</ele>
        <time>2024-03-10T08:13:35.000Z</time>
      </trkpt>
      <trkpt lat="50.63416" lon="2.7372">
        <ele>14.199999809265</ele>
        <time>2024-03-10T08:13:36.000Z</time>
      </trkpt>
      <trkpt lat="50.63414" lon="2.73714">
        <ele>14.199999809265</ele>
        <time>2024-03-10T08:13:37.000Z</time>
      </trkpt>
      <trkpt lat="50.63418" lon="2.73686">
        <ele>14.39999961853</ele>
        <time>2024-03-10T08:13:41.000Z</time>
      </trkpt>
      <trkpt lat="50.63424" lon="2.73653">
        <ele>14.39999961853</ele>
        <time>2024-03-10T08:13:45.000Z</time>
      </trkpt>
      <trkpt lat="50.63425" lon="2.73634">
        <ele>14.39999961853</ele>
        <time>2024-03-10T08:13:47.000Z</time>
      </trkpt>
      <trkpt lat="50.63424" lon="2.73561">
        <ele>14.199999809265</ele>
        <time>2024-03-10T08:13:54.000Z</time>
      </trkpt>
      <trkpt lat="50.63426" lon="2.73471">
        <ele>13.800000190735</ele>
        <time>2024-03-10T08:14:02.000Z</time>
      </trkpt>
      <trkpt lat="50.63427" lon="2.7346">
        <ele>13.800000190735</ele>
        <time>2024-03-10T08:14:03.000Z</time>
      </trkpt>
      <trkpt lat="50.63435" lon="2.73377">
        <ele>13.39999961853</ele>
        <time>2024-03-10T08:14:11.000Z</time>
      </trkpt>
      <trkpt lat="50.63449" lon="2.73285">
        <ele>13.800000190735</ele>
        <time>2024-03-10T08:14:20.000Z</time>
      </trkpt>
      <trkpt lat="50.63467" lon="2.73196">
        <ele>13.800000190735</ele>
        <time>2024-03-10T08:14:29.000Z</time>
      </trkpt>
      <trkpt lat="50.63471" lon="2.73176">
        <ele>13.800000190735</ele>
        <time>2024-03-10T08:14:31.000Z</time>
      </trkpt>
      <trkpt lat="50.6349" lon="2.73087">
        <ele>13.800000190735</ele>
        <time>2024-03-10T08:14:40.000Z</time>
      </trkpt>
      <trkpt lat="50.63494" lon="2.73067">
        <ele>13.800000190735</ele>
        <time>2024-03-10T08:14:42.000Z</time>
      </trkpt>
      <trkpt lat="50.63511" lon="2.72986">
        <ele>13.60000038147</ele>
        <time>2024-03-10T08:14:50.000Z</time>
      </trkpt>
      <trkpt lat="50.63515" lon="2.72955">
        <ele>13.199999809265</ele>
        <time>2024-03-10T08:14:53.000Z</time>
      </trkpt>
      <trkpt lat="50.63526" lon="2.72863">
        <ele>13.39999961853</ele>
        <time>2024-03-10T08:15:02.000Z</time>
      </trkpt>
      <trkpt lat="50.63526" lon="2.72853">
        <ele>13.39999961853</ele>
        <time>2024-03-10T08:15:03.000Z</time>
      </trkpt>
      <trkpt lat="50.63529" lon="2.72759">
        <ele>13.60000038147</ele>
        <time>2024-03-10T08:15:12.000Z</time>
      </trkpt>
      <trkpt lat="50.63529" lon="2.72749">
        <ele>13.60000038147</ele>
        <time>2024-03-10T08:15:13.000Z</time>
      </trkpt>
      <trkpt lat="50.63527" lon="2.72729">
        <ele>13.60000038147</ele>
        <time>2024-03-10T08:15:15.000Z</time>
      </trkpt>
      <trkpt lat="50.63522" lon="2.72714">
        <ele>13.60000038147</ele>
        <time>2024-03-10T08:15:17.000Z</time>
      </trkpt>
      <trkpt lat="50.63512" lon="2.72706">
        <ele>13.199999809265</ele>
        <time>2024-03-10T08:15:19.000Z</time>
      </trkpt>
      <trkpt lat="50.63506" lon="2.72705">
        <ele>13.199999809265</ele>
        <time>2024-03-10T08:15:20.000Z</time>
      </trkpt>
      <trkpt lat="50.63494" lon="2.72701">
        <ele>13</ele>
        <time>2024-03-10T08:15:22.000Z</time>
      </trkpt>
      <trkpt lat="50.63482" lon="2.72693">
        <ele>13</ele>
        <time>2024-03-10T08:15:24.000Z</time>
      </trkpt>
      <trkpt lat="50.63477" lon="2.72687">
        <ele>13</ele>
        <time>2024-03-10T08:15:25.000Z</time>
      </trkpt>
      <trkpt lat="50.63472" lon="2.7268">
        <ele>13</ele>
        <time>2024-03-10T08:15:26.000Z</time>
      </trkpt>
      <trkpt lat="50.63461" lon="2.72654">
        <ele>13</ele>
        <time>2024-03-10T08:15:29.000Z</time>
      </trkpt>
      <trkpt lat="50.63452" lon="2.72626">
        <ele>13</ele>
        <time>2024-03-10T08:15:32.000Z</time>
      </trkpt>
      <trkpt lat="50.63449" lon="2.72605">
        <ele>13</ele>
        <time>2024-03-10T08:15:34.000Z</time>
      </trkpt>
      <trkpt lat="50.63447" lon="2.72576">
        <ele>13</ele>
        <time>2024-03-10T08:15:37.000Z</time>
      </trkpt>
      <trkpt lat="50.63443" lon="2.72557">
        <ele>13</ele>
        <time>2024-03-10T08:15:39.000Z</time>
      </trkpt>
      <trkpt lat="50.63422" lon="2.72507">
        <ele>13</ele>
        <time>2024-03-10T08:15:45.000Z</time>
      </trkpt>
      <trkpt lat="50.63392" lon="2.72431">
        <ele>13</ele>
        <time>2024-03-10T08:15:54.000Z</time>
      </trkpt>
      <trkpt lat="50.63385" lon="2.72414">
        <ele>13.199999809265</ele>
        <time>2024-03-10T08:15:56.000Z</time>
      </trkpt>
      <trkpt lat="50.63355" lon="2.72341">
        <ele>13.39999961853</ele>
        <time>2024-03-10T08:16:05.000Z</time>
      </trkpt>
      <trkpt lat="50.63322" lon="2.72262">
        <ele>13.39999961853</ele>
        <time>2024-03-10T08:16:15.000Z</time>
      </trkpt>
      <trkpt lat="50.63294" lon="2.72193">
        <ele>13.39999961853</ele>
        <time>2024-03-10T08:16:23.000Z</time>
      </trkpt>
      <trkpt lat="50.63263" lon="2.72118">
        <ele>13.39999961853</ele>
        <time>2024-03-10T08:16:32.000Z</time>
      </trkpt>
      <trkpt lat="50.63232" lon="2.72041">
        <ele>13.800000190735</ele>
        <time>2024-03-10T08:16:41.000Z</time>
      </trkpt>
      <trkpt lat="50.63229" lon="2.72033">
        <ele>13.800000190735</ele>
        <time>2024-03-10T08:16:42.000Z</time>
      </trkpt>
      <trkpt lat="50.63202" lon="2.71966">
        <ele>13.800000190735</ele>
        <time>2024-03-10T08:16:50.000Z</time>
      </trkpt>
      <trkpt lat="50.63171" lon="2.71892">
        <ele>13.800000190735</ele>
        <time>2024-03-10T08:16:59.000Z</time>
      </trkpt>
      <trkpt lat="50.63161" lon="2.71868">
        <ele>13.800000190735</ele>
        <time>2024-03-10T08:17:02.000Z</time>
      </trkpt>
      <trkpt lat="50.63131" lon="2.71812">
        <ele>13.60000038147</ele>
        <time>2024-03-10T08:17:09.000Z</time>
      </trkpt>
      <trkpt lat="50.6309" lon="2.71755">
        <ele>13.60000038147</ele>
        <time>2024-03-10T08:17:17.000Z</time>
      </trkpt>
      <trkpt lat="50.6308" lon="2.71741">
        <ele>13.60000038147</ele>
        <time>2024-03-10T08:17:19.000Z</time>
      </trkpt>
      <trkpt lat="50.63041" lon="2.71683">
        <ele>13.800000190735</ele>
        <time>2024-03-10T08:17:27.000Z</time>
      </trkpt>
      <trkpt lat="50.63009" lon="2.71646">
        <ele>13.39999961853</ele>
        <time>2024-03-10T08:17:33.000Z</time>
      </trkpt>
      <trkpt lat="50.62975" lon="2.71616">
        <ele>13.39999961853</ele>
        <time>2024-03-10T08:17:39.000Z</time>
      </trkpt>
      <trkpt lat="50.6293" lon="2.71572">
        <ele>13.60000038147</ele>
        <time>2024-03-10T08:17:47.000Z</time>
      </trkpt>
      <trkpt lat="50.62886" lon="2.71514">
        <ele>13.39999961853</ele>
        <time>2024-03-10T08:17:55.000Z</time>
      </trkpt>
      <trkpt lat="50.62845" lon="2.71452">
        <ele>13.60000038147</ele>
        <time>2024-03-10T08:18:03.000Z</time>
      </trkpt>
      <trkpt lat="50.6284" lon="2.71444">
        <ele>13.39999961853</ele>
        <time>2024-03-10T08:18:04.000Z</time>
      </trkpt>
      <trkpt lat="50.62803" lon="2.71379">
        <ele>13.800000190735</ele>
        <time>2024-03-10T08:18:12.000Z</time>
      </trkpt>
      <trkpt lat="50.62779" lon="2.71338">
        <ele>13.800000190735</ele>
        <time>2024-03-10T08:18:17.000Z</time>
      </trkpt>
      <trkpt lat="50.6274" lon="2.71276">
        <ele>13.60000038147</ele>
        <time>2024-03-10T08:18:25.000Z</time>
      </trkpt>
      <trkpt lat="50.6273" lon="2.71262">
        <ele>13.60000038147</ele>
        <time>2024-03-10T08:18:27.000Z</time>
      </trkpt>
      <trkpt lat="50.62696" lon="2.71224">
        <ele>13.800000190735</ele>
        <time>2024-03-10T08:18:33.000Z</time>
      </trkpt>
      <trkpt lat="50.62691" lon="2.71218">
        <ele>14</ele>
        <time>2024-03-10T08:18:34.000Z</time>
      </trkpt>
      <trkpt lat="50.62662" lon="2.7119">
        <ele>14</ele>
        <time>2024-03-10T08:18:39.000Z</time>
      </trkpt>
      <trkpt lat="50.62657" lon="2.71182">
        <ele>14</ele>
        <time>2024-03-10T08:18:40.000Z</time>
      </trkpt>
      <trkpt lat="50.62653" lon="2.71173">
        <ele>14</ele>
        <time>2024-03-10T08:18:41.000Z</time>
      </trkpt>
      <trkpt lat="50.62644" lon="2.71144">
        <ele>14</ele>
        <time>2024-03-10T08:18:44.000Z</time>
      </trkpt>
      <trkpt lat="50.62642" lon="2.71133">
        <ele>14</ele>
        <time>2024-03-10T08:18:45.000Z</time>
      </trkpt>
      <trkpt lat="50.6264" lon="2.71101">
        <ele>14</ele>
        <time>2024-03-10T08:18:48.000Z</time>
      </trkpt>
      <trkpt lat="50.62637" lon="2.71012">
        <ele>14</ele>
        <time>2024-03-10T08:18:56.000Z</time>
      </trkpt>
      <trkpt lat="50.62635" lon="2.71001">
        <ele>14</ele>
        <time>2024-03-10T08:18:57.000Z</time>
      </trkpt>
      <trkpt lat="50.62619" lon="2.70916">
        <ele>13.800000190735</ele>
        <time>2024-03-10T08:19:05.000Z</time>
      </trkpt>
      <trkpt lat="50.62617" lon="2.70906">
        <ele>13.60000038147</ele>
        <time>2024-03-10T08:19:06.000Z</time>
      </trkpt>
      <trkpt lat="50.62602" lon="2.70823">
        <ele>13.60000038147</ele>
        <time>2024-03-10T08:19:14.000Z</time>
      </trkpt>
      <trkpt lat="50.62596" lon="2.70791">
        <ele>13.60000038147</ele>
        <time>2024-03-10T08:19:17.000Z</time>
      </trkpt>
      <trkpt lat="50.62581" lon="2.70717">
        <ele>13.800000190735</ele>
        <time>2024-03-10T08:19:25.000Z</time>
      </trkpt>
      <trkpt lat="50.62568" lon="2.70664">
        <ele>14</ele>
        <time>2024-03-10T08:19:31.000Z</time>
      </trkpt>
      <trkpt lat="50.62552" lon="2.70603">
        <ele>14.199999809265</ele>
        <time>2024-03-10T08:19:38.000Z</time>
      </trkpt>
      <trkpt lat="50.6255" lon="2.70594">
        <ele>14.39999961853</ele>
        <time>2024-03-10T08:19:39.000Z</time>
      </trkpt>
      <trkpt lat="50.62529" lon="2.70515">
        <ele>14.60000038147</ele>
        <time>2024-03-10T08:19:47.000Z</time>
      </trkpt>
      <trkpt lat="50.62505" lon="2.70433">
        <ele>14.39999961853</ele>
        <time>2024-03-10T08:19:56.000Z</time>
      </trkpt>
      <trkpt lat="50.62499" lon="2.70415">
        <ele>14.39999961853</ele>
        <time>2024-03-10T08:19:58.000Z</time>
      </trkpt>
      <trkpt lat="50.62472" lon="2.70333">
        <ele>14.39999961853</ele>
        <time>2024-03-10T08:20:07.000Z</time>
      </trkpt>
      <trkpt lat="50.62446" lon="2.70256">
        <ele>14.39999961853</ele>
        <time>2024-03-10T08:20:15.000Z</time>
      </trkpt>
      <trkpt lat="50.62439" lon="2.70237">
        <ele>14.39999961853</ele>
        <time>2024-03-10T08:20:17.000Z</time>
      </trkpt>
      <trkpt lat="50.62415" lon="2.70162">
        <ele>14.199999809265</ele>
        <time>2024-03-10T08:20:25.000Z</time>
      </trkpt>
      <trkpt lat="50.62391" lon="2.70075">
        <ele>14.39999961853</ele>
        <time>2024-03-10T08:20:34.000Z</time>
      </trkpt>
      <trkpt lat="50.62389" lon="2.70066">
        <ele>14.39999961853</ele>
        <time>2024-03-10T08:20:35.000Z</time>
      </trkpt>
      <trkpt lat="50.62368" lon="2.69985">
        <ele>14.39999961853</ele>
        <time>2024-03-10T08:20:44.000Z</time>
      </trkpt>
      <trkpt lat="50.6235" lon="2.69902">
        <ele>14.39999961853</ele>
        <time>2024-03-10T08:20:53.000Z</time>
      </trkpt>
      <trkpt lat="50.62347" lon="2.69884">
        <ele>14.60000038147</ele>
        <time>2024-03-10T08:20:55.000Z</time>
      </trkpt>
      <trkpt lat="50.62339" lon="2.69845">
        <ele>14.60000038147</ele>
        <time>2024-03-10T08:21:00.000Z</time>
      </trkpt>
      <trkpt lat="50.62338" lon="2.6984">
        <ele>14.60000038147</ele>
        <time>2024-03-10T08:21:01.000Z</time>
      </trkpt>
      <trkpt lat="50.62338" lon="2.69826">
        <ele>14.60000038147</ele>
        <time>2024-03-10T08:21:04.000Z</time>
      </trkpt>
      <trkpt lat="50.62336" lon="2.69821">
        <ele>14.60000038147</ele>
        <time>2024-03-10T08:21:05.000Z</time>
      </trkpt>
      <trkpt lat="50.62328" lon="2.69805">
        <ele>14.800000190735</ele>
        <time>2024-03-10T08:21:08.000Z</time>
      </trkpt>
      <trkpt lat="50.62325" lon="2.69798">
        <ele>15</ele>
        <time>2024-03-10T08:21:09.000Z</time>
      </trkpt>
      <trkpt lat="50.62323" lon="2.69791">
        <ele>15</ele>
        <time>2024-03-10T08:21:10.000Z</time>
      </trkpt>
      <trkpt lat="50.623" lon="2.69737">
        <ele>15</ele>
        <time>2024-03-10T08:21:17.000Z</time>
      </trkpt>
      <trkpt lat="50.62273" lon="2.69667">
        <ele>14.60000038147</ele>
        <time>2024-03-10T08:21:26.000Z</time>
      </trkpt>
      <trkpt lat="50.62256" lon="2.6964">
        <ele>14.60000038147</ele>
        <time>2024-03-10T08:21:31.000Z</time>
      </trkpt>
      <trkpt lat="50.62249" lon="2.69628">
        <ele>14.60000038147</ele>
        <time>2024-03-10T08:21:33.000Z</time>
      </trkpt>
      <trkpt lat="50.62235" lon="2.69611">
        <ele>14.39999961853</ele>
        <time>2024-03-10T08:21:36.000Z</time>
      </trkpt>
      <trkpt lat="50.62197" lon="2.69573">
        <ele>14.199999809265</ele>
        <time>2024-03-10T08:21:43.000Z</time>
      </trkpt>
      <trkpt lat="50.62151" lon="2.69527">
        <ele>14</ele>
        <time>2024-03-10T08:21:52.000Z</time>
      </trkpt>
      <trkpt lat="50.62109" lon="2.6948">
        <ele>14</ele>
        <time>2024-03-10T08:22:01.000Z</time>
      </trkpt>
      <trkpt lat="50.62086" lon="2.69453">
        <ele>14.199999809265</ele>
        <time>2024-03-10T08:22:06.000Z</time>
      </trkpt>
      <trkpt lat="50.62072" lon="2.69436">
        <ele>14.199999809265</ele>
        <time>2024-03-10T08:22:09.000Z</time>
      </trkpt>
      <trkpt lat="50.62029" lon="2.6938">
        <ele>14.39999961853</ele>
        <time>2024-03-10T08:22:18.000Z</time>
      </trkpt>
      <trkpt lat="50.62014" lon="2.69361">
        <ele>14.39999961853</ele>
        <time>2024-03-10T08:22:21.000Z</time>
      </trkpt>
      <trkpt lat="50.62003" lon="2.69353">
        <ele>14.39999961853</ele>
        <time>2024-03-10T08:22:23.000Z</time>
      </trkpt>
      <trkpt lat="50.61991" lon="2.69352">
        <ele>14.39999961853</ele>
        <time>2024-03-10T08:22:25.000Z</time>
      </trkpt>
      <trkpt lat="50.61985" lon="2.69354">
        <ele>14.39999961853</ele>
        <time>2024-03-10T08:22:26.000Z</time>
      </trkpt>
      <trkpt lat="50.61968" lon="2.69362">
        <ele>14.39999961853</ele>
        <time>2024-03-10T08:22:29.000Z</time>
      </trkpt>
      <trkpt lat="50.61955" lon="2.69361">
        <ele>14.39999961853</ele>
        <time>2024-03-10T08:22:31.000Z</time>
      </trkpt>
      <trkpt lat="50.61944" lon="2.69351">
        <ele>14.39999961853</ele>
        <time>2024-03-10T08:22:33.000Z</time>
      </trkpt>
      <trkpt lat="50.6194" lon="2.69344">
        <ele>14.39999961853</ele>
        <time>2024-03-10T08:22:34.000Z</time>
      </trkpt>
      <trkpt lat="50.61912" lon="2.69287">
        <ele>14.199999809265</ele>
        <time>2024-03-10T08:22:41.000Z</time>
      </trkpt>
      <trkpt lat="50.61881" lon="2.6922">
        <ele>14.199999809265</ele>
        <time>2024-03-10T08:22:49.000Z</time>
      </trkpt>
      <trkpt lat="50.6186" lon="2.69195">
        <ele>14</ele>
        <time>2024-03-10T08:22:53.000Z</time>
      </trkpt>
      <trkpt lat="50.61848" lon="2.69189">
        <ele>14</ele>
        <time>2024-03-10T08:22:55.000Z</time>
      </trkpt>
      <trkpt lat="50.61835" lon="2.69189">
        <ele>14</ele>
        <time>2024-03-10T08:22:57.000Z</time>
      </trkpt>
      <trkpt lat="50.61822" lon="2.69192">
        <ele>14</ele>
        <time>2024-03-10T08:22:59.000Z</time>
      </trkpt>
      <trkpt lat="50.61763" lon="2.69196">
        <ele>14</ele>
        <time>2024-03-10T08:23:08.000Z</time>
      </trkpt>
      <trkpt lat="50.61756" lon="2.69196">
        <ele>14</ele>
        <time>2024-03-10T08:23:09.000Z</time>
      </trkpt>
      <trkpt lat="50.61697" lon="2.69203">
        <ele>14.199999809265</ele>
        <time>2024-03-10T08:23:18.000Z</time>
      </trkpt>
      <trkpt lat="50.61685" lon="2.69205">
        <ele>14.199999809265</ele>
        <time>2024-03-10T08:23:20.000Z</time>
      </trkpt>
      <trkpt lat="50.61632" lon="2.69213">
        <ele>14.199999809265</ele>
        <time>2024-03-10T08:23:28.000Z</time>
      </trkpt>
      <trkpt lat="50.61574" lon="2.69215">
        <ele>14.39999961853</ele>
        <time>2024-03-10T08:23:37.000Z</time>
      </trkpt>
      <trkpt lat="50.61537" lon="2.69203">
        <ele>14.60000038147</ele>
        <time>2024-03-10T08:23:43.000Z</time>
      </trkpt>
      <trkpt lat="50.61483" lon="2.6917">
        <ele>14.60000038147</ele>
        <time>2024-03-10T08:23:52.000Z</time>
      </trkpt>
      <trkpt lat="50.61478" lon="2.69166">
        <ele>14.60000038147</ele>
        <time>2024-03-10T08:23:53.000Z</time>
      </trkpt>
      <trkpt lat="50.61452" lon="2.69138">
        <ele>14.60000038147</ele>
        <time>2024-03-10T08:23:58.000Z</time>
      </trkpt>
      <trkpt lat="50.6144" lon="2.69116">
        <ele>14.60000038147</ele>
        <time>2024-03-10T08:24:01.000Z</time>
      </trkpt>
      <trkpt lat="50.6143" lon="2.6909">
        <ele>14.60000038147</ele>
        <time>2024-03-10T08:24:04.000Z</time>
      </trkpt>
      <trkpt lat="50.61404" lon="2.69031">
        <ele>14.60000038147</ele>
        <time>2024-03-10T08:24:12.000Z</time>
      </trkpt>
      <trkpt lat="50.61388" lon="2.69007">
        <ele>14.60000038147</ele>
        <time>2024-03-10T08:24:17.000Z</time>
      </trkpt>
      <trkpt lat="50.61384" lon="2.68994">
        <ele>14.60000038147</ele>
        <time>2024-03-10T08:24:20.000Z</time>
      </trkpt>
      <trkpt lat="50.61385" lon="2.68989">
        <ele>14.800000190735</ele>
        <time>2024-03-10T08:24:21.000Z</time>
      </trkpt>
      <trkpt lat="50.61397" lon="2.68971">
        <ele>14.800000190735</ele>
        <time>2024-03-10T08:24:25.000Z</time>
      </trkpt>
      <trkpt lat="50.61419" lon="2.68943">
        <ele>14.800000190735</ele>
        <time>2024-03-10T08:24:30.000Z</time>
      </trkpt>
      <trkpt lat="50.61453" lon="2.68895">
        <ele>14.60000038147</ele>
        <time>2024-03-10T08:24:37.000Z</time>
      </trkpt>
      <trkpt lat="50.61494" lon="2.68839">
        <ele>14.39999961853</ele>
        <time>2024-03-10T08:24:45.000Z</time>
      </trkpt>
      <trkpt lat="50.61535" lon="2.68784">
        <ele>14.39999961853</ele>
        <time>2024-03-10T08:24:53.000Z</time>
      </trkpt>
      <trkpt lat="50.6154" lon="2.68777">
        <ele>14.39999961853</ele>
        <time>2024-03-10T08:24:54.000Z</time>
      </trkpt>
      <trkpt lat="50.6157" lon="2.68734">
        <ele>14.39999961853</ele>
        <time>2024-03-10T08:25:01.000Z</time>
      </trkpt>
      <trkpt lat="50.61596" lon="2.687">
        <ele>14.39999961853</ele>
        <time>2024-03-10T08:25:07.000Z</time>
      </trkpt>
      <trkpt lat="50.61609" lon="2.68688">
        <ele>14.39999961853</ele>
        <time>2024-03-10T08:25:10.000Z</time>
      </trkpt>
      <trkpt lat="50.61627" lon="2.68677">
        <ele>14.39999961853</ele>
        <time>2024-03-10T08:25:15.000Z</time>
      </trkpt>
      <trkpt lat="50.61629" lon="2.68673">
        <ele>14.39999961853</ele>
        <time>2024-03-10T08:25:16.000Z</time>
      </trkpt>
      <trkpt lat="50.61628" lon="2.68662">
        <ele>14.60000038147</ele>
        <time>2024-03-10T08:25:18.000Z</time>
      </trkpt>
      <trkpt lat="50.61619" lon="2.68619">
        <ele>14.60000038147</ele>
        <time>2024-03-10T08:25:24.000Z</time>
      </trkpt>
      <trkpt lat="50.61616" lon="2.68603">
        <ele>14.60000038147</ele>
        <time>2024-03-10T08:25:26.000Z</time>
      </trkpt>
      <trkpt lat="50.61609" lon="2.68567">
        <ele>14.60000038147</ele>
        <time>2024-03-10T08:25:30.000Z</time>
      </trkpt>
      <trkpt lat="50.61593" lon="2.68496">
        <ele>14.199999809265</ele>
        <time>2024-03-10T08:25:38.000Z</time>
      </trkpt>
      <trkpt lat="50.61586" lon="2.68459">
        <ele>14.199999809265</ele>
        <time>2024-03-10T08:25:42.000Z</time>
      </trkpt>
      <trkpt lat="50.61585" lon="2.68438">
        <ele>14</ele>
        <time>2024-03-10T08:25:44.000Z</time>
      </trkpt>
      <trkpt lat="50.61585" lon="2.68427">
        <ele>14</ele>
        <time>2024-03-10T08:25:45.000Z</time>
      </trkpt>
      <trkpt lat="50.61592" lon="2.68374">
        <ele>14</ele>
        <time>2024-03-10T08:25:50.000Z</time>
      </trkpt>
      <trkpt lat="50.61604" lon="2.68323">
        <ele>13.60000038147</ele>
        <time>2024-03-10T08:25:55.000Z</time>
      </trkpt>
      <trkpt lat="50.61609" lon="2.68305">
        <ele>13.39999961853</ele>
        <time>2024-03-10T08:25:57.000Z</time>
      </trkpt>
      <trkpt lat="50.61619" lon="2.68265">
        <ele>13</ele>
        <time>2024-03-10T08:26:02.000Z</time>
      </trkpt>
      <trkpt lat="50.6162" lon="2.68256">
        <ele>13</ele>
        <time>2024-03-10T08:26:03.000Z</time>
      </trkpt>
      <trkpt lat="50.6162" lon="2.68247">
        <ele>12.800000190735</ele>
        <time>2024-03-10T08:26:04.000Z</time>
      </trkpt>
      <trkpt lat="50.61619" lon="2.68228">
        <ele>12.800000190735</ele>
        <time>2024-03-10T08:26:06.000Z</time>
      </trkpt>
      <trkpt lat="50.61618" lon="2.68218">
        <ele>12.800000190735</ele>
        <time>2024-03-10T08:26:07.000Z</time>
      </trkpt>
      <trkpt lat="50.61601" lon="2.6814">
        <ele>13</ele>
        <time>2024-03-10T08:26:15.000Z</time>
      </trkpt>
      <trkpt lat="50.61582" lon="2.6805">
        <ele>13.199999809265</ele>
        <time>2024-03-10T08:26:24.000Z</time>
      </trkpt>
      <trkpt lat="50.61579" lon="2.68029">
        <ele>13.199999809265</ele>
        <time>2024-03-10T08:26:26.000Z</time>
      </trkpt>
      <trkpt lat="50.61567" lon="2.67941">
        <ele>13.60000038147</ele>
        <time>2024-03-10T08:26:35.000Z</time>
      </trkpt>
      <trkpt lat="50.61557" lon="2.67855">
        <ele>13.60000038147</ele>
        <time>2024-03-10T08:26:44.000Z</time>
      </trkpt>
      <trkpt lat="50.61555" lon="2.67836">
        <ele>13.800000190735</ele>
        <time>2024-03-10T08:26:46.000Z</time>
      </trkpt>
      <trkpt lat="50.61546" lon="2.67744">
        <ele>14.199999809265</ele>
        <time>2024-03-10T08:26:55.000Z</time>
      </trkpt>
      <trkpt lat="50.61543" lon="2.67723">
        <ele>14.199999809265</ele>
        <time>2024-03-10T08:26:57.000Z</time>
      </trkpt>
      <trkpt lat="50.6153" lon="2.67633">
        <ele>13.800000190735</ele>
        <time>2024-03-10T08:27:06.000Z</time>
      </trkpt>
      <trkpt lat="50.61529" lon="2.67623">
        <ele>13.800000190735</ele>
        <time>2024-03-10T08:27:07.000Z</time>
      </trkpt>
      <trkpt lat="50.61517" lon="2.67534">
        <ele>14</ele>
        <time>2024-03-10T08:27:16.000Z</time>
      </trkpt>
      <trkpt lat="50.61516" lon="2.67524">
        <ele>14</ele>
        <time>2024-03-10T08:27:17.000Z</time>
      </trkpt>
      <trkpt lat="50.61512" lon="2.67444">
        <ele>14</ele>
        <time>2024-03-10T08:27:25.000Z</time>
      </trkpt>
      <trkpt lat="50.61508" lon="2.67359">
        <ele>14</ele>
        <time>2024-03-10T08:27:33.000Z</time>
      </trkpt>
      <trkpt lat="50.61507" lon="2.67341">
        <ele>14</ele>
        <time>2024-03-10T08:27:35.000Z</time>
      </trkpt>
      <trkpt lat="50.615" lon="2.67249">
        <ele>14</ele>
        <time>2024-03-10T08:27:44.000Z</time>
      </trkpt>
      <trkpt lat="50.61499" lon="2.67237">
        <ele>14</ele>
        <time>2024-03-10T08:27:45.000Z</time>
      </trkpt>
      <trkpt lat="50.61494" lon="2.67148">
        <ele>14</ele>
        <time>2024-03-10T08:27:54.000Z</time>
      </trkpt>
      <trkpt lat="50.61491" lon="2.67075">
        <ele>14</ele>
        <time>2024-03-10T08:28:02.000Z</time>
      </trkpt>
      <trkpt lat="50.61487" lon="2.66994">
        <ele>14</ele>
        <time>2024-03-10T08:28:10.000Z</time>
      </trkpt>
      <trkpt lat="50.61476" lon="2.66904">
        <ele>14</ele>
        <time>2024-03-10T08:28:19.000Z</time>
      </trkpt>
      <trkpt lat="50.61466" lon="2.66827">
        <ele>13.800000190735</ele>
        <time>2024-03-10T08:28:27.000Z</time>
      </trkpt>
      <trkpt lat="50.61458" lon="2.66763">
        <ele>13.800000190735</ele>
        <time>2024-03-10T08:28:34.000Z</time>
      </trkpt>
      <trkpt lat="50.61456" lon="2.66748">
        <ele>13.800000190735</ele>
        <time>2024-03-10T08:28:36.000Z</time>
      </trkpt>
      <trkpt lat="50.61458" lon="2.66737">
        <ele>14</ele>
        <time>2024-03-10T08:28:38.000Z</time>
      </trkpt>
      <trkpt lat="50.6146" lon="2.66733">
        <ele>14</ele>
        <time>2024-03-10T08:28:39.000Z</time>
      </trkpt>
      <trkpt lat="50.61468" lon="2.66729">
        <ele>14</ele>
        <time>2024-03-10T08:28:41.000Z</time>
      </trkpt>
      <trkpt lat="50.61496" lon="2.6672">
        <ele>14</ele>
        <time>2024-03-10T08:28:46.000Z</time>
      </trkpt>
      <trkpt lat="50.61538" lon="2.66707">
        <ele>14</ele>
        <time>2024-03-10T08:28:53.000Z</time>
      </trkpt>
      <trkpt lat="50.61574" lon="2.66687">
        <ele>13.800000190735</ele>
        <time>2024-03-10T08:28:59.000Z</time>
      </trkpt>
      <trkpt lat="50.61599" lon="2.66658">
        <ele>13.800000190735</ele>
        <time>2024-03-10T08:29:04.000Z</time>
      </trkpt>
      <trkpt lat="50.61604" lon="2.66651">
        <ele>13.800000190735</ele>
        <time>2024-03-10T08:29:05.000Z</time>
      </trkpt>
      <trkpt lat="50.61629" lon="2.66592">
        <ele>14</ele>
        <time>2024-03-10T08:29:12.000Z</time>
      </trkpt>
      <trkpt lat="50.61651" lon="2.6654">
        <ele>14</ele>
        <time>2024-03-10T08:29:18.000Z</time>
      </trkpt>
      <trkpt lat="50.61682" lon="2.66489">
        <ele>14</ele>
        <time>2024-03-10T08:29:25.000Z</time>
      </trkpt>
      <trkpt lat="50.61727" lon="2.66429">
        <ele>13.800000190735</ele>
        <time>2024-03-10T08:29:34.000Z</time>
      </trkpt>
      <trkpt lat="50.61743" lon="2.66409">
        <ele>13.800000190735</ele>
        <time>2024-03-10T08:29:37.000Z</time>
      </trkpt>
      <trkpt lat="50.61765" lon="2.66389">
        <ele>13.800000190735</ele>
        <time>2024-03-10T08:29:41.000Z</time>
      </trkpt>
      <trkpt lat="50.61771" lon="2.66386">
        <ele>13.800000190735</ele>
        <time>2024-03-10T08:29:42.000Z</time>
      </trkpt>
      <trkpt lat="50.61818" lon="2.66368">
        <ele>13.800000190735</ele>
        <time>2024-03-10T08:29:50.000Z</time>
      </trkpt>
      <trkpt lat="50.61854" lon="2.66352">
        <ele>14</ele>
        <time>2024-03-10T08:29:57.000Z</time>
      </trkpt>
      <trkpt lat="50.61857" lon="2.66352">
        <ele>14.199999809265</ele>
        <time>2024-03-10T08:29:58.000Z</time>
      </trkpt>
      <trkpt lat="50.61864" lon="2.66358">
        <ele>14.199999809265</ele>
        <time>2024-03-10T08:30:00.000Z</time>
      </trkpt>
      <trkpt lat="50.61865" lon="2.66378">
        <ele>14.199999809265</ele>
        <time>2024-03-10T08:30:03.000Z</time>
      </trkpt>
      <trkpt lat="50.61869" lon="2.66421">
        <ele>14.199999809265</ele>
        <time>2024-03-10T08:30:08.000Z</time>
      </trkpt>
      <trkpt lat="50.61876" lon="2.6648">
        <ele>13.800000190735</ele>
        <time>2024-03-10T08:30:14.000Z</time>
      </trkpt>
      <trkpt lat="50.6189" lon="2.66546">
        <ele>13.39999961853</ele>
        <time>2024-03-10T08:30:21.000Z</time>
      </trkpt>
      <trkpt lat="50.61917" lon="2.66622">
        <ele>13.199999809265</ele>
        <time>2024-03-10T08:30:30.000Z</time>
      </trkpt>
      <trkpt lat="50.61949" lon="2.66679">
        <ele>12.60000038147</ele>
        <time>2024-03-10T08:30:38.000Z</time>
      </trkpt>
      <trkpt lat="50.61954" lon="2.66685">
        <ele>12.39999961853</ele>
        <time>2024-03-10T08:30:39.000Z</time>
      </trkpt>
      <trkpt lat="50.61986" lon="2.66714">
        <ele>12.39999961853</ele>
        <time>2024-03-10T08:30:45.000Z</time>
      </trkpt>
      <trkpt lat="50.62027" lon="2.66735">
        <ele>12.800000190735</ele>
        <time>2024-03-10T08:30:52.000Z</time>
      </trkpt>
      <trkpt lat="50.62073" lon="2.6674">
        <ele>13</ele>
        <time>2024-03-10T08:30:59.000Z</time>
      </trkpt>
      <trkpt lat="50.62118" lon="2.6673">
        <ele>13.199999809265</ele>
        <time>2024-03-10T08:31:06.000Z</time>
      </trkpt>
      <trkpt lat="50.62152" lon="2.66709">
        <ele>13.199999809265</ele>
        <time>2024-03-10T08:31:12.000Z</time>
      </trkpt>
      <trkpt lat="50.62183" lon="2.66692">
        <ele>13</ele>
        <time>2024-03-10T08:31:17.000Z</time>
      </trkpt>
      <trkpt lat="50.6219" lon="2.66687">
        <ele>13</ele>
        <time>2024-03-10T08:31:18.000Z</time>
      </trkpt>
      <trkpt lat="50.62203" lon="2.66679">
        <ele>13</ele>
        <time>2024-03-10T08:31:20.000Z</time>
      </trkpt>
      <trkpt lat="50.62218" lon="2.66677">
        <ele>12.800000190735</ele>
        <time>2024-03-10T08:31:22.000Z</time>
      </trkpt>
      <trkpt lat="50.6226" lon="2.66667">
        <ele>12.60000038147</ele>
        <time>2024-03-10T08:31:28.000Z</time>
      </trkpt>
      <trkpt lat="50.62306" lon="2.66646">
        <ele>12.39999961853</ele>
        <time>2024-03-10T08:31:35.000Z</time>
      </trkpt>
      <trkpt lat="50.62359" lon="2.66621">
        <ele>12.39999961853</ele>
        <time>2024-03-10T08:31:43.000Z</time>
      </trkpt>
      <trkpt lat="50.62373" lon="2.66615">
        <ele>12.39999961853</ele>
        <time>2024-03-10T08:31:45.000Z</time>
      </trkpt>
      <trkpt lat="50.62426" lon="2.6659">
        <ele>12.199999809265</ele>
        <time>2024-03-10T08:31:53.000Z</time>
      </trkpt>
      <trkpt lat="50.62446" lon="2.66581">
        <ele>12.199999809265</ele>
        <time>2024-03-10T08:31:56.000Z</time>
      </trkpt>
      <trkpt lat="50.62501" lon="2.66556">
        <ele>12.199999809265</ele>
        <time>2024-03-10T08:32:04.000Z</time>
      </trkpt>
      <trkpt lat="50.62522" lon="2.66546">
        <ele>12.39999961853</ele>
        <time>2024-03-10T08:32:07.000Z</time>
      </trkpt>
      <trkpt lat="50.62575" lon="2.66525">
        <ele>12.39999961853</ele>
        <time>2024-03-10T08:32:15.000Z</time>
      </trkpt>
      <trkpt lat="50.62595" lon="2.66518">
        <ele>12.60000038147</ele>
        <time>2024-03-10T08:32:18.000Z</time>
      </trkpt>
      <trkpt lat="50.62648" lon="2.665">
        <ele>12.800000190735</ele>
        <time>2024-03-10T08:32:26.000Z</time>
      </trkpt>
      <trkpt lat="50.62682" lon="2.66491">
        <ele>12.800000190735</ele>
        <time>2024-03-10T08:32:31.000Z</time>
      </trkpt>
      <trkpt lat="50.62736" lon="2.66475">
        <ele>13</ele>
        <time>2024-03-10T08:32:39.000Z</time>
      </trkpt>
      <trkpt lat="50.6275" lon="2.66473">
        <ele>13</ele>
        <time>2024-03-10T08:32:41.000Z</time>
      </trkpt>
      <trkpt lat="50.62806" lon="2.66462">
        <ele>13.60000038147</ele>
        <time>2024-03-10T08:32:49.000Z</time>
      </trkpt>
      <trkpt lat="50.62819" lon="2.6646">
        <ele>13.60000038147</ele>
        <time>2024-03-10T08:32:51.000Z</time>
      </trkpt>
      <trkpt lat="50.62879" lon="2.66448">
        <ele>14</ele>
        <time>2024-03-10T08:33:00.000Z</time>
      </trkpt>
      <trkpt lat="50.62885" lon="2.66447">
        <ele>14</ele>
        <time>2024-03-10T08:33:01.000Z</time>
      </trkpt>
      <trkpt lat="50.62943" lon="2.66434">
        <ele>14.199999809265</ele>
        <time>2024-03-10T08:33:10.000Z</time>
      </trkpt>
      <trkpt lat="50.62954" lon="2.66432">
        <ele>14.199999809265</ele>
        <time>2024-03-10T08:33:12.000Z</time>
      </trkpt>
      <trkpt lat="50.62971" lon="2.66433">
        <ele>14.39999961853</ele>
        <time>2024-03-10T08:33:15.000Z</time>
      </trkpt>
      <trkpt lat="50.62981" lon="2.66439">
        <ele>14.39999961853</ele>
        <time>2024-03-10T08:33:17.000Z</time>
      </trkpt>
      <trkpt lat="50.6299" lon="2.6645">
        <ele>14.39999961853</ele>
        <time>2024-03-10T08:33:19.000Z</time>
      </trkpt>
      <trkpt lat="50.63002" lon="2.66457">
        <ele>14.60000038147</ele>
        <time>2024-03-10T08:33:21.000Z</time>
      </trkpt>
      <trkpt lat="50.63008" lon="2.66457">
        <ele>14.60000038147</ele>
        <time>2024-03-10T08:33:22.000Z</time>
      </trkpt>
      <trkpt lat="50.63014" lon="2.66455">
        <ele>14.60000038147</ele>
        <time>2024-03-10T08:33:23.000Z</time>
      </trkpt>
      <trkpt lat="50.63019" lon="2.66451">
        <ele>14.60000038147</ele>
        <time>2024-03-10T08:33:24.000Z</time>
      </trkpt>
      <trkpt lat="50.63024" lon="2.66445">
        <ele>14.60000038147</ele>
        <time>2024-03-10T08:33:25.000Z</time>
      </trkpt>
      <trkpt lat="50.63036" lon="2.66424">
        <ele>14.800000190735</ele>
        <time>2024-03-10T08:33:28.000Z</time>
      </trkpt>
      <trkpt lat="50.63046" lon="2.66416">
        <ele>14.800000190735</ele>
        <time>2024-03-10T08:33:30.000Z</time>
      </trkpt>
      <trkpt lat="50.63052" lon="2.66414">
        <ele>14.800000190735</ele>
        <time>2024-03-10T08:33:31.000Z</time>
      </trkpt>
      <trkpt lat="50.63085" lon="2.66405">
        <ele>14.60000038147</ele>
        <time>2024-03-10T08:33:36.000Z</time>
      </trkpt>
      <trkpt lat="50.63139" lon="2.66394">
        <ele>13.39999961853</ele>
        <time>2024-03-10T08:33:44.000Z</time>
      </trkpt>
      <trkpt lat="50.63146" lon="2.66393">
        <ele>13.199999809265</ele>
        <time>2024-03-10T08:33:45.000Z</time>
      </trkpt>
      <trkpt lat="50.63205" lon="2.66377">
        <ele>12.800000190735</ele>
        <time>2024-03-10T08:33:54.000Z</time>
      </trkpt>
      <trkpt lat="50.63242" lon="2.6635">
        <ele>12.800000190735</ele>
        <time>2024-03-10T08:34:00.000Z</time>
      </trkpt>
      <trkpt lat="50.6328" lon="2.66302">
        <ele>13</ele>
        <time>2024-03-10T08:34:07.000Z</time>
      </trkpt>
      <trkpt lat="50.63304" lon="2.66253">
        <ele>13.39999961853</ele>
        <time>2024-03-10T08:34:13.000Z</time>
      </trkpt>
      <trkpt lat="50.63331" lon="2.66175">
        <ele>14.199999809265</ele>
        <time>2024-03-10T08:34:21.000Z</time>
      </trkpt>
      <trkpt lat="50.63335" lon="2.66164">
        <ele>14.199999809265</ele>
        <time>2024-03-10T08:34:22.000Z</time>
      </trkpt>
      <trkpt lat="50.63363" lon="2.66084">
        <ele>14.199999809265</ele>
        <time>2024-03-10T08:34:30.000Z</time>
      </trkpt>
      <trkpt lat="50.6337" lon="2.66064">
        <ele>14.199999809265</ele>
        <time>2024-03-10T08:34:32.000Z</time>
      </trkpt>
      <trkpt lat="50.63398" lon="2.65985">
        <ele>14.199999809265</ele>
        <time>2024-03-10T08:34:40.000Z</time>
      </trkpt>
      <trkpt lat="50.63404" lon="2.65966">
        <ele>14.199999809265</ele>
        <time>2024-03-10T08:34:42.000Z</time>
      </trkpt>
      <trkpt lat="50.63432" lon="2.65888">
        <ele>14.199999809265</ele>
        <time>2024-03-10T08:34:50.000Z</time>
      </trkpt>
      <trkpt lat="50.63435" lon="2.65878">
        <ele>14.199999809265</ele>
        <time>2024-03-10T08:34:51.000Z</time>
      </trkpt>
      <trkpt lat="50.63463" lon="2.65801">
        <ele>14.199999809265</ele>
        <time>2024-03-10T08:34:59.000Z</time>
      </trkpt>
      <trkpt lat="50.63473" lon="2.65772">
        <ele>14.199999809265</ele>
        <time>2024-03-10T08:35:02.000Z</time>
      </trkpt>
      <trkpt lat="50.635" lon="2.65695">
        <ele>14.199999809265</ele>
        <time>2024-03-10T08:35:10.000Z</time>
      </trkpt>
      <trkpt lat="50.63507" lon="2.65676">
        <ele>14.199999809265</ele>
        <time>2024-03-10T08:35:12.000Z</time>
      </trkpt>
      <trkpt lat="50.63534" lon="2.65601">
        <ele>14.199999809265</ele>
        <time>2024-03-10T08:35:20.000Z</time>
      </trkpt>
      <trkpt lat="50.63554" lon="2.65546">
        <ele>14.39999961853</ele>
        <time>2024-03-10T08:35:26.000Z</time>
      </trkpt>
      <trkpt lat="50.63567" lon="2.65511">
        <ele>14.39999961853</ele>
        <time>2024-03-10T08:35:30.000Z</time>
      </trkpt>
      <trkpt lat="50.63594" lon="2.65435">
        <ele>14</ele>
        <time>2024-03-10T08:35:38.000Z</time>
      </trkpt>
      <trkpt lat="50.6361" lon="2.65376">
        <ele>13.60000038147</ele>
        <time>2024-03-10T08:35:44.000Z</time>
      </trkpt>
      <trkpt lat="50.63626" lon="2.6531">
        <ele>13.39999961853</ele>
        <time>2024-03-10T08:35:51.000Z</time>
      </trkpt>
      <trkpt lat="50.63636" lon="2.65268">
        <ele>13.39999961853</ele>
        <time>2024-03-10T08:35:55.000Z</time>
      </trkpt>
      <trkpt lat="50.63637" lon="2.65257">
        <ele>13.39999961853</ele>
        <time>2024-03-10T08:35:56.000Z</time>
      </trkpt>
      <trkpt lat="50.63641" lon="2.65223">
        <ele>13.199999809265</ele>
        <time>2024-03-10T08:35:59.000Z</time>
      </trkpt>
      <trkpt lat="50.63647" lon="2.65167">
        <ele>12.60000038147</ele>
        <time>2024-03-10T08:36:04.000Z</time>
      </trkpt>
      <trkpt lat="50.63662" lon="2.65106">
        <ele>12.60000038147</ele>
        <time>2024-03-10T08:36:10.000Z</time>
      </trkpt>
      <trkpt lat="50.63684" lon="2.65049">
        <ele>12.60000038147</ele>
        <time>2024-03-10T08:36:17.000Z</time>
      </trkpt>
      <trkpt lat="50.63694" lon="2.6501">
        <ele>12.800000190735</ele>
        <time>2024-03-10T08:36:22.000Z</time>
      </trkpt>
      <trkpt lat="50.63705" lon="2.64935">
        <ele>13</ele>
        <time>2024-03-10T08:36:30.000Z</time>
      </trkpt>
      <trkpt lat="50.63709" lon="2.64858">
        <ele>13</ele>
        <time>2024-03-10T08:36:38.000Z</time>
      </trkpt>
      <trkpt lat="50.63718" lon="2.64813">
        <ele>13</ele>
        <time>2024-03-10T08:36:43.000Z</time>
      </trkpt>
      <trkpt lat="50.63736" lon="2.6473">
        <ele>13.199999809265</ele>
        <time>2024-03-10T08:36:52.000Z</time>
      </trkpt>
      <trkpt lat="50.63745" lon="2.64661">
        <ele>13.199999809265</ele>
        <time>2024-03-10T08:36:59.000Z</time>
      </trkpt>
      <trkpt lat="50.63741" lon="2.64587">
        <ele>13.199999809265</ele>
        <time>2024-03-10T08:37:06.000Z</time>
      </trkpt>
      <trkpt lat="50.63735" lon="2.64517">
        <ele>12.800000190735</ele>
        <time>2024-03-10T08:37:13.000Z</time>
      </trkpt>
      <trkpt lat="50.63726" lon="2.64426">
        <ele>12.60000038147</ele>
        <time>2024-03-10T08:37:22.000Z</time>
      </trkpt>
      <trkpt lat="50.63719" lon="2.64332">
        <ele>12.199999809265</ele>
        <time>2024-03-10T08:37:31.000Z</time>
      </trkpt>
      <trkpt lat="50.63718" lon="2.64311">
        <ele>12.199999809265</ele>
        <time>2024-03-10T08:37:33.000Z</time>
      </trkpt>
      <trkpt lat="50.63711" lon="2.64221">
        <ele>12.199999809265</ele>
        <time>2024-03-10T08:37:42.000Z</time>
      </trkpt>
      <trkpt lat="50.63706" lon="2.64145">
        <ele>12.39999961853</ele>
        <time>2024-03-10T08:37:50.000Z</time>
      </trkpt>
      <trkpt lat="50.63706" lon="2.64137">
        <ele>12.39999961853</ele>
        <time>2024-03-10T08:37:51.000Z</time>
      </trkpt>
      <trkpt lat="50.63709" lon="2.64121">
        <ele>12.39999961853</ele>
        <time>2024-03-10T08:37:53.000Z</time>
      </trkpt>
      <trkpt lat="50.63717" lon="2.64116">
        <ele>12.39999961853</ele>
        <time>2024-03-10T08:37:55.000Z</time>
      </trkpt>
      <trkpt lat="50.63722" lon="2.64115">
        <ele>12.39999961853</ele>
        <time>2024-03-10T08:37:56.000Z</time>
      </trkpt>
      <trkpt lat="50.63734" lon="2.64113">
        <ele>12.199999809265</ele>
        <time>2024-03-10T08:37:58.000Z</time>
      </trkpt>
      <trkpt lat="50.63757" lon="2.64108">
        <ele>12.199999809265</ele>
        <time>2024-03-10T08:38:02.000Z</time>
      </trkpt>
      <trkpt lat="50.63806" lon="2.64097">
        <ele>11.800000190735</ele>
        <time>2024-03-10T08:38:10.000Z</time>
      </trkpt>
      <trkpt lat="50.63861" lon="2.64082">
        <ele>11.800000190735</ele>
        <time>2024-03-10T08:38:19.000Z</time>
      </trkpt>
      <trkpt lat="50.63891" lon="2.64074">
        <ele>11.800000190735</ele>
        <time>2024-03-10T08:38:24.000Z</time>
      </trkpt>
      <trkpt lat="50.63896" lon="2.64075">
        <ele>12</ele>
        <time>2024-03-10T08:38:25.000Z</time>
      </trkpt>
      <trkpt lat="50.639" lon="2.64078">
        <ele>12</ele>
        <time>2024-03-10T08:38:26.000Z</time>
      </trkpt>
      <trkpt lat="50.6392" lon="2.64091">
        <ele>12.199999809265</ele>
        <time>2024-03-10T08:38:30.000Z</time>
      </trkpt>
      <trkpt lat="50.63941" lon="2.64097">
        <ele>12.39999961853</ele>
        <time>2024-03-10T08:38:34.000Z</time>
      </trkpt>
      <trkpt lat="50.63951" lon="2.64095">
        <ele>12.39999961853</ele>
        <time>2024-03-10T08:38:36.000Z</time>
      </trkpt>
      <trkpt lat="50.6396" lon="2.64085">
        <ele>12.39999961853</ele>
        <time>2024-03-10T08:38:38.000Z</time>
      </trkpt>
      <trkpt lat="50.63964" lon="2.64078">
        <ele>12.39999961853</ele>
        <time>2024-03-10T08:38:39.000Z</time>
      </trkpt>
      <trkpt lat="50.63973" lon="2.64061">
        <ele>12.39999961853</ele>
        <time>2024-03-10T08:38:41.000Z</time>
      </trkpt>
      <trkpt lat="50.63983" lon="2.64051">
        <ele>12.39999961853</ele>
        <time>2024-03-10T08:38:43.000Z</time>
      </trkpt>
      <trkpt lat="50.6403" lon="2.64038">
        <ele>12.199999809265</ele>
        <time>2024-03-10T08:38:50.000Z</time>
      </trkpt>
      <trkpt lat="50.64075" lon="2.64025">
        <ele>12</ele>
        <time>2024-03-10T08:38:57.000Z</time>
      </trkpt>
      <trkpt lat="50.64129" lon="2.64012">
        <ele>11.800000190735</ele>
        <time>2024-03-10T08:39:06.000Z</time>
      </trkpt>
      <trkpt lat="50.64177" lon="2.64">
        <ele>12</ele>
        <time>2024-03-10T08:39:14.000Z</time>
      </trkpt>
      <trkpt lat="50.64217" lon="2.63982">
        <ele>12</ele>
        <time>2024-03-10T08:39:21.000Z</time>
      </trkpt>
      <trkpt lat="50.6424" lon="2.63972">
        <ele>12</ele>
        <time>2024-03-10T08:39:25.000Z</time>
      </trkpt>
      <trkpt lat="50.64264" lon="2.63961">
        <ele>12</ele>
        <time>2024-03-10T08:39:29.000Z</time>
      </trkpt>
      <trkpt lat="50.64319" lon="2.63943">
        <ele>12</ele>
        <time>2024-03-10T08:39:38.000Z</time>
      </trkpt>
      <trkpt lat="50.64331" lon="2.63939">
        <ele>12</ele>
        <time>2024-03-10T08:39:40.000Z</time>
      </trkpt>
      <trkpt lat="50.64356" lon="2.63931">
        <ele>12.199999809265</ele>
        <time>2024-03-10T08:39:44.000Z</time>
      </trkpt>
      <trkpt lat="50.64412" lon="2.6391">
        <ele>12.800000190735</ele>
        <time>2024-03-10T08:39:53.000Z</time>
      </trkpt>
      <trkpt lat="50.64417" lon="2.63907">
        <ele>12.800000190735</ele>
        <time>2024-03-10T08:39:54.000Z</time>
      </trkpt>
      <trkpt lat="50.64423" lon="2.63904">
        <ele>12.800000190735</ele>
        <time>2024-03-10T08:39:55.000Z</time>
      </trkpt>
      <trkpt lat="50.64449" lon="2.6389">
        <ele>13</ele>
        <time>2024-03-10T08:39:59.000Z</time>
      </trkpt>
      <trkpt lat="50.64465" lon="2.63881">
        <ele>13.199999809265</ele>
        <time>2024-03-10T08:40:02.000Z</time>
      </trkpt>
      <trkpt lat="50.64498" lon="2.63865">
        <ele>13.199999809265</ele>
        <time>2024-03-10T08:40:08.000Z</time>
      </trkpt>
      <trkpt lat="50.64522" lon="2.63858">
        <ele>13.199999809265</ele>
        <time>2024-03-10T08:40:13.000Z</time>
      </trkpt>
      <trkpt lat="50.64535" lon="2.63856">
        <ele>13.199999809265</ele>
        <time>2024-03-10T08:40:16.000Z</time>
      </trkpt>
      <trkpt lat="50.64543" lon="2.63853">
        <ele>13.199999809265</ele>
        <time>2024-03-10T08:40:18.000Z</time>
      </trkpt>
      <trkpt lat="50.6455" lon="2.63847">
        <ele>13.39999961853</ele>
        <time>2024-03-10T08:40:20.000Z</time>
      </trkpt>
      <trkpt lat="50.64557" lon="2.6384">
        <ele>13.39999961853</ele>
        <time>2024-03-10T08:40:22.000Z</time>
      </trkpt>
      <trkpt lat="50.64562" lon="2.63838">
        <ele>13.39999961853</ele>
        <time>2024-03-10T08:40:23.000Z</time>
      </trkpt>
      <trkpt lat="50.64566" lon="2.63837">
        <ele>13.39999961853</ele>
        <time>2024-03-10T08:40:24.000Z</time>
      </trkpt>
      <trkpt lat="50.64583" lon="2.63844">
        <ele>13.39999961853</ele>
        <time>2024-03-10T08:40:27.000Z</time>
      </trkpt>
      <trkpt lat="50.64618" lon="2.63859">
        <ele>13</ele>
        <time>2024-03-10T08:40:33.000Z</time>
      </trkpt>
      <trkpt lat="50.6465" lon="2.63874">
        <ele>12.39999961853</ele>
        <time>2024-03-10T08:40:39.000Z</time>
      </trkpt>
      <trkpt lat="50.64704" lon="2.63899">
        <ele>12.39999961853</ele>
        <time>2024-03-10T08:40:49.000Z</time>
      </trkpt>
      <trkpt lat="50.64721" lon="2.63907">
        <ele>12.39999961853</ele>
        <time>2024-03-10T08:40:52.000Z</time>
      </trkpt>
      <trkpt lat="50.64772" lon="2.63938">
        <ele>12.199999809265</ele>
        <time>2024-03-10T08:41:01.000Z</time>
      </trkpt>
      <trkpt lat="50.64777" lon="2.63941">
        <ele>12.199999809265</ele>
        <time>2024-03-10T08:41:02.000Z</time>
      </trkpt>
      <trkpt lat="50.64828" lon="2.63976">
        <ele>12.199999809265</ele>
        <time>2024-03-10T08:41:11.000Z</time>
      </trkpt>
      <trkpt lat="50.64865" lon="2.64">
        <ele>12.39999961853</ele>
        <time>2024-03-10T08:41:18.000Z</time>
      </trkpt>
      <trkpt lat="50.64886" lon="2.6401">
        <ele>12.39999961853</ele>
        <time>2024-03-10T08:41:22.000Z</time>
      </trkpt>
      <trkpt lat="50.64896" lon="2.64011">
        <ele>12.39999961853</ele>
        <time>2024-03-10T08:41:24.000Z</time>
      </trkpt>
      <trkpt lat="50.64924" lon="2.64009">
        <ele>12.39999961853</ele>
        <time>2024-03-10T08:41:30.000Z</time>
      </trkpt>
      <trkpt lat="50.64956" lon="2.64007">
        <ele>12.60000038147</ele>
        <time>2024-03-10T08:41:37.000Z</time>
      </trkpt>
      <trkpt lat="50.64966" lon="2.64009">
        <ele>12.60000038147</ele>
        <time>2024-03-10T08:41:39.000Z</time>
      </trkpt>
      <trkpt lat="50.64983" lon="2.64016">
        <ele>12.60000038147</ele>
        <time>2024-03-10T08:41:42.000Z</time>
      </trkpt>
      <trkpt lat="50.65026" lon="2.64034">
        <ele>12.39999961853</ele>
        <time>2024-03-10T08:41:50.000Z</time>
      </trkpt>
      <trkpt lat="50.65073" lon="2.64057">
        <ele>12</ele>
        <time>2024-03-10T08:41:58.000Z</time>
      </trkpt>
      <trkpt lat="50.65119" lon="2.64087">
        <ele>12</ele>
        <time>2024-03-10T08:42:06.000Z</time>
      </trkpt>
      <trkpt lat="50.6517" lon="2.64122">
        <ele>12</ele>
        <time>2024-03-10T08:42:15.000Z</time>
      </trkpt>
      <trkpt lat="50.65175" lon="2.64126">
        <ele>12</ele>
        <time>2024-03-10T08:42:16.000Z</time>
      </trkpt>
      <trkpt lat="50.6522" lon="2.64162">
        <ele>12</ele>
        <time>2024-03-10T08:42:24.000Z</time>
      </trkpt>
      <trkpt lat="50.65261" lon="2.64203">
        <ele>12</ele>
        <time>2024-03-10T08:42:32.000Z</time>
      </trkpt>
      <trkpt lat="50.65272" lon="2.64211">
        <ele>12</ele>
        <time>2024-03-10T08:42:34.000Z</time>
      </trkpt>
      <trkpt lat="50.65285" lon="2.64217">
        <ele>11.800000190735</ele>
        <time>2024-03-10T08:42:36.000Z</time>
      </trkpt>
      <trkpt lat="50.65293" lon="2.64219">
        <ele>11.800000190735</ele>
        <time>2024-03-10T08:42:37.000Z</time>
      </trkpt>
      <trkpt lat="50.65298" lon="2.64219">
        <ele>11.800000190735</ele>
        <time>2024-03-10T08:42:38.000Z</time>
      </trkpt>
      <trkpt lat="50.65324" lon="2.64212">
        <ele>11.800000190735</ele>
        <time>2024-03-10T08:42:42.000Z</time>
      </trkpt>
      <trkpt lat="50.65347" lon="2.64206">
        <ele>11.60000038147</ele>
        <time>2024-03-10T08:42:46.000Z</time>
      </trkpt>
      <trkpt lat="50.6537" lon="2.64201">
        <ele>11.60000038147</ele>
        <time>2024-03-10T08:42:50.000Z</time>
      </trkpt>
      <trkpt lat="50.65424" lon="2.64185">
        <ele>11.800000190735</ele>
        <time>2024-03-10T08:42:59.000Z</time>
      </trkpt>
      <trkpt lat="50.65473" lon="2.64172">
        <ele>11.60000038147</ele>
        <time>2024-03-10T08:43:06.000Z</time>
      </trkpt>
      <trkpt lat="50.65528" lon="2.64151">
        <ele>11.199999809265</ele>
        <time>2024-03-10T08:43:14.000Z</time>
      </trkpt>
      <trkpt lat="50.65534" lon="2.64147">
        <ele>11.199999809265</ele>
        <time>2024-03-10T08:43:15.000Z</time>
      </trkpt>
      <trkpt lat="50.65577" lon="2.64115">
        <ele>11.199999809265</ele>
        <time>2024-03-10T08:43:22.000Z</time>
      </trkpt>
      <trkpt lat="50.65622" lon="2.64089">
        <ele>11</ele>
        <time>2024-03-10T08:43:29.000Z</time>
      </trkpt>
      <trkpt lat="50.65675" lon="2.64073">
        <ele>10.800000190735</ele>
        <time>2024-03-10T08:43:37.000Z</time>
      </trkpt>
      <trkpt lat="50.65681" lon="2.64073">
        <ele>10.800000190735</ele>
        <time>2024-03-10T08:43:38.000Z</time>
      </trkpt>
      <trkpt lat="50.65719" lon="2.64081">
        <ele>10.800000190735</ele>
        <time>2024-03-10T08:43:44.000Z</time>
      </trkpt>
      <trkpt lat="50.65775" lon="2.64102">
        <ele>10.800000190735</ele>
        <time>2024-03-10T08:43:53.000Z</time>
      </trkpt>
      <trkpt lat="50.65812" lon="2.6411">
        <ele>10.60000038147</ele>
        <time>2024-03-10T08:43:59.000Z</time>
      </trkpt>
      <trkpt lat="50.65825" lon="2.64114">
        <ele>10.39999961853</ele>
        <time>2024-03-10T08:44:01.000Z</time>
      </trkpt>
      <trkpt lat="50.65882" lon="2.64128">
        <ele>10.60000038147</ele>
        <time>2024-03-10T08:44:10.000Z</time>
      </trkpt>
      <trkpt lat="50.65943" lon="2.64143">
        <ele>10</ele>
        <time>2024-03-10T08:44:19.000Z</time>
      </trkpt>
      <trkpt lat="50.65948" lon="2.64144">
        <ele>10</ele>
        <time>2024-03-10T08:44:20.000Z</time>
      </trkpt>
      <trkpt lat="50.66002" lon="2.64154">
        <ele>10</ele>
        <time>2024-03-10T08:44:28.000Z</time>
      </trkpt>
      <trkpt lat="50.66017" lon="2.64156">
        <ele>10</ele>
        <time>2024-03-10T08:44:30.000Z</time>
      </trkpt>
      <trkpt lat="50.66071" lon="2.64154">
        <ele>10</ele>
        <time>2024-03-10T08:44:38.000Z</time>
      </trkpt>
      <trkpt lat="50.66125" lon="2.64153">
        <ele>10.39999961853</ele>
        <time>2024-03-10T08:44:46.000Z</time>
      </trkpt>
      <trkpt lat="50.66163" lon="2.64162">
        <ele>11.39999961853</ele>
        <time>2024-03-10T08:44:52.000Z</time>
      </trkpt>
      <trkpt lat="50.66207" lon="2.64185">
        <ele>11.60000038147</ele>
        <time>2024-03-10T08:44:59.000Z</time>
      </trkpt>
      <trkpt lat="50.66259" lon="2.64208">
        <ele>11.60000038147</ele>
        <time>2024-03-10T08:45:07.000Z</time>
      </trkpt>
      <trkpt lat="50.66265" lon="2.6421">
        <ele>11.60000038147</ele>
        <time>2024-03-10T08:45:08.000Z</time>
      </trkpt>
      <trkpt lat="50.66294" lon="2.64211">
        <ele>10.199999809265</ele>
        <time>2024-03-10T08:45:12.000Z</time>
      </trkpt>
      <trkpt lat="50.66301" lon="2.6421">
        <ele>10</ele>
        <time>2024-03-10T08:45:13.000Z</time>
      </trkpt>
      <trkpt lat="50.66359" lon="2.64208">
        <ele>9.6000003814697</ele>
        <time>2024-03-10T08:45:21.000Z</time>
      </trkpt>
      <trkpt lat="50.66414" lon="2.64207">
        <ele>10.60000038147</ele>
        <time>2024-03-10T08:45:29.000Z</time>
      </trkpt>
      <trkpt lat="50.66421" lon="2.64207">
        <ele>10.60000038147</ele>
        <time>2024-03-10T08:45:30.000Z</time>
      </trkpt>
      <trkpt lat="50.66475" lon="2.64203">
        <ele>11.199999809265</ele>
        <time>2024-03-10T08:45:38.000Z</time>
      </trkpt>
      <trkpt lat="50.66481" lon="2.64202">
        <ele>11.39999961853</ele>
        <time>2024-03-10T08:45:39.000Z</time>
      </trkpt>
      <trkpt lat="50.66534" lon="2.64186">
        <ele>11.39999961853</ele>
        <time>2024-03-10T08:45:47.000Z</time>
      </trkpt>
      <trkpt lat="50.66555" lon="2.64183">
        <ele>11.39999961853</ele>
        <time>2024-03-10T08:45:50.000Z</time>
      </trkpt>
      <trkpt lat="50.66569" lon="2.64184">
        <ele>11.39999961853</ele>
        <time>2024-03-10T08:45:52.000Z</time>
      </trkpt>
      <trkpt lat="50.66607" lon="2.64197">
        <ele>11.39999961853</ele>
        <time>2024-03-10T08:45:58.000Z</time>
      </trkpt>
      <trkpt lat="50.66661" lon="2.64219">
        <ele>11.199999809265</ele>
        <time>2024-03-10T08:46:06.000Z</time>
      </trkpt>
      <trkpt lat="50.66668" lon="2.64222">
        <ele>11.199999809265</ele>
        <time>2024-03-10T08:46:07.000Z</time>
      </trkpt>
      <trkpt lat="50.66721" lon="2.64242">
        <ele>11.199999809265</ele>
        <time>2024-03-10T08:46:15.000Z</time>
      </trkpt>
      <trkpt lat="50.66778" lon="2.64256">
        <ele>11.199999809265</ele>
        <time>2024-03-10T08:46:23.000Z</time>
      </trkpt>
      <trkpt lat="50.66828" lon="2.64263">
        <ele>11.199999809265</ele>
        <time>2024-03-10T08:46:31.000Z</time>
      </trkpt>
      <trkpt lat="50.66833" lon="2.64265">
        <ele>11.199999809265</ele>
        <time>2024-03-10T08:46:32.000Z</time>
      </trkpt>
      <trkpt lat="50.66838" lon="2.64273">
        <ele>11.199999809265</ele>
        <time>2024-03-10T08:46:34.000Z</time>
      </trkpt>
      <trkpt lat="50.66837" lon="2.64286">
        <ele>11</ele>
        <time>2024-03-10T08:46:36.000Z</time>
      </trkpt>
      <trkpt lat="50.66835" lon="2.64292">
        <ele>10.800000190735</ele>
        <time>2024-03-10T08:46:37.000Z</time>
      </trkpt>
      <trkpt lat="50.66833" lon="2.643">
        <ele>10.800000190735</ele>
        <time>2024-03-10T08:46:38.000Z</time>
      </trkpt>
      <trkpt lat="50.66823" lon="2.64328">
        <ele>10.800000190735</ele>
        <time>2024-03-10T08:46:42.000Z</time>
      </trkpt>
      <trkpt lat="50.66806" lon="2.64375">
        <ele>10.800000190735</ele>
        <time>2024-03-10T08:46:49.000Z</time>
      </trkpt>
      <trkpt lat="50.66782" lon="2.64451">
        <ele>10.800000190735</ele>
        <time>2024-03-10T08:46:59.000Z</time>
      </trkpt>
      <trkpt lat="50.66769" lon="2.64502">
        <ele>10.800000190735</ele>
        <time>2024-03-10T08:47:05.000Z</time>
      </trkpt>
      <trkpt lat="50.66767" lon="2.6451">
        <ele>10.800000190735</ele>
        <time>2024-03-10T08:47:06.000Z</time>
      </trkpt>
      <trkpt lat="50.66757" lon="2.64552">
        <ele>10.800000190735</ele>
        <time>2024-03-10T08:47:11.000Z</time>
      </trkpt>
      <trkpt lat="50.66737" lon="2.64623">
        <ele>10.800000190735</ele>
        <time>2024-03-10T08:47:19.000Z</time>
      </trkpt>
      <trkpt lat="50.66715" lon="2.64702">
        <ele>10.60000038147</ele>
        <time>2024-03-10T08:47:28.000Z</time>
      </trkpt>
      <trkpt lat="50.66695" lon="2.64775">
        <ele>10.60000038147</ele>
        <time>2024-03-10T08:47:36.000Z</time>
      </trkpt>
      <trkpt lat="50.66673" lon="2.64855">
        <ele>10.39999961853</ele>
        <time>2024-03-10T08:47:45.000Z</time>
      </trkpt>
      <trkpt lat="50.66671" lon="2.64864">
        <ele>10.39999961853</ele>
        <time>2024-03-10T08:47:46.000Z</time>
      </trkpt>
      <trkpt lat="50.66649" lon="2.64945">
        <ele>10.39999961853</ele>
        <time>2024-03-10T08:47:55.000Z</time>
      </trkpt>
      <trkpt lat="50.66642" lon="2.64974">
        <ele>10.39999961853</ele>
        <time>2024-03-10T08:47:58.000Z</time>
      </trkpt>
      <trkpt lat="50.6663" lon="2.65033">
        <ele>10.39999961853</ele>
        <time>2024-03-10T08:48:04.000Z</time>
      </trkpt>
      <trkpt lat="50.6662" lon="2.65083">
        <ele>10</ele>
        <time>2024-03-10T08:48:09.000Z</time>
      </trkpt>
      <trkpt lat="50.66612" lon="2.65122">
        <ele>10</ele>
        <time>2024-03-10T08:48:13.000Z</time>
      </trkpt>
      <trkpt lat="50.66596" lon="2.6521">
        <ele>9.8000001907349</ele>
        <time>2024-03-10T08:48:22.000Z</time>
      </trkpt>
      <trkpt lat="50.66594" lon="2.65217">
        <ele>9.8000001907349</ele>
        <time>2024-03-10T08:48:23.000Z</time>
      </trkpt>
      <trkpt lat="50.66576" lon="2.65297">
        <ele>9.6000003814697</ele>
        <time>2024-03-10T08:48:31.000Z</time>
      </trkpt>
      <trkpt lat="50.66574" lon="2.65305">
        <ele>9.6000003814697</ele>
        <time>2024-03-10T08:48:32.000Z</time>
      </trkpt>
      <trkpt lat="50.66552" lon="2.65385">
        <ele>9.1999998092651</ele>
        <time>2024-03-10T08:48:40.000Z</time>
      </trkpt>
      <trkpt lat="50.66549" lon="2.65395">
        <ele>9.1999998092651</ele>
        <time>2024-03-10T08:48:41.000Z</time>
      </trkpt>
      <trkpt lat="50.66526" lon="2.6548">
        <ele>9</ele>
        <time>2024-03-10T08:48:49.000Z</time>
      </trkpt>
      <trkpt lat="50.66524" lon="2.65488">
        <ele>9</ele>
        <time>2024-03-10T08:48:50.000Z</time>
      </trkpt>
      <trkpt lat="50.66507" lon="2.65571">
        <ele>9</ele>
        <time>2024-03-10T08:48:58.000Z</time>
      </trkpt>
      <trkpt lat="50.66495" lon="2.65648">
        <ele>9.6000003814697</ele>
        <time>2024-03-10T08:49:06.000Z</time>
      </trkpt>
      <trkpt lat="50.66482" lon="2.65732">
        <ele>9.8000001907349</ele>
        <time>2024-03-10T08:49:14.000Z</time>
      </trkpt>
      <trkpt lat="50.6648" lon="2.65739">
        <ele>9.8000001907349</ele>
        <time>2024-03-10T08:49:15.000Z</time>
      </trkpt>
      <trkpt lat="50.66473" lon="2.65768">
        <ele>9.8000001907349</ele>
        <time>2024-03-10T08:49:18.000Z</time>
      </trkpt>
      <trkpt lat="50.66464" lon="2.65794">
        <ele>9.8000001907349</ele>
        <time>2024-03-10T08:49:21.000Z</time>
      </trkpt>
      <trkpt lat="50.66443" lon="2.65843">
        <ele>9.8000001907349</ele>
        <time>2024-03-10T08:49:27.000Z</time>
      </trkpt>
      <trkpt lat="50.66422" lon="2.65897">
        <ele>9.8000001907349</ele>
        <time>2024-03-10T08:49:33.000Z</time>
      </trkpt>
      <trkpt lat="50.6642" lon="2.65909">
        <ele>9.8000001907349</ele>
        <time>2024-03-10T08:49:34.000Z</time>
      </trkpt>
      <trkpt lat="50.66421" lon="2.6592">
        <ele>9.8000001907349</ele>
        <time>2024-03-10T08:49:35.000Z</time>
      </trkpt>
      <trkpt lat="50.66426" lon="2.65937">
        <ele>9.8000001907349</ele>
        <time>2024-03-10T08:49:37.000Z</time>
      </trkpt>
      <trkpt lat="50.66455" lon="2.66007">
        <ele>9.6000003814697</ele>
        <time>2024-03-10T08:49:45.000Z</time>
      </trkpt>
      <trkpt lat="50.66485" lon="2.66084">
        <ele>9.3999996185303</ele>
        <time>2024-03-10T08:49:54.000Z</time>
      </trkpt>
      <trkpt lat="50.6651" lon="2.66152">
        <ele>9.6000003814697</ele>
        <time>2024-03-10T08:50:02.000Z</time>
      </trkpt>
      <trkpt lat="50.66528" lon="2.66202">
        <ele>9.6000003814697</ele>
        <time>2024-03-10T08:50:09.000Z</time>
      </trkpt>
      <trkpt lat="50.66539" lon="2.66237">
        <ele>9.8000001907349</ele>
        <time>2024-03-10T08:50:15.000Z</time>
      </trkpt>
      <trkpt lat="50.66536" lon="2.66247">
        <ele>10</ele>
        <time>2024-03-10T08:50:17.000Z</time>
      </trkpt>
      <trkpt lat="50.66533" lon="2.66251">
        <ele>10</ele>
        <time>2024-03-10T08:50:18.000Z</time>
      </trkpt>
      <trkpt lat="50.66506" lon="2.66272">
        <ele>10.60000038147</ele>
        <time>2024-03-10T08:50:24.000Z</time>
      </trkpt>
      <trkpt lat="50.6647" lon="2.66302">
        <ele>10.60000038147</ele>
        <time>2024-03-10T08:50:30.000Z</time>
      </trkpt>
      <trkpt lat="50.66436" lon="2.66331">
        <ele>10.800000190735</ele>
        <time>2024-03-10T08:50:36.000Z</time>
      </trkpt>
      <trkpt lat="50.66407" lon="2.66362">
        <ele>10.60000038147</ele>
        <time>2024-03-10T08:50:42.000Z</time>
      </trkpt>
      <trkpt lat="50.66389" lon="2.66383">
        <ele>10.60000038147</ele>
        <time>2024-03-10T08:50:46.000Z</time>
      </trkpt>
      <trkpt lat="50.66376" lon="2.66399">
        <ele>10.60000038147</ele>
        <time>2024-03-10T08:50:49.000Z</time>
      </trkpt>
      <trkpt lat="50.66356" lon="2.66421">
        <ele>10.60000038147</ele>
        <time>2024-03-10T08:50:55.000Z</time>
      </trkpt>
      <trkpt lat="50.66341" lon="2.66442">
        <ele>10.800000190735</ele>
        <time>2024-03-10T08:50:59.000Z</time>
      </trkpt>
      <trkpt lat="50.66339" lon="2.66447">
        <ele>10.800000190735</ele>
        <time>2024-03-10T08:51:00.000Z</time>
      </trkpt>
      <trkpt lat="50.66338" lon="2.66456">
        <ele>11</ele>
        <time>2024-03-10T08:51:01.000Z</time>
      </trkpt>
      <trkpt lat="50.66342" lon="2.66468">
        <ele>11</ele>
        <time>2024-03-10T08:51:03.000Z</time>
      </trkpt>
      <trkpt lat="50.66346" lon="2.66476">
        <ele>11</ele>
        <time>2024-03-10T08:51:04.000Z</time>
      </trkpt>
      <trkpt lat="50.66365" lon="2.66525">
        <ele>11</ele>
        <time>2024-03-10T08:51:10.000Z</time>
      </trkpt>
      <trkpt lat="50.6639" lon="2.66589">
        <ele>10.39999961853</ele>
        <time>2024-03-10T08:51:17.000Z</time>
      </trkpt>
      <trkpt lat="50.6642" lon="2.66661">
        <ele>10.199999809265</ele>
        <time>2024-03-10T08:51:26.000Z</time>
      </trkpt>
      <trkpt lat="50.66423" lon="2.66668">
        <ele>10.199999809265</ele>
        <time>2024-03-10T08:51:27.000Z</time>
      </trkpt>
      <trkpt lat="50.66451" lon="2.66718">
        <ele>10.199999809265</ele>
        <time>2024-03-10T08:51:34.000Z</time>
      </trkpt>
      <trkpt lat="50.66486" lon="2.66774">
        <ele>10.199999809265</ele>
        <time>2024-03-10T08:51:42.000Z</time>
      </trkpt>
      <trkpt lat="50.66527" lon="2.6683">
        <ele>10.199999809265</ele>
        <time>2024-03-10T08:51:51.000Z</time>
      </trkpt>
      <trkpt lat="50.66538" lon="2.66843">
        <ele>10.199999809265</ele>
        <time>2024-03-10T08:51:53.000Z</time>
      </trkpt>
      <trkpt lat="50.66586" lon="2.66895">
        <ele>10</ele>
        <time>2024-03-10T08:52:02.000Z</time>
      </trkpt>
      <trkpt lat="50.66591" lon="2.66901">
        <ele>10</ele>
        <time>2024-03-10T08:52:03.000Z</time>
      </trkpt>
      <trkpt lat="50.6664" lon="2.66954">
        <ele>10</ele>
        <time>2024-03-10T08:52:12.000Z</time>
      </trkpt>
      <trkpt lat="50.66652" lon="2.66967">
        <ele>10</ele>
        <time>2024-03-10T08:52:14.000Z</time>
      </trkpt>
      <trkpt lat="50.66695" lon="2.67015">
        <ele>9.8000001907349</ele>
        <time>2024-03-10T08:52:22.000Z</time>
      </trkpt>
      <trkpt lat="50.66701" lon="2.67021">
        <ele>9.8000001907349</ele>
        <time>2024-03-10T08:52:23.000Z</time>
      </trkpt>
      <trkpt lat="50.6673" lon="2.6707">
        <ele>9.8000001907349</ele>
        <time>2024-03-10T08:52:29.000Z</time>
      </trkpt>
      <trkpt lat="50.66765" lon="2.67134">
        <ele>9.8000001907349</ele>
        <time>2024-03-10T08:52:37.000Z</time>
      </trkpt>
      <trkpt lat="50.66778" lon="2.67159">
        <ele>9.8000001907349</ele>
        <time>2024-03-10T08:52:40.000Z</time>
      </trkpt>
      <trkpt lat="50.66816" lon="2.67227">
        <ele>9.6000003814697</ele>
        <time>2024-03-10T08:52:48.000Z</time>
      </trkpt>
      <trkpt lat="50.66819" lon="2.67233">
        <ele>9.8000001907349</ele>
        <time>2024-03-10T08:52:49.000Z</time>
      </trkpt>
      <trkpt lat="50.66856" lon="2.67304">
        <ele>10.39999961853</ele>
        <time>2024-03-10T08:52:57.000Z</time>
      </trkpt>
      <trkpt lat="50.6686" lon="2.67311">
        <ele>10.60000038147</ele>
        <time>2024-03-10T08:52:58.000Z</time>
      </trkpt>
      <trkpt lat="50.66895" lon="2.67382">
        <ele>10.800000190735</ele>
        <time>2024-03-10T08:53:06.000Z</time>
      </trkpt>
      <trkpt lat="50.6693" lon="2.67455">
        <ele>10.60000038147</ele>
        <time>2024-03-10T08:53:14.000Z</time>
      </trkpt>
      <trkpt lat="50.66933" lon="2.67462">
        <ele>10.39999961853</ele>
        <time>2024-03-10T08:53:15.000Z</time>
      </trkpt>
      <trkpt lat="50.66966" lon="2.67531">
        <ele>10.199999809265</ele>
        <time>2024-03-10T08:53:23.000Z</time>
      </trkpt>
      <trkpt lat="50.66975" lon="2.67549">
        <ele>10.199999809265</ele>
        <time>2024-03-10T08:53:25.000Z</time>
      </trkpt>
      <trkpt lat="50.6701" lon="2.67625">
        <ele>10.199999809265</ele>
        <time>2024-03-10T08:53:34.000Z</time>
      </trkpt>
      <trkpt lat="50.67022" lon="2.67651">
        <ele>10.39999961853</ele>
        <time>2024-03-10T08:53:37.000Z</time>
      </trkpt>
      <trkpt lat="50.67042" lon="2.67707">
        <ele>10.60000038147</ele>
        <time>2024-03-10T08:53:43.000Z</time>
      </trkpt>
      <trkpt lat="50.67053" lon="2.67736">
        <ele>10.60000038147</ele>
        <time>2024-03-10T08:53:46.000Z</time>
      </trkpt>
      <trkpt lat="50.67079" lon="2.67816">
        <ele>10.800000190735</ele>
        <time>2024-03-10T08:53:54.000Z</time>
      </trkpt>
      <trkpt lat="50.67105" lon="2.67895">
        <ele>11</ele>
        <time>2024-03-10T08:54:02.000Z</time>
      </trkpt>
      <trkpt lat="50.67112" lon="2.67914">
        <ele>11</ele>
        <time>2024-03-10T08:54:04.000Z</time>
      </trkpt>
      <trkpt lat="50.67139" lon="2.67984">
        <ele>11</ele>
        <time>2024-03-10T08:54:12.000Z</time>
      </trkpt>
      <trkpt lat="50.67173" lon="2.6806">
        <ele>11</ele>
        <time>2024-03-10T08:54:21.000Z</time>
      </trkpt>
      <trkpt lat="50.67202" lon="2.68126">
        <ele>10.800000190735</ele>
        <time>2024-03-10T08:54:29.000Z</time>
      </trkpt>
      <trkpt lat="50.6723" lon="2.68195">
        <ele>11</ele>
        <time>2024-03-10T08:54:37.000Z</time>
      </trkpt>
      <trkpt lat="50.67247" lon="2.68262">
        <ele>10.800000190735</ele>
        <time>2024-03-10T08:54:44.000Z</time>
      </trkpt>
      <trkpt lat="50.67265" lon="2.68347">
        <ele>10.800000190735</ele>
        <time>2024-03-10T08:54:53.000Z</time>
      </trkpt>
      <trkpt lat="50.67287" lon="2.68428">
        <ele>11.39999961853</ele>
        <time>2024-03-10T08:55:02.000Z</time>
      </trkpt>
      <trkpt lat="50.67299" lon="2.68452">
        <ele>11.39999961853</ele>
        <time>2024-03-10T08:55:05.000Z</time>
      </trkpt>
      <trkpt lat="50.67308" lon="2.68464">
        <ele>11.39999961853</ele>
        <time>2024-03-10T08:55:07.000Z</time>
      </trkpt>
      <trkpt lat="50.67319" lon="2.68474">
        <ele>11.39999961853</ele>
        <time>2024-03-10T08:55:09.000Z</time>
      </trkpt>
      <trkpt lat="50.67331" lon="2.6848">
        <ele>11.39999961853</ele>
        <time>2024-03-10T08:55:11.000Z</time>
      </trkpt>
      <trkpt lat="50.67344" lon="2.68481">
        <ele>11.39999961853</ele>
        <time>2024-03-10T08:55:13.000Z</time>
      </trkpt>
      <trkpt lat="50.67357" lon="2.68479">
        <ele>11.39999961853</ele>
        <time>2024-03-10T08:55:15.000Z</time>
      </trkpt>
      <trkpt lat="50.67408" lon="2.68463">
        <ele>11.199999809265</ele>
        <time>2024-03-10T08:55:23.000Z</time>
      </trkpt>
      <trkpt lat="50.67427" lon="2.68464">
        <ele>11.199999809265</ele>
        <time>2024-03-10T08:55:26.000Z</time>
      </trkpt>
      <trkpt lat="50.6744" lon="2.6847">
        <ele>11.199999809265</ele>
        <time>2024-03-10T08:55:28.000Z</time>
      </trkpt>
      <trkpt lat="50.67452" lon="2.68481">
        <ele>11.199999809265</ele>
        <time>2024-03-10T08:55:30.000Z</time>
      </trkpt>
      <trkpt lat="50.67461" lon="2.68496">
        <ele>11.199999809265</ele>
        <time>2024-03-10T08:55:32.000Z</time>
      </trkpt>
      <trkpt lat="50.67482" lon="2.68552">
        <ele>11.39999961853</ele>
        <time>2024-03-10T08:55:38.000Z</time>
      </trkpt>
      <trkpt lat="50.67503" lon="2.68615">
        <ele>11.39999961853</ele>
        <time>2024-03-10T08:55:45.000Z</time>
      </trkpt>
      <trkpt lat="50.67509" lon="2.68642">
        <ele>11.800000190735</ele>
        <time>2024-03-10T08:55:48.000Z</time>
      </trkpt>
      <trkpt lat="50.67515" lon="2.68681">
        <ele>11.800000190735</ele>
        <time>2024-03-10T08:55:52.000Z</time>
      </trkpt>
      <trkpt lat="50.67526" lon="2.68773">
        <ele>11.800000190735</ele>
        <time>2024-03-10T08:56:01.000Z</time>
      </trkpt>
      <trkpt lat="50.67531" lon="2.6884">
        <ele>11.800000190735</ele>
        <time>2024-03-10T08:56:08.000Z</time>
      </trkpt>
      <trkpt lat="50.67538" lon="2.68917">
        <ele>11.800000190735</ele>
        <time>2024-03-10T08:56:16.000Z</time>
      </trkpt>
      <trkpt lat="50.67544" lon="2.68995">
        <ele>11.800000190735</ele>
        <time>2024-03-10T08:56:24.000Z</time>
      </trkpt>
      <trkpt lat="50.67549" lon="2.69069">
        <ele>11.800000190735</ele>
        <time>2024-03-10T08:56:32.000Z</time>
      </trkpt>
      <trkpt lat="50.6756" lon="2.69161">
        <ele>11.800000190735</ele>
        <time>2024-03-10T08:56:42.000Z</time>
      </trkpt>
      <trkpt lat="50.67577" lon="2.69212">
        <ele>11.800000190735</ele>
        <time>2024-03-10T08:56:48.000Z</time>
      </trkpt>
      <trkpt lat="50.67607" lon="2.69291">
        <ele>12</ele>
        <time>2024-03-10T08:56:57.000Z</time>
      </trkpt>
      <trkpt lat="50.6761" lon="2.69301">
        <ele>12</ele>
        <time>2024-03-10T08:56:58.000Z</time>
      </trkpt>
      <trkpt lat="50.67638" lon="2.69376">
        <ele>12</ele>
        <time>2024-03-10T08:57:06.000Z</time>
      </trkpt>
      <trkpt lat="50.67666" lon="2.69452">
        <ele>11.800000190735</ele>
        <time>2024-03-10T08:57:14.000Z</time>
      </trkpt>
      <trkpt lat="50.67677" lon="2.69481">
        <ele>11.800000190735</ele>
        <time>2024-03-10T08:57:17.000Z</time>
      </trkpt>
      <trkpt lat="50.67704" lon="2.69557">
        <ele>11.800000190735</ele>
        <time>2024-03-10T08:57:25.000Z</time>
      </trkpt>
      <trkpt lat="50.67711" lon="2.69576">
        <ele>11.800000190735</ele>
        <time>2024-03-10T08:57:27.000Z</time>
      </trkpt>
      <trkpt lat="50.67719" lon="2.69607">
        <ele>12</ele>
        <time>2024-03-10T08:57:30.000Z</time>
      </trkpt>
      <trkpt lat="50.6772" lon="2.69629">
        <ele>12</ele>
        <time>2024-03-10T08:57:32.000Z</time>
      </trkpt>
      <trkpt lat="50.67718" lon="2.69721">
        <ele>12.60000038147</ele>
        <time>2024-03-10T08:57:40.000Z</time>
      </trkpt>
      <trkpt lat="50.6772" lon="2.69755">
        <ele>12.60000038147</ele>
        <time>2024-03-10T08:57:43.000Z</time>
      </trkpt>
      <trkpt lat="50.67724" lon="2.69777">
        <ele>12.60000038147</ele>
        <time>2024-03-10T08:57:45.000Z</time>
      </trkpt>
      <trkpt lat="50.67746" lon="2.69846">
        <ele>12.39999961853</ele>
        <time>2024-03-10T08:57:52.000Z</time>
      </trkpt>
      <trkpt lat="50.67771" lon="2.69925">
        <ele>12.39999961853</ele>
        <time>2024-03-10T08:58:00.000Z</time>
      </trkpt>
      <trkpt lat="50.67787" lon="2.69974">
        <ele>12.199999809265</ele>
        <time>2024-03-10T08:58:05.000Z</time>
      </trkpt>
      <trkpt lat="50.67812" lon="2.7005">
        <ele>12.199999809265</ele>
        <time>2024-03-10T08:58:13.000Z</time>
      </trkpt>
      <trkpt lat="50.67816" lon="2.70059">
        <ele>12.199999809265</ele>
        <time>2024-03-10T08:58:14.000Z</time>
      </trkpt>
      <trkpt lat="50.67836" lon="2.70116">
        <ele>12</ele>
        <time>2024-03-10T08:58:20.000Z</time>
      </trkpt>
      <trkpt lat="50.67862" lon="2.70186">
        <ele>12.199999809265</ele>
        <time>2024-03-10T08:58:27.000Z</time>
      </trkpt>
      <trkpt lat="50.67893" lon="2.70263">
        <ele>12</ele>
        <time>2024-03-10T08:58:35.000Z</time>
      </trkpt>
      <trkpt lat="50.67905" lon="2.70291">
        <ele>12</ele>
        <time>2024-03-10T08:58:38.000Z</time>
      </trkpt>
      <trkpt lat="50.67936" lon="2.70365">
        <ele>12</ele>
        <time>2024-03-10T08:58:46.000Z</time>
      </trkpt>
      <trkpt lat="50.67965" lon="2.70442">
        <ele>12.39999961853</ele>
        <time>2024-03-10T08:58:54.000Z</time>
      </trkpt>
      <trkpt lat="50.67978" lon="2.70502">
        <ele>12.60000038147</ele>
        <time>2024-03-10T08:59:00.000Z</time>
      </trkpt>
      <trkpt lat="50.67979" lon="2.70513">
        <ele>12.60000038147</ele>
        <time>2024-03-10T08:59:01.000Z</time>
      </trkpt>
      <trkpt lat="50.6798" lon="2.70535">
        <ele>12.800000190735</ele>
        <time>2024-03-10T08:59:03.000Z</time>
      </trkpt>
      <trkpt lat="50.67979" lon="2.70546">
        <ele>12.800000190735</ele>
        <time>2024-03-10T08:59:04.000Z</time>
      </trkpt>
      <trkpt lat="50.67977" lon="2.70557">
        <ele>12.800000190735</ele>
        <time>2024-03-10T08:59:05.000Z</time>
      </trkpt>
      <trkpt lat="50.6797" lon="2.70589">
        <ele>13</ele>
        <time>2024-03-10T08:59:08.000Z</time>
      </trkpt>
      <trkpt lat="50.67962" lon="2.70608">
        <ele>13</ele>
        <time>2024-03-10T08:59:10.000Z</time>
      </trkpt>
      <trkpt lat="50.6793" lon="2.70665">
        <ele>13</ele>
        <time>2024-03-10T08:59:17.000Z</time>
      </trkpt>
      <trkpt lat="50.67896" lon="2.7072">
        <ele>12.60000038147</ele>
        <time>2024-03-10T08:59:24.000Z</time>
      </trkpt>
      <trkpt lat="50.67856" lon="2.70783">
        <ele>12.60000038147</ele>
        <time>2024-03-10T08:59:32.000Z</time>
      </trkpt>
      <trkpt lat="50.67846" lon="2.70797">
        <ele>12.800000190735</ele>
        <time>2024-03-10T08:59:34.000Z</time>
      </trkpt>
      <trkpt lat="50.67812" lon="2.70833">
        <ele>13</ele>
        <time>2024-03-10T08:59:40.000Z</time>
      </trkpt>
      <trkpt lat="50.67772" lon="2.70852">
        <ele>13</ele>
        <time>2024-03-10T08:59:46.000Z</time>
      </trkpt>
      <trkpt lat="50.67721" lon="2.70879">
        <ele>13.199999809265</ele>
        <time>2024-03-10T08:59:54.000Z</time>
      </trkpt>
      <trkpt lat="50.67714" lon="2.70884">
        <ele>13.39999961853</ele>
        <time>2024-03-10T08:59:55.000Z</time>
      </trkpt>
      <trkpt lat="50.67708" lon="2.70889">
        <ele>13.39999961853</ele>
        <time>2024-03-10T08:59:56.000Z</time>
      </trkpt>
      <trkpt lat="50.6766" lon="2.70934">
        <ele>13.39999961853</ele>
        <time>2024-03-10T09:00:04.000Z</time>
      </trkpt>
      <trkpt lat="50.67653" lon="2.7094">
        <ele>13.39999961853</ele>
        <time>2024-03-10T09:00:05.000Z</time>
      </trkpt>
      <trkpt lat="50.67606" lon="2.70984">
        <ele>13.39999961853</ele>
        <time>2024-03-10T09:00:13.000Z</time>
      </trkpt>
      <trkpt lat="50.676" lon="2.7099">
        <ele>13.39999961853</ele>
        <time>2024-03-10T09:00:14.000Z</time>
      </trkpt>
      <trkpt lat="50.67552" lon="2.71033">
        <ele>13.39999961853</ele>
        <time>2024-03-10T09:00:22.000Z</time>
      </trkpt>
      <trkpt lat="50.67527" lon="2.71056">
        <ele>13.39999961853</ele>
        <time>2024-03-10T09:00:26.000Z</time>
      </trkpt>
      <trkpt lat="50.67475" lon="2.71105">
        <ele>13.39999961853</ele>
        <time>2024-03-10T09:00:35.000Z</time>
      </trkpt>
      <trkpt lat="50.67456" lon="2.71122">
        <ele>13.39999961853</ele>
        <time>2024-03-10T09:00:38.000Z</time>
      </trkpt>
      <trkpt lat="50.67405" lon="2.7117">
        <ele>13.199999809265</ele>
        <time>2024-03-10T09:00:47.000Z</time>
      </trkpt>
      <trkpt lat="50.67393" lon="2.71181">
        <ele>13.199999809265</ele>
        <time>2024-03-10T09:00:49.000Z</time>
      </trkpt>
      <trkpt lat="50.67341" lon="2.7123">
        <ele>13</ele>
        <time>2024-03-10T09:00:58.000Z</time>
      </trkpt>
      <trkpt lat="50.67323" lon="2.71247">
        <ele>13</ele>
        <time>2024-03-10T09:01:01.000Z</time>
      </trkpt>
      <trkpt lat="50.67274" lon="2.71292">
        <ele>13</ele>
        <time>2024-03-10T09:01:09.000Z</time>
      </trkpt>
      <trkpt lat="50.67256" lon="2.71309">
        <ele>12.800000190735</ele>
        <time>2024-03-10T09:01:12.000Z</time>
      </trkpt>
      <trkpt lat="50.67207" lon="2.71355">
        <ele>13</ele>
        <time>2024-03-10T09:01:20.000Z</time>
      </trkpt>
      <trkpt lat="50.672" lon="2.71362">
        <ele>13.199999809265</ele>
        <time>2024-03-10T09:01:21.000Z</time>
      </trkpt>
      <trkpt lat="50.67153" lon="2.71405">
        <ele>13.199999809265</ele>
        <time>2024-03-10T09:01:29.000Z</time>
      </trkpt>
      <trkpt lat="50.67142" lon="2.71416">
        <ele>13.199999809265</ele>
        <time>2024-03-10T09:01:31.000Z</time>
      </trkpt>
      <trkpt lat="50.67095" lon="2.71459">
        <ele>13.199999809265</ele>
        <time>2024-03-10T09:01:39.000Z</time>
      </trkpt>
      <trkpt lat="50.67085" lon="2.71469">
        <ele>13.199999809265</ele>
        <time>2024-03-10T09:01:41.000Z</time>
      </trkpt>
      <trkpt lat="50.67033" lon="2.71516">
        <ele>13.39999961853</ele>
        <time>2024-03-10T09:01:50.000Z</time>
      </trkpt>
      <trkpt lat="50.67022" lon="2.71527">
        <ele>13.39999961853</ele>
        <time>2024-03-10T09:01:52.000Z</time>
      </trkpt>
      <trkpt lat="50.66975" lon="2.7157">
        <ele>13.39999961853</ele>
        <time>2024-03-10T09:02:00.000Z</time>
      </trkpt>
      <trkpt lat="50.66963" lon="2.71582">
        <ele>13.39999961853</ele>
        <time>2024-03-10T09:02:02.000Z</time>
      </trkpt>
      <trkpt lat="50.66916" lon="2.71625">
        <ele>13.199999809265</ele>
        <time>2024-03-10T09:02:10.000Z</time>
      </trkpt>
      <trkpt lat="50.6691" lon="2.71631">
        <ele>13.199999809265</ele>
        <time>2024-03-10T09:02:11.000Z</time>
      </trkpt>
      <trkpt lat="50.66862" lon="2.71675">
        <ele>13.199999809265</ele>
        <time>2024-03-10T09:02:19.000Z</time>
      </trkpt>
      <trkpt lat="50.66856" lon="2.7168">
        <ele>13.199999809265</ele>
        <time>2024-03-10T09:02:20.000Z</time>
      </trkpt>
      <trkpt lat="50.66808" lon="2.71724">
        <ele>13.199999809265</ele>
        <time>2024-03-10T09:02:28.000Z</time>
      </trkpt>
      <trkpt lat="50.66791" lon="2.7174">
        <ele>13.199999809265</ele>
        <time>2024-03-10T09:02:31.000Z</time>
      </trkpt>
      <trkpt lat="50.66745" lon="2.71782">
        <ele>13.199999809265</ele>
        <time>2024-03-10T09:02:39.000Z</time>
      </trkpt>
      <trkpt lat="50.66703" lon="2.71819">
        <ele>13.800000190735</ele>
        <time>2024-03-10T09:02:46.000Z</time>
      </trkpt>
      <trkpt lat="50.66685" lon="2.71836">
        <ele>14</ele>
        <time>2024-03-10T09:02:49.000Z</time>
      </trkpt>
      <trkpt lat="50.66638" lon="2.71878">
        <ele>14.199999809265</ele>
        <time>2024-03-10T09:02:57.000Z</time>
      </trkpt>
      <trkpt lat="50.66589" lon="2.71921">
        <ele>14</ele>
        <time>2024-03-10T09:03:05.000Z</time>
      </trkpt>
      <trkpt lat="50.66583" lon="2.71927">
        <ele>14</ele>
        <time>2024-03-10T09:03:06.000Z</time>
      </trkpt>
      <trkpt lat="50.66537" lon="2.71975">
        <ele>14</ele>
        <time>2024-03-10T09:03:14.000Z</time>
      </trkpt>
      <trkpt lat="50.66494" lon="2.7203">
        <ele>14</ele>
        <time>2024-03-10T09:03:22.000Z</time>
      </trkpt>
      <trkpt lat="50.66478" lon="2.72049">
        <ele>14</ele>
        <time>2024-03-10T09:03:25.000Z</time>
      </trkpt>
      <trkpt lat="50.66431" lon="2.72109">
        <ele>14</ele>
        <time>2024-03-10T09:03:34.000Z</time>
      </trkpt>
      <trkpt lat="50.66426" lon="2.72115">
        <ele>14</ele>
        <time>2024-03-10T09:03:35.000Z</time>
      </trkpt>
      <trkpt lat="50.66421" lon="2.72121">
        <ele>14</ele>
        <time>2024-03-10T09:03:36.000Z</time>
      </trkpt>
      <trkpt lat="50.66401" lon="2.72148">
        <ele>14</ele>
        <time>2024-03-10T09:03:40.000Z</time>
      </trkpt>
      <trkpt lat="50.66357" lon="2.72205">
        <ele>14</ele>
        <time>2024-03-10T09:03:49.000Z</time>
      </trkpt>
      <trkpt lat="50.66327" lon="2.72236">
        <ele>14</ele>
        <time>2024-03-10T09:03:55.000Z</time>
      </trkpt>
      <trkpt lat="50.66321" lon="2.72238">
        <ele>14</ele>
        <time>2024-03-10T09:03:56.000Z</time>
      </trkpt>
      <trkpt lat="50.66305" lon="2.72241">
        <ele>14</ele>
        <time>2024-03-10T09:03:59.000Z</time>
      </trkpt>
      <trkpt lat="50.66297" lon="2.7225">
        <ele>14</ele>
        <time>2024-03-10T09:04:01.000Z</time>
      </trkpt>
      <trkpt lat="50.66294" lon="2.72257">
        <ele>14</ele>
        <time>2024-03-10T09:04:02.000Z</time>
      </trkpt>
      <trkpt lat="50.66291" lon="2.72264">
        <ele>14</ele>
        <time>2024-03-10T09:04:03.000Z</time>
      </trkpt>
      <trkpt lat="50.66278" lon="2.72281">
        <ele>14</ele>
        <time>2024-03-10T09:04:06.000Z</time>
      </trkpt>
      <trkpt lat="50.66253" lon="2.72308">
        <ele>13.800000190735</ele>
        <time>2024-03-10T09:04:12.000Z</time>
      </trkpt>
      <trkpt lat="50.6625" lon="2.7231">
        <ele>13.800000190735</ele>
        <time>2024-03-10T09:04:13.000Z</time>
      </trkpt>
      <trkpt lat="50.66242" lon="2.72317">
        <ele>14</ele>
        <time>2024-03-10T09:04:17.000Z</time>
      </trkpt>
      <trkpt lat="50.66241" lon="2.72319">
        <ele>14</ele>
        <time>2024-03-10T09:04:19.000Z</time>
      </trkpt>
      <trkpt lat="50.66241" lon="2.7232">
        <ele>14</ele>
        <time>2024-03-10T09:04:21.000Z</time>
      </trkpt>
      <trkpt lat="50.66241" lon="2.7232">
        <ele>14</ele>
        <time>2024-03-10T09:04:22.000Z</time>
      </trkpt>
      <trkpt lat="50.66238" lon="2.72327">
        <ele>12.60000038147</ele>
        <time>2024-03-10T09:16:58.000Z</time>
      </trkpt>
      <trkpt lat="50.66235" lon="2.7233">
        <ele>12.60000038147</ele>
        <time>2024-03-10T09:17:00.000Z</time>
      </trkpt>
      <trkpt lat="50.66223" lon="2.72349">
        <ele>12.39999961853</ele>
        <time>2024-03-10T09:17:05.000Z</time>
      </trkpt>
      <trkpt lat="50.66198" lon="2.72389">
        <ele>12</ele>
        <time>2024-03-10T09:17:12.000Z</time>
      </trkpt>
      <trkpt lat="50.66194" lon="2.72396">
        <ele>12</ele>
        <time>2024-03-10T09:17:13.000Z</time>
      </trkpt>
      <trkpt lat="50.66181" lon="2.72418">
        <ele>12</ele>
        <time>2024-03-10T09:17:17.000Z</time>
      </trkpt>
      <trkpt lat="50.66149" lon="2.72475">
        <ele>11.800000190735</ele>
        <time>2024-03-10T09:17:26.000Z</time>
      </trkpt>
      <trkpt lat="50.66122" lon="2.72531">
        <ele>11.800000190735</ele>
        <time>2024-03-10T09:17:34.000Z</time>
      </trkpt>
      <trkpt lat="50.66105" lon="2.72569">
        <ele>11.60000038147</ele>
        <time>2024-03-10T09:17:39.000Z</time>
      </trkpt>
      <trkpt lat="50.66092" lon="2.72599">
        <ele>11.39999961853</ele>
        <time>2024-03-10T09:17:43.000Z</time>
      </trkpt>
      <trkpt lat="50.66064" lon="2.72661">
        <ele>11.199999809265</ele>
        <time>2024-03-10T09:17:51.000Z</time>
      </trkpt>
      <trkpt lat="50.66031" lon="2.72734">
        <ele>11.39999961853</ele>
        <time>2024-03-10T09:18:00.000Z</time>
      </trkpt>
      <trkpt lat="50.65998" lon="2.72809">
        <ele>11.60000038147</ele>
        <time>2024-03-10T09:18:09.000Z</time>
      </trkpt>
      <trkpt lat="50.65994" lon="2.72819">
        <ele>11.60000038147</ele>
        <time>2024-03-10T09:18:10.000Z</time>
      </trkpt>
      <trkpt lat="50.65965" lon="2.72875">
        <ele>11.199999809265</ele>
        <time>2024-03-10T09:18:17.000Z</time>
      </trkpt>
      <trkpt lat="50.65927" lon="2.7295">
        <ele>11.199999809265</ele>
        <time>2024-03-10T09:18:26.000Z</time>
      </trkpt>
      <trkpt lat="50.65924" lon="2.72956">
        <ele>11</ele>
        <time>2024-03-10T09:18:27.000Z</time>
      </trkpt>
      <trkpt lat="50.65886" lon="2.73027">
        <ele>10.800000190735</ele>
        <time>2024-03-10T09:18:36.000Z</time>
      </trkpt>
      <trkpt lat="50.65882" lon="2.73035">
        <ele>10.800000190735</ele>
        <time>2024-03-10T09:18:37.000Z</time>
      </trkpt>
      <trkpt lat="50.65868" lon="2.73058">
        <ele>10.800000190735</ele>
        <time>2024-03-10T09:18:40.000Z</time>
      </trkpt>
      <trkpt lat="50.65858" lon="2.73068">
        <ele>10.800000190735</ele>
        <time>2024-03-10T09:18:42.000Z</time>
      </trkpt>
      <trkpt lat="50.65845" lon="2.73079">
        <ele>10.800000190735</ele>
        <time>2024-03-10T09:18:44.000Z</time>
      </trkpt>
      <trkpt lat="50.65821" lon="2.73093">
        <ele>10.800000190735</ele>
        <time>2024-03-10T09:18:48.000Z</time>
      </trkpt>
      <trkpt lat="50.6577" lon="2.73119">
        <ele>10.800000190735</ele>
        <time>2024-03-10T09:18:56.000Z</time>
      </trkpt>
      <trkpt lat="50.65758" lon="2.73127">
        <ele>10.800000190735</ele>
        <time>2024-03-10T09:18:58.000Z</time>
      </trkpt>
      <trkpt lat="50.6575" lon="2.73132">
        <ele>10.800000190735</ele>
        <time>2024-03-10T09:18:59.000Z</time>
      </trkpt>
      <trkpt lat="50.6573" lon="2.73155">
        <ele>11</ele>
        <time>2024-03-10T09:19:03.000Z</time>
      </trkpt>
      <trkpt lat="50.65692" lon="2.73214">
        <ele>11</ele>
        <time>2024-03-10T09:19:11.000Z</time>
      </trkpt>
      <trkpt lat="50.65652" lon="2.7328">
        <ele>11</ele>
        <time>2024-03-10T09:19:20.000Z</time>
      </trkpt>
      <trkpt lat="50.65645" lon="2.73291">
        <ele>11</ele>
        <time>2024-03-10T09:19:22.000Z</time>
      </trkpt>
      <trkpt lat="50.65641" lon="2.73298">
        <ele>11</ele>
        <time>2024-03-10T09:19:23.000Z</time>
      </trkpt>
      <trkpt lat="50.65635" lon="2.73309">
        <ele>11</ele>
        <time>2024-03-10T09:19:25.000Z</time>
      </trkpt>
      <trkpt lat="50.65629" lon="2.73317">
        <ele>11</ele>
        <time>2024-03-10T09:19:27.000Z</time>
      </trkpt>
      <trkpt lat="50.65621" lon="2.73326">
        <ele>11.199999809265</ele>
        <time>2024-03-10T09:19:30.000Z</time>
      </trkpt>
      <trkpt lat="50.65619" lon="2.73331">
        <ele>11.199999809265</ele>
        <time>2024-03-10T09:19:31.000Z</time>
      </trkpt>
      <trkpt lat="50.65605" lon="2.7335">
        <ele>11.60000038147</ele>
        <time>2024-03-10T09:19:35.000Z</time>
      </trkpt>
      <trkpt lat="50.65586" lon="2.73364">
        <ele>11.60000038147</ele>
        <time>2024-03-10T09:19:39.000Z</time>
      </trkpt>
      <trkpt lat="50.6558" lon="2.73366">
        <ele>11.60000038147</ele>
        <time>2024-03-10T09:19:40.000Z</time>
      </trkpt>
      <trkpt lat="50.65569" lon="2.73367">
        <ele>11.60000038147</ele>
        <time>2024-03-10T09:19:42.000Z</time>
      </trkpt>
      <trkpt lat="50.65544" lon="2.73364">
        <ele>11.60000038147</ele>
        <time>2024-03-10T09:19:46.000Z</time>
      </trkpt>
      <trkpt lat="50.65513" lon="2.73366">
        <ele>11.60000038147</ele>
        <time>2024-03-10T09:19:51.000Z</time>
      </trkpt>
      <trkpt lat="50.65505" lon="2.73369">
        <ele>11.60000038147</ele>
        <time>2024-03-10T09:19:52.000Z</time>
      </trkpt>
      <trkpt lat="50.65498" lon="2.73372">
        <ele>11.39999961853</ele>
        <time>2024-03-10T09:19:53.000Z</time>
      </trkpt>
      <trkpt lat="50.65481" lon="2.7339">
        <ele>11.199999809265</ele>
        <time>2024-03-10T09:19:56.000Z</time>
      </trkpt>
      <trkpt lat="50.65448" lon="2.7344">
        <ele>11</ele>
        <time>2024-03-10T09:20:03.000Z</time>
      </trkpt>
      <trkpt lat="50.65436" lon="2.73449">
        <ele>10.800000190735</ele>
        <time>2024-03-10T09:20:05.000Z</time>
      </trkpt>
      <trkpt lat="50.65429" lon="2.73451">
        <ele>10.800000190735</ele>
        <time>2024-03-10T09:20:06.000Z</time>
      </trkpt>
      <trkpt lat="50.65403" lon="2.73458">
        <ele>10.800000190735</ele>
        <time>2024-03-10T09:20:10.000Z</time>
      </trkpt>
      <trkpt lat="50.65395" lon="2.73463">
        <ele>10.800000190735</ele>
        <time>2024-03-10T09:20:11.000Z</time>
      </trkpt>
      <trkpt lat="50.65384" lon="2.73474">
        <ele>10.800000190735</ele>
        <time>2024-03-10T09:20:13.000Z</time>
      </trkpt>
      <trkpt lat="50.65373" lon="2.7349">
        <ele>10.800000190735</ele>
        <time>2024-03-10T09:20:15.000Z</time>
      </trkpt>
      <trkpt lat="50.65345" lon="2.73542">
        <ele>10.800000190735</ele>
        <time>2024-03-10T09:20:21.000Z</time>
      </trkpt>
      <trkpt lat="50.65311" lon="2.73617">
        <ele>10.60000038147</ele>
        <time>2024-03-10T09:20:29.000Z</time>
      </trkpt>
      <trkpt lat="50.65304" lon="2.73633">
        <ele>10.60000038147</ele>
        <time>2024-03-10T09:20:31.000Z</time>
      </trkpt>
      <trkpt lat="50.6527" lon="2.73702">
        <ele>11.199999809265</ele>
        <time>2024-03-10T09:20:39.000Z</time>
      </trkpt>
      <trkpt lat="50.6526" lon="2.73719">
        <ele>11.199999809265</ele>
        <time>2024-03-10T09:20:41.000Z</time>
      </trkpt>
      <trkpt lat="50.65218" lon="2.73789">
        <ele>11.39999961853</ele>
        <time>2024-03-10T09:20:50.000Z</time>
      </trkpt>
      <trkpt lat="50.65214" lon="2.73797">
        <ele>11.39999961853</ele>
        <time>2024-03-10T09:20:51.000Z</time>
      </trkpt>
      <trkpt lat="50.65186" lon="2.73871">
        <ele>11.39999961853</ele>
        <time>2024-03-10T09:20:59.000Z</time>
      </trkpt>
      <trkpt lat="50.65157" lon="2.73955">
        <ele>11.199999809265</ele>
        <time>2024-03-10T09:21:08.000Z</time>
      </trkpt>
      <trkpt lat="50.65151" lon="2.73974">
        <ele>11.199999809265</ele>
        <time>2024-03-10T09:21:10.000Z</time>
      </trkpt>
      <trkpt lat="50.65123" lon="2.74051">
        <ele>11</ele>
        <time>2024-03-10T09:21:18.000Z</time>
      </trkpt>
      <trkpt lat="50.65113" lon="2.74074">
        <ele>11</ele>
        <time>2024-03-10T09:21:21.000Z</time>
      </trkpt>
      <trkpt lat="50.65105" lon="2.7409">
        <ele>10.800000190735</ele>
        <time>2024-03-10T09:21:23.000Z</time>
      </trkpt>
      <trkpt lat="50.65096" lon="2.74097">
        <ele>10.800000190735</ele>
        <time>2024-03-10T09:21:25.000Z</time>
      </trkpt>
      <trkpt lat="50.65085" lon="2.74097">
        <ele>10.800000190735</ele>
        <time>2024-03-10T09:21:27.000Z</time>
      </trkpt>
      <trkpt lat="50.6508" lon="2.74093">
        <ele>10.800000190735</ele>
        <time>2024-03-10T09:21:28.000Z</time>
      </trkpt>
      <trkpt lat="50.65048" lon="2.74062">
        <ele>10.800000190735</ele>
        <time>2024-03-10T09:21:34.000Z</time>
      </trkpt>
      <trkpt lat="50.65041" lon="2.74058">
        <ele>11</ele>
        <time>2024-03-10T09:21:35.000Z</time>
      </trkpt>
      <trkpt lat="50.65036" lon="2.74058">
        <ele>11</ele>
        <time>2024-03-10T09:21:36.000Z</time>
      </trkpt>
      <trkpt lat="50.65023" lon="2.74063">
        <ele>11</ele>
        <time>2024-03-10T09:21:38.000Z</time>
      </trkpt>
      <trkpt lat="50.65" lon="2.74095">
        <ele>10.800000190735</ele>
        <time>2024-03-10T09:21:43.000Z</time>
      </trkpt>
      <trkpt lat="50.64987" lon="2.74115">
        <ele>10.800000190735</ele>
        <time>2024-03-10T09:21:46.000Z</time>
      </trkpt>
      <trkpt lat="50.64979" lon="2.74128">
        <ele>10.800000190735</ele>
        <time>2024-03-10T09:21:48.000Z</time>
      </trkpt>
      <trkpt lat="50.64963" lon="2.74154">
        <ele>10.60000038147</ele>
        <time>2024-03-10T09:21:53.000Z</time>
      </trkpt>
      <trkpt lat="50.64954" lon="2.74167">
        <ele>10.60000038147</ele>
        <time>2024-03-10T09:21:58.000Z</time>
      </trkpt>
      <trkpt lat="50.6495" lon="2.74175">
        <ele>10.60000038147</ele>
        <time>2024-03-10T09:22:01.000Z</time>
      </trkpt>
      <trkpt lat="50.64951" lon="2.74181">
        <ele>10.60000038147</ele>
        <time>2024-03-10T09:22:02.000Z</time>
      </trkpt>
      <trkpt lat="50.64959" lon="2.74203">
        <ele>10.60000038147</ele>
        <time>2024-03-10T09:22:06.000Z</time>
      </trkpt>
      <trkpt lat="50.64968" lon="2.74226">
        <ele>10.60000038147</ele>
        <time>2024-03-10T09:22:09.000Z</time>
      </trkpt>
      <trkpt lat="50.64976" lon="2.74242">
        <ele>10.60000038147</ele>
        <time>2024-03-10T09:22:11.000Z</time>
      </trkpt>
      <trkpt lat="50.65" lon="2.74278">
        <ele>10.199999809265</ele>
        <time>2024-03-10T09:22:16.000Z</time>
      </trkpt>
      <trkpt lat="50.65004" lon="2.74284">
        <ele>10.199999809265</ele>
        <time>2024-03-10T09:22:17.000Z</time>
      </trkpt>
      <trkpt lat="50.65044" lon="2.74332">
        <ele>9.3999996185303</ele>
        <time>2024-03-10T09:22:24.000Z</time>
      </trkpt>
      <trkpt lat="50.65081" lon="2.74367">
        <ele>9.1999998092651</ele>
        <time>2024-03-10T09:22:30.000Z</time>
      </trkpt>
      <trkpt lat="50.65117" lon="2.74415">
        <ele>9.3999996185303</ele>
        <time>2024-03-10T09:22:37.000Z</time>
      </trkpt>
      <trkpt lat="50.65155" lon="2.74468">
        <ele>10</ele>
        <time>2024-03-10T09:22:45.000Z</time>
      </trkpt>
      <trkpt lat="50.65194" lon="2.74523">
        <ele>10.199999809265</ele>
        <time>2024-03-10T09:22:53.000Z</time>
      </trkpt>
      <trkpt lat="50.65235" lon="2.74579">
        <ele>10</ele>
        <time>2024-03-10T09:23:01.000Z</time>
      </trkpt>
      <trkpt lat="50.65244" lon="2.74591">
        <ele>10</ele>
        <time>2024-03-10T09:23:03.000Z</time>
      </trkpt>
      <trkpt lat="50.65284" lon="2.74649">
        <ele>9.8000001907349</ele>
        <time>2024-03-10T09:23:11.000Z</time>
      </trkpt>
      <trkpt lat="50.65313" lon="2.74704">
        <ele>10</ele>
        <time>2024-03-10T09:23:18.000Z</time>
      </trkpt>
      <trkpt lat="50.65348" lon="2.74775">
        <ele>10.39999961853</ele>
        <time>2024-03-10T09:23:27.000Z</time>
      </trkpt>
      <trkpt lat="50.65352" lon="2.74784">
        <ele>10.39999961853</ele>
        <time>2024-03-10T09:23:28.000Z</time>
      </trkpt>
      <trkpt lat="50.65378" lon="2.74842">
        <ele>10.39999961853</ele>
        <time>2024-03-10T09:23:34.000Z</time>
      </trkpt>
      <trkpt lat="50.6541" lon="2.74912">
        <ele>10.199999809265</ele>
        <time>2024-03-10T09:23:41.000Z</time>
      </trkpt>
      <trkpt lat="50.65418" lon="2.74931">
        <ele>10.199999809265</ele>
        <time>2024-03-10T09:23:43.000Z</time>
      </trkpt>
      <trkpt lat="50.65439" lon="2.74975">
        <ele>10</ele>
        <time>2024-03-10T09:23:48.000Z</time>
      </trkpt>
      <trkpt lat="50.65471" lon="2.75044">
        <ele>9.8000001907349</ele>
        <time>2024-03-10T09:23:56.000Z</time>
      </trkpt>
      <trkpt lat="50.65476" lon="2.75053">
        <ele>9.8000001907349</ele>
        <time>2024-03-10T09:23:57.000Z</time>
      </trkpt>
      <trkpt lat="50.65509" lon="2.75123">
        <ele>10</ele>
        <time>2024-03-10T09:24:05.000Z</time>
      </trkpt>
      <trkpt lat="50.65517" lon="2.7514">
        <ele>10</ele>
        <time>2024-03-10T09:24:07.000Z</time>
      </trkpt>
      <trkpt lat="50.65553" lon="2.7521">
        <ele>10</ele>
        <time>2024-03-10T09:24:15.000Z</time>
      </trkpt>
      <trkpt lat="50.65561" lon="2.75229">
        <ele>9.8000001907349</ele>
        <time>2024-03-10T09:24:17.000Z</time>
      </trkpt>
      <trkpt lat="50.65592" lon="2.75304">
        <ele>9.6000003814697</ele>
        <time>2024-03-10T09:24:25.000Z</time>
      </trkpt>
      <trkpt lat="50.65596" lon="2.75313">
        <ele>9.6000003814697</ele>
        <time>2024-03-10T09:24:26.000Z</time>
      </trkpt>
      <trkpt lat="50.65627" lon="2.75391">
        <ele>9.6000003814697</ele>
        <time>2024-03-10T09:24:34.000Z</time>
      </trkpt>
      <trkpt lat="50.65634" lon="2.7541">
        <ele>9.6000003814697</ele>
        <time>2024-03-10T09:24:36.000Z</time>
      </trkpt>
      <trkpt lat="50.65668" lon="2.75488">
        <ele>9.6000003814697</ele>
        <time>2024-03-10T09:24:44.000Z</time>
      </trkpt>
      <trkpt lat="50.6568" lon="2.75516">
        <ele>9.6000003814697</ele>
        <time>2024-03-10T09:24:47.000Z</time>
      </trkpt>
      <trkpt lat="50.65714" lon="2.75588">
        <ele>9.6000003814697</ele>
        <time>2024-03-10T09:24:55.000Z</time>
      </trkpt>
      <trkpt lat="50.65723" lon="2.75606">
        <ele>9.8000001907349</ele>
        <time>2024-03-10T09:24:57.000Z</time>
      </trkpt>
      <trkpt lat="50.65755" lon="2.75676">
        <ele>10</ele>
        <time>2024-03-10T09:25:05.000Z</time>
      </trkpt>
      <trkpt lat="50.65763" lon="2.75694">
        <ele>10</ele>
        <time>2024-03-10T09:25:07.000Z</time>
      </trkpt>
      <trkpt lat="50.65798" lon="2.7575">
        <ele>10</ele>
        <time>2024-03-10T09:25:14.000Z</time>
      </trkpt>
      <trkpt lat="50.6584" lon="2.7581">
        <ele>10.39999961853</ele>
        <time>2024-03-10T09:25:22.000Z</time>
      </trkpt>
      <trkpt lat="50.65851" lon="2.75825">
        <ele>10.39999961853</ele>
        <time>2024-03-10T09:25:24.000Z</time>
      </trkpt>
      <trkpt lat="50.65893" lon="2.75885">
        <ele>10.60000038147</ele>
        <time>2024-03-10T09:25:32.000Z</time>
      </trkpt>
      <trkpt lat="50.65908" lon="2.75907">
        <ele>10.60000038147</ele>
        <time>2024-03-10T09:25:35.000Z</time>
      </trkpt>
      <trkpt lat="50.65949" lon="2.75967">
        <ele>10.800000190735</ele>
        <time>2024-03-10T09:25:43.000Z</time>
      </trkpt>
      <trkpt lat="50.65969" lon="2.75996">
        <ele>11</ele>
        <time>2024-03-10T09:25:47.000Z</time>
      </trkpt>
      <trkpt lat="50.6598" lon="2.76011">
        <ele>11</ele>
        <time>2024-03-10T09:25:49.000Z</time>
      </trkpt>
      <trkpt lat="50.66009" lon="2.76041">
        <ele>11.199999809265</ele>
        <time>2024-03-10T09:25:54.000Z</time>
      </trkpt>
      <trkpt lat="50.66064" lon="2.76076">
        <ele>10.800000190735</ele>
        <time>2024-03-10T09:26:02.000Z</time>
      </trkpt>
      <trkpt lat="50.66071" lon="2.76081">
        <ele>10.800000190735</ele>
        <time>2024-03-10T09:26:03.000Z</time>
      </trkpt>
      <trkpt lat="50.66126" lon="2.76116">
        <ele>10</ele>
        <time>2024-03-10T09:26:11.000Z</time>
      </trkpt>
      <trkpt lat="50.66146" lon="2.7613">
        <ele>9.8000001907349</ele>
        <time>2024-03-10T09:26:14.000Z</time>
      </trkpt>
      <trkpt lat="50.66197" lon="2.7617">
        <ele>9.3999996185303</ele>
        <time>2024-03-10T09:26:22.000Z</time>
      </trkpt>
      <trkpt lat="50.66213" lon="2.76183">
        <ele>9.3999996185303</ele>
        <time>2024-03-10T09:26:25.000Z</time>
      </trkpt>
      <trkpt lat="50.66222" lon="2.7619">
        <ele>9.3999996185303</ele>
        <time>2024-03-10T09:26:27.000Z</time>
      </trkpt>
      <trkpt lat="50.66228" lon="2.762">
        <ele>9.3999996185303</ele>
        <time>2024-03-10T09:26:29.000Z</time>
      </trkpt>
      <trkpt lat="50.66231" lon="2.76215">
        <ele>9.3999996185303</ele>
        <time>2024-03-10T09:26:31.000Z</time>
      </trkpt>
      <trkpt lat="50.66229" lon="2.76223">
        <ele>9.3999996185303</ele>
        <time>2024-03-10T09:26:32.000Z</time>
      </trkpt>
      <trkpt lat="50.66227" lon="2.76231">
        <ele>9.1999998092651</ele>
        <time>2024-03-10T09:26:33.000Z</time>
      </trkpt>
      <trkpt lat="50.66215" lon="2.76263">
        <ele>9.1999998092651</ele>
        <time>2024-03-10T09:26:37.000Z</time>
      </trkpt>
      <trkpt lat="50.66201" lon="2.76319">
        <ele>9.1999998092651</ele>
        <time>2024-03-10T09:26:43.000Z</time>
      </trkpt>
      <trkpt lat="50.66192" lon="2.76354">
        <ele>9.1999998092651</ele>
        <time>2024-03-10T09:26:47.000Z</time>
      </trkpt>
      <trkpt lat="50.66189" lon="2.76372">
        <ele>9.1999998092651</ele>
        <time>2024-03-10T09:26:49.000Z</time>
      </trkpt>
      <trkpt lat="50.66171" lon="2.76446">
        <ele>9.1999998092651</ele>
        <time>2024-03-10T09:26:57.000Z</time>
      </trkpt>
      <trkpt lat="50.66161" lon="2.76471">
        <ele>9.1999998092651</ele>
        <time>2024-03-10T09:27:00.000Z</time>
      </trkpt>
      <trkpt lat="50.66148" lon="2.7649">
        <ele>9.1999998092651</ele>
        <time>2024-03-10T09:27:03.000Z</time>
      </trkpt>
      <trkpt lat="50.66111" lon="2.7653">
        <ele>9.1999998092651</ele>
        <time>2024-03-10T09:27:11.000Z</time>
      </trkpt>
      <trkpt lat="50.66069" lon="2.76577">
        <ele>10.199999809265</ele>
        <time>2024-03-10T09:27:20.000Z</time>
      </trkpt>
      <trkpt lat="50.66046" lon="2.76605">
        <ele>11</ele>
        <time>2024-03-10T09:27:25.000Z</time>
      </trkpt>
      <trkpt lat="50.66036" lon="2.76615">
        <ele>11.39999961853</ele>
        <time>2024-03-10T09:27:27.000Z</time>
      </trkpt>
      <trkpt lat="50.66005" lon="2.76641">
        <ele>11.39999961853</ele>
        <time>2024-03-10T09:27:32.000Z</time>
      </trkpt>
      <trkpt lat="50.65952" lon="2.76682">
        <ele>10.199999809265</ele>
        <time>2024-03-10T09:27:40.000Z</time>
      </trkpt>
      <trkpt lat="50.65947" lon="2.76686">
        <ele>9.8000001907349</ele>
        <time>2024-03-10T09:27:41.000Z</time>
      </trkpt>
      <trkpt lat="50.65919" lon="2.76708">
        <ele>9.3999996185303</ele>
        <time>2024-03-10T09:27:46.000Z</time>
      </trkpt>
      <trkpt lat="50.65873" lon="2.76755">
        <ele>10</ele>
        <time>2024-03-10T09:27:55.000Z</time>
      </trkpt>
      <trkpt lat="50.65869" lon="2.76759">
        <ele>10</ele>
        <time>2024-03-10T09:27:56.000Z</time>
      </trkpt>
      <trkpt lat="50.6586" lon="2.76769">
        <ele>10.199999809265</ele>
        <time>2024-03-10T09:27:58.000Z</time>
      </trkpt>
      <trkpt lat="50.65847" lon="2.76784">
        <ele>10.39999961853</ele>
        <time>2024-03-10T09:28:01.000Z</time>
      </trkpt>
      <trkpt lat="50.65817" lon="2.7682">
        <ele>10.60000038147</ele>
        <time>2024-03-10T09:28:08.000Z</time>
      </trkpt>
      <trkpt lat="50.65789" lon="2.76853">
        <ele>10.60000038147</ele>
        <time>2024-03-10T09:28:15.000Z</time>
      </trkpt>
      <trkpt lat="50.65778" lon="2.76865">
        <ele>10.60000038147</ele>
        <time>2024-03-10T09:28:19.000Z</time>
      </trkpt>
      <trkpt lat="50.65771" lon="2.76872">
        <ele>10.800000190735</ele>
        <time>2024-03-10T09:28:23.000Z</time>
      </trkpt>
      <trkpt lat="50.6577" lon="2.76873">
        <ele>10.800000190735</ele>
        <time>2024-03-10T09:28:24.000Z</time>
      </trkpt>
      <trkpt lat="50.65767" lon="2.76878">
        <ele>11.39999961853</ele>
        <time>2024-03-10T09:28:30.000Z</time>
      </trkpt>
      <trkpt lat="50.65767" lon="2.76878">
        <ele>11.39999961853</ele>
        <time>2024-03-10T09:28:31.000Z</time>
      </trkpt>
      <trkpt lat="50.65762" lon="2.76883">
        <ele>11.39999961853</ele>
        <time>2024-03-10T09:28:40.000Z</time>
      </trkpt>
      <trkpt lat="50.65757" lon="2.76889">
        <ele>11.39999961853</ele>
        <time>2024-03-10T09:28:42.000Z</time>
      </trkpt>
      <trkpt lat="50.65742" lon="2.76909">
        <ele>11.39999961853</ele>
        <time>2024-03-10T09:28:47.000Z</time>
      </trkpt>
      <trkpt lat="50.65738" lon="2.76914">
        <ele>11.39999961853</ele>
        <time>2024-03-10T09:28:48.000Z</time>
      </trkpt>
      <trkpt lat="50.6572" lon="2.76938">
        <ele>11.199999809265</ele>
        <time>2024-03-10T09:28:52.000Z</time>
      </trkpt>
      <trkpt lat="50.65682" lon="2.76992">
        <ele>10.60000038147</ele>
        <time>2024-03-10T09:29:00.000Z</time>
      </trkpt>
      <trkpt lat="50.65647" lon="2.77045">
        <ele>10.39999961853</ele>
        <time>2024-03-10T09:29:08.000Z</time>
      </trkpt>
      <trkpt lat="50.65602" lon="2.77107">
        <ele>10.39999961853</ele>
        <time>2024-03-10T09:29:17.000Z</time>
      </trkpt>
      <trkpt lat="50.65597" lon="2.77115">
        <ele>10.39999961853</ele>
        <time>2024-03-10T09:29:18.000Z</time>
      </trkpt>
      <trkpt lat="50.65552" lon="2.77177">
        <ele>10.199999809265</ele>
        <time>2024-03-10T09:29:27.000Z</time>
      </trkpt>
      <trkpt lat="50.65508" lon="2.77239">
        <ele>10</ele>
        <time>2024-03-10T09:29:36.000Z</time>
      </trkpt>
      <trkpt lat="50.65503" lon="2.77245">
        <ele>10</ele>
        <time>2024-03-10T09:29:37.000Z</time>
      </trkpt>
      <trkpt lat="50.65461" lon="2.77304">
        <ele>10.39999961853</ele>
        <time>2024-03-10T09:29:46.000Z</time>
      </trkpt>
      <trkpt lat="50.65417" lon="2.77365">
        <ele>10.60000038147</ele>
        <time>2024-03-10T09:29:55.000Z</time>
      </trkpt>
      <trkpt lat="50.65412" lon="2.77371">
        <ele>10.60000038147</ele>
        <time>2024-03-10T09:29:56.000Z</time>
      </trkpt>
      <trkpt lat="50.65383" lon="2.77413">
        <ele>10.60000038147</ele>
        <time>2024-03-10T09:30:02.000Z</time>
      </trkpt>
      <trkpt lat="50.65374" lon="2.77428">
        <ele>10.60000038147</ele>
        <time>2024-03-10T09:30:04.000Z</time>
      </trkpt>
      <trkpt lat="50.65343" lon="2.77467">
        <ele>10.60000038147</ele>
        <time>2024-03-10T09:30:10.000Z</time>
      </trkpt>
      <trkpt lat="50.65338" lon="2.77473">
        <ele>10.60000038147</ele>
        <time>2024-03-10T09:30:11.000Z</time>
      </trkpt>
      <trkpt lat="50.65308" lon="2.77515">
        <ele>10.60000038147</ele>
        <time>2024-03-10T09:30:17.000Z</time>
      </trkpt>
      <trkpt lat="50.65267" lon="2.77572">
        <ele>10.60000038147</ele>
        <time>2024-03-10T09:30:25.000Z</time>
      </trkpt>
      <trkpt lat="50.65262" lon="2.7758">
        <ele>10.60000038147</ele>
        <time>2024-03-10T09:30:26.000Z</time>
      </trkpt>
      <trkpt lat="50.65216" lon="2.77641">
        <ele>10.800000190735</ele>
        <time>2024-03-10T09:30:35.000Z</time>
      </trkpt>
      <trkpt lat="50.6521" lon="2.77647">
        <ele>10.800000190735</ele>
        <time>2024-03-10T09:30:36.000Z</time>
      </trkpt>
      <trkpt lat="50.65176" lon="2.77694">
        <ele>11</ele>
        <time>2024-03-10T09:30:43.000Z</time>
      </trkpt>
      <trkpt lat="50.65135" lon="2.77746">
        <ele>11</ele>
        <time>2024-03-10T09:30:51.000Z</time>
      </trkpt>
      <trkpt lat="50.65093" lon="2.77799">
        <ele>10.800000190735</ele>
        <time>2024-03-10T09:30:59.000Z</time>
      </trkpt>
      <trkpt lat="50.65088" lon="2.77806">
        <ele>10.800000190735</ele>
        <time>2024-03-10T09:31:00.000Z</time>
      </trkpt>
      <trkpt lat="50.6504" lon="2.77861">
        <ele>10.800000190735</ele>
        <time>2024-03-10T09:31:09.000Z</time>
      </trkpt>
      <trkpt lat="50.64996" lon="2.7791">
        <ele>10.60000038147</ele>
        <time>2024-03-10T09:31:17.000Z</time>
      </trkpt>
      <trkpt lat="50.6499" lon="2.77915">
        <ele>10.60000038147</ele>
        <time>2024-03-10T09:31:18.000Z</time>
      </trkpt>
      <trkpt lat="50.64942" lon="2.77971">
        <ele>10.60000038147</ele>
        <time>2024-03-10T09:31:27.000Z</time>
      </trkpt>
      <trkpt lat="50.64937" lon="2.77977">
        <ele>10.60000038147</ele>
        <time>2024-03-10T09:31:28.000Z</time>
      </trkpt>
      <trkpt lat="50.64906" lon="2.78012">
        <ele>10.60000038147</ele>
        <time>2024-03-10T09:31:34.000Z</time>
      </trkpt>
      <trkpt lat="50.64864" lon="2.7806">
        <ele>10.60000038147</ele>
        <time>2024-03-10T09:31:42.000Z</time>
      </trkpt>
      <trkpt lat="50.64822" lon="2.78107">
        <ele>10.60000038147</ele>
        <time>2024-03-10T09:31:50.000Z</time>
      </trkpt>
      <trkpt lat="50.64778" lon="2.7816">
        <ele>10.800000190735</ele>
        <time>2024-03-10T09:31:59.000Z</time>
      </trkpt>
      <trkpt lat="50.64756" lon="2.78185">
        <ele>11</ele>
        <time>2024-03-10T09:32:04.000Z</time>
      </trkpt>
      <trkpt lat="50.64727" lon="2.78216">
        <ele>11</ele>
        <time>2024-03-10T09:32:09.000Z</time>
      </trkpt>
      <trkpt lat="50.64686" lon="2.78261">
        <ele>10.60000038147</ele>
        <time>2024-03-10T09:32:16.000Z</time>
      </trkpt>
      <trkpt lat="50.64638" lon="2.78314">
        <ele>10.39999961853</ele>
        <time>2024-03-10T09:32:25.000Z</time>
      </trkpt>
      <trkpt lat="50.64628" lon="2.78326">
        <ele>10.60000038147</ele>
        <time>2024-03-10T09:32:27.000Z</time>
      </trkpt>
      <trkpt lat="50.64581" lon="2.78379">
        <ele>11</ele>
        <time>2024-03-10T09:32:36.000Z</time>
      </trkpt>
      <trkpt lat="50.64545" lon="2.78419">
        <ele>10.800000190735</ele>
        <time>2024-03-10T09:32:43.000Z</time>
      </trkpt>
      <trkpt lat="50.64531" lon="2.78434">
        <ele>10.800000190735</ele>
        <time>2024-03-10T09:32:46.000Z</time>
      </trkpt>
      <trkpt lat="50.6452" lon="2.78441">
        <ele>10.800000190735</ele>
        <time>2024-03-10T09:32:48.000Z</time>
      </trkpt>
      <trkpt lat="50.64503" lon="2.78448">
        <ele>10.800000190735</ele>
        <time>2024-03-10T09:32:51.000Z</time>
      </trkpt>
      <trkpt lat="50.64498" lon="2.78452">
        <ele>10.800000190735</ele>
        <time>2024-03-10T09:32:52.000Z</time>
      </trkpt>
      <trkpt lat="50.64493" lon="2.78459">
        <ele>10.800000190735</ele>
        <time>2024-03-10T09:32:53.000Z</time>
      </trkpt>
      <trkpt lat="50.64483" lon="2.78483">
        <ele>10.800000190735</ele>
        <time>2024-03-10T09:32:56.000Z</time>
      </trkpt>
      <trkpt lat="50.64464" lon="2.78514">
        <ele>10.800000190735</ele>
        <time>2024-03-10T09:33:00.000Z</time>
      </trkpt>
      <trkpt lat="50.64458" lon="2.78521">
        <ele>10.800000190735</ele>
        <time>2024-03-10T09:33:01.000Z</time>
      </trkpt>
      <trkpt lat="50.6442" lon="2.78562">
        <ele>10.800000190735</ele>
        <time>2024-03-10T09:33:07.000Z</time>
      </trkpt>
      <trkpt lat="50.64374" lon="2.7862">
        <ele>10.60000038147</ele>
        <time>2024-03-10T09:33:15.000Z</time>
      </trkpt>
      <trkpt lat="50.64359" lon="2.78642">
        <ele>10.60000038147</ele>
        <time>2024-03-10T09:33:18.000Z</time>
      </trkpt>
      <trkpt lat="50.64316" lon="2.78695">
        <ele>10.800000190735</ele>
        <time>2024-03-10T09:33:26.000Z</time>
      </trkpt>
      <trkpt lat="50.6427" lon="2.78741">
        <ele>11</ele>
        <time>2024-03-10T09:33:34.000Z</time>
      </trkpt>
      <trkpt lat="50.6422" lon="2.78791">
        <ele>11</ele>
        <time>2024-03-10T09:33:43.000Z</time>
      </trkpt>
      <trkpt lat="50.64209" lon="2.78802">
        <ele>11</ele>
        <time>2024-03-10T09:33:45.000Z</time>
      </trkpt>
      <trkpt lat="50.64173" lon="2.78847">
        <ele>11</ele>
        <time>2024-03-10T09:33:52.000Z</time>
      </trkpt>
      <trkpt lat="50.64152" lon="2.78898">
        <ele>11.199999809265</ele>
        <time>2024-03-10T09:33:58.000Z</time>
      </trkpt>
      <trkpt lat="50.64122" lon="2.7898">
        <ele>11.199999809265</ele>
        <time>2024-03-10T09:34:07.000Z</time>
      </trkpt>
      <trkpt lat="50.64115" lon="2.78998">
        <ele>11.199999809265</ele>
        <time>2024-03-10T09:34:09.000Z</time>
      </trkpt>
      <trkpt lat="50.64085" lon="2.7907">
        <ele>11.199999809265</ele>
        <time>2024-03-10T09:34:17.000Z</time>
      </trkpt>
      <trkpt lat="50.64081" lon="2.7908">
        <ele>11.199999809265</ele>
        <time>2024-03-10T09:34:18.000Z</time>
      </trkpt>
      <trkpt lat="50.64055" lon="2.79138">
        <ele>11.199999809265</ele>
        <time>2024-03-10T09:34:25.000Z</time>
      </trkpt>
      <trkpt lat="50.64019" lon="2.79213">
        <ele>11.199999809265</ele>
        <time>2024-03-10T09:34:34.000Z</time>
      </trkpt>
      <trkpt lat="50.64007" lon="2.79238">
        <ele>11.199999809265</ele>
        <time>2024-03-10T09:34:37.000Z</time>
      </trkpt>
      <trkpt lat="50.63979" lon="2.79298">
        <ele>11.199999809265</ele>
        <time>2024-03-10T09:34:44.000Z</time>
      </trkpt>
      <trkpt lat="50.63943" lon="2.79373">
        <ele>11</ele>
        <time>2024-03-10T09:34:53.000Z</time>
      </trkpt>
      <trkpt lat="50.63935" lon="2.79389">
        <ele>11</ele>
        <time>2024-03-10T09:34:55.000Z</time>
      </trkpt>
      <trkpt lat="50.639" lon="2.79452">
        <ele>11</ele>
        <time>2024-03-10T09:35:03.000Z</time>
      </trkpt>
      <trkpt lat="50.63859" lon="2.7952">
        <ele>11.199999809265</ele>
        <time>2024-03-10T09:35:12.000Z</time>
      </trkpt>
      <trkpt lat="50.6384" lon="2.79552">
        <ele>11.199999809265</ele>
        <time>2024-03-10T09:35:16.000Z</time>
      </trkpt>
      <trkpt lat="50.638" lon="2.79619">
        <ele>11</ele>
        <time>2024-03-10T09:35:25.000Z</time>
      </trkpt>
      <trkpt lat="50.6376" lon="2.79686">
        <ele>11</ele>
        <time>2024-03-10T09:35:34.000Z</time>
      </trkpt>
      <trkpt lat="50.63751" lon="2.79701">
        <ele>11</ele>
        <time>2024-03-10T09:35:36.000Z</time>
      </trkpt>
      <trkpt lat="50.63734" lon="2.7973">
        <ele>11.199999809265</ele>
        <time>2024-03-10T09:35:40.000Z</time>
      </trkpt>
      <trkpt lat="50.63706" lon="2.79777">
        <ele>11.39999961853</ele>
        <time>2024-03-10T09:35:46.000Z</time>
      </trkpt>
      <trkpt lat="50.63676" lon="2.79828">
        <ele>11.39999961853</ele>
        <time>2024-03-10T09:35:53.000Z</time>
      </trkpt>
      <trkpt lat="50.63641" lon="2.79874">
        <ele>11.60000038147</ele>
        <time>2024-03-10T09:36:01.000Z</time>
      </trkpt>
      <trkpt lat="50.63629" lon="2.79894">
        <ele>11.60000038147</ele>
        <time>2024-03-10T09:36:05.000Z</time>
      </trkpt>
      <trkpt lat="50.63627" lon="2.79901">
        <ele>11.60000038147</ele>
        <time>2024-03-10T09:36:06.000Z</time>
      </trkpt>
      <trkpt lat="50.63628" lon="2.79908">
        <ele>11.60000038147</ele>
        <time>2024-03-10T09:36:07.000Z</time>
      </trkpt>
      <trkpt lat="50.63634" lon="2.7992">
        <ele>11.60000038147</ele>
        <time>2024-03-10T09:36:09.000Z</time>
      </trkpt>
      <trkpt lat="50.63655" lon="2.79951">
        <ele>11.60000038147</ele>
        <time>2024-03-10T09:36:14.000Z</time>
      </trkpt>
      <trkpt lat="50.63687" lon="2.79997">
        <ele>11.199999809265</ele>
        <time>2024-03-10T09:36:20.000Z</time>
      </trkpt>
      <trkpt lat="50.63705" lon="2.80021">
        <ele>10.199999809265</ele>
        <time>2024-03-10T09:36:23.000Z</time>
      </trkpt>
      <trkpt lat="50.63728" lon="2.80053">
        <ele>10</ele>
        <time>2024-03-10T09:36:27.000Z</time>
      </trkpt>
      <trkpt lat="50.6377" lon="2.80115">
        <ele>10</ele>
        <time>2024-03-10T09:36:35.000Z</time>
      </trkpt>
      <trkpt lat="50.63774" lon="2.80123">
        <ele>10.199999809265</ele>
        <time>2024-03-10T09:36:36.000Z</time>
      </trkpt>
      <trkpt lat="50.6381" lon="2.80187">
        <ele>10.39999961853</ele>
        <time>2024-03-10T09:36:44.000Z</time>
      </trkpt>
      <trkpt lat="50.6382" lon="2.80198">
        <ele>10.60000038147</ele>
        <time>2024-03-10T09:36:46.000Z</time>
      </trkpt>
      <trkpt lat="50.63839" lon="2.80211">
        <ele>10.60000038147</ele>
        <time>2024-03-10T09:36:49.000Z</time>
      </trkpt>
      <trkpt lat="50.63875" lon="2.8024">
        <ele>10.60000038147</ele>
        <time>2024-03-10T09:36:55.000Z</time>
      </trkpt>
      <trkpt lat="50.63912" lon="2.8029">
        <ele>11</ele>
        <time>2024-03-10T09:37:02.000Z</time>
      </trkpt>
      <trkpt lat="50.63952" lon="2.80345">
        <ele>11</ele>
        <time>2024-03-10T09:37:10.000Z</time>
      </trkpt>
      <trkpt lat="50.63997" lon="2.80407">
        <ele>11</ele>
        <time>2024-03-10T09:37:19.000Z</time>
      </trkpt>
      <trkpt lat="50.64006" lon="2.80419">
        <ele>11</ele>
        <time>2024-03-10T09:37:21.000Z</time>
      </trkpt>
      <trkpt lat="50.64047" lon="2.80476">
        <ele>10.60000038147</ele>
        <time>2024-03-10T09:37:29.000Z</time>
      </trkpt>
      <trkpt lat="50.64051" lon="2.80482">
        <ele>10.60000038147</ele>
        <time>2024-03-10T09:37:30.000Z</time>
      </trkpt>
      <trkpt lat="50.64091" lon="2.80536">
        <ele>10.39999961853</ele>
        <time>2024-03-10T09:37:38.000Z</time>
      </trkpt>
      <trkpt lat="50.64133" lon="2.80593">
        <ele>10.199999809265</ele>
        <time>2024-03-10T09:37:47.000Z</time>
      </trkpt>
      <trkpt lat="50.64138" lon="2.80599">
        <ele>10.199999809265</ele>
        <time>2024-03-10T09:37:48.000Z</time>
      </trkpt>
      <trkpt lat="50.64173" lon="2.80628">
        <ele>9.6000003814697</ele>
        <time>2024-03-10T09:37:54.000Z</time>
      </trkpt>
      <trkpt lat="50.64216" lon="2.80656">
        <ele>9.8000001907349</ele>
        <time>2024-03-10T09:38:01.000Z</time>
      </trkpt>
      <trkpt lat="50.64232" lon="2.80673">
        <ele>9.8000001907349</ele>
        <time>2024-03-10T09:38:04.000Z</time>
      </trkpt>
      <trkpt lat="50.64247" lon="2.80696">
        <ele>10.199999809265</ele>
        <time>2024-03-10T09:38:07.000Z</time>
      </trkpt>
      <trkpt lat="50.64286" lon="2.80752">
        <ele>10.60000038147</ele>
        <time>2024-03-10T09:38:15.000Z</time>
      </trkpt>
      <trkpt lat="50.64331" lon="2.80812">
        <ele>10.39999961853</ele>
        <time>2024-03-10T09:38:24.000Z</time>
      </trkpt>
      <trkpt lat="50.64364" lon="2.80874">
        <ele>10.39999961853</ele>
        <time>2024-03-10T09:38:32.000Z</time>
      </trkpt>
      <trkpt lat="50.64393" lon="2.8093">
        <ele>10.39999961853</ele>
        <time>2024-03-10T09:38:39.000Z</time>
      </trkpt>
      <trkpt lat="50.64431" lon="2.81002">
        <ele>10.60000038147</ele>
        <time>2024-03-10T09:38:48.000Z</time>
      </trkpt>
      <trkpt lat="50.64468" lon="2.81073">
        <ele>10.800000190735</ele>
        <time>2024-03-10T09:38:57.000Z</time>
      </trkpt>
      <trkpt lat="50.64501" lon="2.81141">
        <ele>11</ele>
        <time>2024-03-10T09:39:05.000Z</time>
      </trkpt>
      <trkpt lat="50.6451" lon="2.81156">
        <ele>11</ele>
        <time>2024-03-10T09:39:07.000Z</time>
      </trkpt>
      <trkpt lat="50.64542" lon="2.81204">
        <ele>10.800000190735</ele>
        <time>2024-03-10T09:39:14.000Z</time>
      </trkpt>
      <trkpt lat="50.64583" lon="2.81255">
        <ele>10.199999809265</ele>
        <time>2024-03-10T09:39:22.000Z</time>
      </trkpt>
      <trkpt lat="50.64629" lon="2.81311">
        <ele>10.199999809265</ele>
        <time>2024-03-10T09:39:31.000Z</time>
      </trkpt>
      <trkpt lat="50.64635" lon="2.81319">
        <ele>10.199999809265</ele>
        <time>2024-03-10T09:39:32.000Z</time>
      </trkpt>
      <trkpt lat="50.64679" lon="2.81378">
        <ele>10.39999961853</ele>
        <time>2024-03-10T09:39:41.000Z</time>
      </trkpt>
      <trkpt lat="50.64717" lon="2.81447">
        <ele>10.60000038147</ele>
        <time>2024-03-10T09:39:50.000Z</time>
      </trkpt>
      <trkpt lat="50.64721" lon="2.81455">
        <ele>10.60000038147</ele>
        <time>2024-03-10T09:39:51.000Z</time>
      </trkpt>
      <trkpt lat="50.6474" lon="2.81494">
        <ele>11</ele>
        <time>2024-03-10T09:39:56.000Z</time>
      </trkpt>
      <trkpt lat="50.64745" lon="2.81511">
        <ele>11</ele>
        <time>2024-03-10T09:39:58.000Z</time>
      </trkpt>
      <trkpt lat="50.64763" lon="2.81575">
        <ele>11.39999961853</ele>
        <time>2024-03-10T09:40:05.000Z</time>
      </trkpt>
      <trkpt lat="50.64772" lon="2.81587">
        <ele>11.39999961853</ele>
        <time>2024-03-10T09:40:07.000Z</time>
      </trkpt>
      <trkpt lat="50.64783" lon="2.81597">
        <ele>11.39999961853</ele>
        <time>2024-03-10T09:40:09.000Z</time>
      </trkpt>
      <trkpt lat="50.648" lon="2.81608">
        <ele>11</ele>
        <time>2024-03-10T09:40:12.000Z</time>
      </trkpt>
      <trkpt lat="50.64844" lon="2.81636">
        <ele>10.800000190735</ele>
        <time>2024-03-10T09:40:19.000Z</time>
      </trkpt>
      <trkpt lat="50.64896" lon="2.81671">
        <ele>10.60000038147</ele>
        <time>2024-03-10T09:40:27.000Z</time>
      </trkpt>
      <trkpt lat="50.64914" lon="2.81687">
        <ele>10.800000190735</ele>
        <time>2024-03-10T09:40:30.000Z</time>
      </trkpt>
      <trkpt lat="50.64944" lon="2.81729">
        <ele>10.800000190735</ele>
        <time>2024-03-10T09:40:36.000Z</time>
      </trkpt>
      <trkpt lat="50.64988" lon="2.81797">
        <ele>11.39999961853</ele>
        <time>2024-03-10T09:40:45.000Z</time>
      </trkpt>
      <trkpt lat="50.64993" lon="2.81804">
        <ele>11.39999961853</ele>
        <time>2024-03-10T09:40:46.000Z</time>
      </trkpt>
      <trkpt lat="50.65033" lon="2.81864">
        <ele>11.60000038147</ele>
        <time>2024-03-10T09:40:54.000Z</time>
      </trkpt>
      <trkpt lat="50.65042" lon="2.81877">
        <ele>11.60000038147</ele>
        <time>2024-03-10T09:40:56.000Z</time>
      </trkpt>
      <trkpt lat="50.65084" lon="2.81935">
        <ele>11.60000038147</ele>
        <time>2024-03-10T09:41:04.000Z</time>
      </trkpt>
      <trkpt lat="50.65096" lon="2.81952">
        <ele>11.60000038147</ele>
        <time>2024-03-10T09:41:06.000Z</time>
      </trkpt>
      <trkpt lat="50.65139" lon="2.82011">
        <ele>11.800000190735</ele>
        <time>2024-03-10T09:41:14.000Z</time>
      </trkpt>
      <trkpt lat="50.65151" lon="2.82028">
        <ele>11.800000190735</ele>
        <time>2024-03-10T09:41:16.000Z</time>
      </trkpt>
      <trkpt lat="50.65193" lon="2.82089">
        <ele>11.39999961853</ele>
        <time>2024-03-10T09:41:24.000Z</time>
      </trkpt>
      <trkpt lat="50.65198" lon="2.82097">
        <ele>11.39999961853</ele>
        <time>2024-03-10T09:41:25.000Z</time>
      </trkpt>
      <trkpt lat="50.6524" lon="2.82159">
        <ele>11.199999809265</ele>
        <time>2024-03-10T09:41:33.000Z</time>
      </trkpt>
      <trkpt lat="50.65255" lon="2.82182">
        <ele>11.39999961853</ele>
        <time>2024-03-10T09:41:36.000Z</time>
      </trkpt>
      <trkpt lat="50.65296" lon="2.82252">
        <ele>11.800000190735</ele>
        <time>2024-03-10T09:41:45.000Z</time>
      </trkpt>
      <trkpt lat="50.65328" lon="2.82321">
        <ele>12</ele>
        <time>2024-03-10T09:41:53.000Z</time>
      </trkpt>
      <trkpt lat="50.65337" lon="2.82338">
        <ele>12</ele>
        <time>2024-03-10T09:41:55.000Z</time>
      </trkpt>
      <trkpt lat="50.65373" lon="2.82402">
        <ele>10.800000190735</ele>
        <time>2024-03-10T09:42:03.000Z</time>
      </trkpt>
      <trkpt lat="50.65376" lon="2.82408">
        <ele>10.800000190735</ele>
        <time>2024-03-10T09:42:04.000Z</time>
      </trkpt>
      <trkpt lat="50.65418" lon="2.82475">
        <ele>10.60000038147</ele>
        <time>2024-03-10T09:42:13.000Z</time>
      </trkpt>
      <trkpt lat="50.65459" lon="2.8254">
        <ele>11.199999809265</ele>
        <time>2024-03-10T09:42:22.000Z</time>
      </trkpt>
      <trkpt lat="50.65462" lon="2.82546">
        <ele>11.199999809265</ele>
        <time>2024-03-10T09:42:23.000Z</time>
      </trkpt>
      <trkpt lat="50.65484" lon="2.82586">
        <ele>11.199999809265</ele>
        <time>2024-03-10T09:42:29.000Z</time>
      </trkpt>
      <trkpt lat="50.65487" lon="2.82601">
        <ele>11.199999809265</ele>
        <time>2024-03-10T09:42:31.000Z</time>
      </trkpt>
      <trkpt lat="50.65485" lon="2.82608">
        <ele>11.199999809265</ele>
        <time>2024-03-10T09:42:32.000Z</time>
      </trkpt>
      <trkpt lat="50.65482" lon="2.82617">
        <ele>11.199999809265</ele>
        <time>2024-03-10T09:42:33.000Z</time>
      </trkpt>
      <trkpt lat="50.65466" lon="2.82644">
        <ele>11.199999809265</ele>
        <time>2024-03-10T09:42:37.000Z</time>
      </trkpt>
      <trkpt lat="50.65435" lon="2.82692">
        <ele>11.199999809265</ele>
        <time>2024-03-10T09:42:43.000Z</time>
      </trkpt>
      <trkpt lat="50.65403" lon="2.82746">
        <ele>11</ele>
        <time>2024-03-10T09:42:50.000Z</time>
      </trkpt>
      <trkpt lat="50.65368" lon="2.82813">
        <ele>10.800000190735</ele>
        <time>2024-03-10T09:42:58.000Z</time>
      </trkpt>
      <trkpt lat="50.65364" lon="2.82821">
        <ele>10.800000190735</ele>
        <time>2024-03-10T09:42:59.000Z</time>
      </trkpt>
      <trkpt lat="50.65329" lon="2.82887">
        <ele>10.60000038147</ele>
        <time>2024-03-10T09:43:07.000Z</time>
      </trkpt>
      <trkpt lat="50.65315" lon="2.82913">
        <ele>10.60000038147</ele>
        <time>2024-03-10T09:43:10.000Z</time>
      </trkpt>
      <trkpt lat="50.6528" lon="2.82981">
        <ele>10.60000038147</ele>
        <time>2024-03-10T09:43:18.000Z</time>
      </trkpt>
      <trkpt lat="50.65248" lon="2.83039">
        <ele>10.60000038147</ele>
        <time>2024-03-10T09:43:25.000Z</time>
      </trkpt>
      <trkpt lat="50.65208" lon="2.83106">
        <ele>10.60000038147</ele>
        <time>2024-03-10T09:43:34.000Z</time>
      </trkpt>
      <trkpt lat="50.65204" lon="2.83113">
        <ele>10.60000038147</ele>
        <time>2024-03-10T09:43:35.000Z</time>
      </trkpt>
      <trkpt lat="50.65174" lon="2.83167">
        <ele>10.800000190735</ele>
        <time>2024-03-10T09:43:42.000Z</time>
      </trkpt>
      <trkpt lat="50.6514" lon="2.83225">
        <ele>10.800000190735</ele>
        <time>2024-03-10T09:43:50.000Z</time>
      </trkpt>
      <trkpt lat="50.65133" lon="2.83237">
        <ele>10.800000190735</ele>
        <time>2024-03-10T09:43:52.000Z</time>
      </trkpt>
      <trkpt lat="50.6513" lon="2.83238">
        <ele>10.800000190735</ele>
        <time>2024-03-10T09:43:53.000Z</time>
      </trkpt>
      <trkpt lat="50.65126" lon="2.83236">
        <ele>10.800000190735</ele>
        <time>2024-03-10T09:43:54.000Z</time>
      </trkpt>
      <trkpt lat="50.6512" lon="2.83222">
        <ele>10.800000190735</ele>
        <time>2024-03-10T09:43:56.000Z</time>
      </trkpt>
      <trkpt lat="50.65095" lon="2.83166">
        <ele>10.60000038147</ele>
        <time>2024-03-10T09:44:03.000Z</time>
      </trkpt>
      <trkpt lat="50.65082" lon="2.83136">
        <ele>10.60000038147</ele>
        <time>2024-03-10T09:44:08.000Z</time>
      </trkpt>
      <trkpt lat="50.65072" lon="2.83123">
        <ele>10.60000038147</ele>
        <time>2024-03-10T09:44:12.000Z</time>
      </trkpt>
      <trkpt lat="50.65068" lon="2.83123">
        <ele>10.60000038147</ele>
        <time>2024-03-10T09:44:13.000Z</time>
      </trkpt>
      <trkpt lat="50.65063" lon="2.83125">
        <ele>10.60000038147</ele>
        <time>2024-03-10T09:44:15.000Z</time>
      </trkpt>
      <trkpt lat="50.6506" lon="2.83125">
        <ele>10.800000190735</ele>
        <time>2024-03-10T09:44:16.000Z</time>
      </trkpt>
      <trkpt lat="50.65058" lon="2.83124">
        <ele>10.800000190735</ele>
        <time>2024-03-10T09:44:18.000Z</time>
      </trkpt>
      <trkpt lat="50.65058" lon="2.83124">
        <ele>11</ele>
        <time>2024-03-10T09:44:20.000Z</time>
      </trkpt>
    </trkseg>
  </trk>
</gpx>